<?xml version="1.0" encoding="UTF-8" standalone="no" ?>
<gpx xmlns="http://www.topografix.com/GPX/1/1" xmlns:xsi="http://www.w3.org/2001/XMLSchema-instance" xsi:schemaLocation="http://www.topografix.com/GPX/1/1 http://www.topografix.com/GPX/1/1/gpx.xsd" version="1.1" creator="VisuGPX - https://www.visugpx.com">
  <metadata>
    <name>StBrisson Gouloux</name>
    <desc><![CDATA[ST Brisson - Le Gouloux Dist 20km  Dev + 610m
Parking école St Brisson]]></desc>
  </metadata>
  <trk>
    <name><![CDATA[2016-07-29 22:59:11]]></name>
    <extensions>
      <line xmlns="http://www.topografix.com/GPX/gpx_style/0/2">
        <color>0000FF</color>
        <width>4</width>
      </line>
    </extensions>
    <trkseg>
      <trkpt lat="47.27186" lon="4.08975">
        <ele>608.54</ele>
        <time>2016-07-29T07:22:45Z</time>
      </trkpt>
      <trkpt lat="47.27186" lon="4.08975">
        <ele>608.49</ele>
        <time>2016-07-29T07:22:46Z</time>
      </trkpt>
      <trkpt lat="47.27199" lon="4.08968">
        <ele>608.05</ele>
        <time>2016-07-29T07:23:06Z</time>
      </trkpt>
      <trkpt lat="47.272" lon="4.08966">
        <ele>607.98</ele>
        <time>2016-07-29T07:23:08Z</time>
      </trkpt>
      <trkpt lat="47.27202" lon="4.08958">
        <ele>606.87</ele>
        <time>2016-07-29T07:23:20Z</time>
      </trkpt>
      <trkpt lat="47.27206" lon="4.08945">
        <ele>604.83</ele>
        <time>2016-07-29T07:23:38Z</time>
      </trkpt>
      <trkpt lat="47.27209" lon="4.08937">
        <ele>603.17</ele>
        <time>2016-07-29T07:23:51Z</time>
      </trkpt>
      <trkpt lat="47.27205" lon="4.08922">
        <ele>602.39</ele>
        <time>2016-07-29T07:24:05Z</time>
      </trkpt>
      <trkpt lat="47.27204" lon="4.08905">
        <ele>601.87</ele>
        <time>2016-07-29T07:24:27Z</time>
      </trkpt>
      <trkpt lat="47.27202" lon="4.08896">
        <ele>601.17</ele>
        <time>2016-07-29T07:24:34Z</time>
      </trkpt>
      <trkpt lat="47.27202" lon="4.08881">
        <ele>600.04</ele>
        <time>2016-07-29T07:24:48Z</time>
      </trkpt>
      <trkpt lat="47.27193" lon="4.08873">
        <ele>599.05</ele>
        <time>2016-07-29T07:24:58Z</time>
      </trkpt>
      <trkpt lat="47.27186" lon="4.08855">
        <ele>597.58</ele>
        <time>2016-07-29T07:25:10Z</time>
      </trkpt>
      <trkpt lat="47.27184" lon="4.0885">
        <ele>597.1</ele>
        <time>2016-07-29T07:25:13Z</time>
      </trkpt>
      <trkpt lat="47.27184" lon="4.08835">
        <ele>595.99</ele>
        <time>2016-07-29T07:25:24Z</time>
      </trkpt>
      <trkpt lat="47.27191" lon="4.0882">
        <ele>594.22</ele>
        <time>2016-07-29T07:25:39Z</time>
      </trkpt>
      <trkpt lat="47.27199" lon="4.08801">
        <ele>592.25</ele>
        <time>2016-07-29T07:25:56Z</time>
      </trkpt>
      <trkpt lat="47.27205" lon="4.08745">
        <ele>589.21</ele>
        <time>2016-07-29T07:26:24Z</time>
      </trkpt>
      <trkpt lat="47.27204" lon="4.08732">
        <ele>588.76</ele>
        <time>2016-07-29T07:26:30Z</time>
      </trkpt>
      <trkpt lat="47.27209" lon="4.0867">
        <ele>586.14</ele>
        <time>2016-07-29T07:27:04Z</time>
      </trkpt>
      <trkpt lat="47.27211" lon="4.08629">
        <ele>584.81</ele>
        <time>2016-07-29T07:27:20Z</time>
      </trkpt>
      <trkpt lat="47.27215" lon="4.08614">
        <ele>584.31</ele>
        <time>2016-07-29T07:27:27Z</time>
      </trkpt>
      <trkpt lat="47.27218" lon="4.08587">
        <ele>583.64</ele>
        <time>2016-07-29T07:27:41Z</time>
      </trkpt>
      <trkpt lat="47.27221" lon="4.08576">
        <ele>583.3</ele>
        <time>2016-07-29T07:27:49Z</time>
      </trkpt>
      <trkpt lat="47.27225" lon="4.08566">
        <ele>582.86</ele>
        <time>2016-07-29T07:28:05Z</time>
      </trkpt>
      <trkpt lat="47.27231" lon="4.08545">
        <ele>582.27</ele>
        <time>2016-07-29T07:28:22Z</time>
      </trkpt>
      <trkpt lat="47.27234" lon="4.08535">
        <ele>582.02</ele>
        <time>2016-07-29T07:28:29Z</time>
      </trkpt>
      <trkpt lat="47.2724" lon="4.08504">
        <ele>581.47</ele>
        <time>2016-07-29T07:28:47Z</time>
      </trkpt>
      <trkpt lat="47.27244" lon="4.08483">
        <ele>581.01</ele>
        <time>2016-07-29T07:29:06Z</time>
      </trkpt>
      <trkpt lat="47.27251" lon="4.08455">
        <ele>580.33</ele>
        <time>2016-07-29T07:29:34Z</time>
      </trkpt>
      <trkpt lat="47.27251" lon="4.08457">
        <ele>580.1</ele>
        <time>2016-07-29T07:29:46Z</time>
      </trkpt>
      <trkpt lat="47.27249" lon="4.08454">
        <ele>580.31</ele>
        <time>2016-07-29T07:30:31Z</time>
      </trkpt>
      <trkpt lat="47.27258" lon="4.08444">
        <ele>580.08</ele>
        <time>2016-07-29T07:30:44Z</time>
      </trkpt>
      <trkpt lat="47.27267" lon="4.0842">
        <ele>579.99</ele>
        <time>2016-07-29T07:31:03Z</time>
      </trkpt>
      <trkpt lat="47.27273" lon="4.08406">
        <ele>579.87</ele>
        <time>2016-07-29T07:31:11Z</time>
      </trkpt>
      <trkpt lat="47.27278" lon="4.0839">
        <ele>580.1</ele>
        <time>2016-07-29T07:31:21Z</time>
      </trkpt>
      <trkpt lat="47.27279" lon="4.08363">
        <ele>580.42</ele>
        <time>2016-07-29T07:31:36Z</time>
      </trkpt>
      <trkpt lat="47.27273" lon="4.08343">
        <ele>580.65</ele>
        <time>2016-07-29T07:31:46Z</time>
      </trkpt>
      <trkpt lat="47.27273" lon="4.08329">
        <ele>580.89</ele>
        <time>2016-07-29T07:31:53Z</time>
      </trkpt>
      <trkpt lat="47.2727" lon="4.08313">
        <ele>581.81</ele>
        <time>2016-07-29T07:32:03Z</time>
      </trkpt>
      <trkpt lat="47.2727" lon="4.08303">
        <ele>582.49</ele>
        <time>2016-07-29T07:32:10Z</time>
      </trkpt>
      <trkpt lat="47.2727" lon="4.08281">
        <ele>584.57</ele>
        <time>2016-07-29T07:32:26Z</time>
      </trkpt>
      <trkpt lat="47.27268" lon="4.08265">
        <ele>585.65</ele>
        <time>2016-07-29T07:32:37Z</time>
      </trkpt>
      <trkpt lat="47.27261" lon="4.08238">
        <ele>586.98</ele>
        <time>2016-07-29T07:32:52Z</time>
      </trkpt>
      <trkpt lat="47.27253" lon="4.08218">
        <ele>587.93</ele>
        <time>2016-07-29T07:33:03Z</time>
      </trkpt>
      <trkpt lat="47.27249" lon="4.08205">
        <ele>588.84</ele>
        <time>2016-07-29T07:33:11Z</time>
      </trkpt>
      <trkpt lat="47.27241" lon="4.08195">
        <ele>589.81</ele>
        <time>2016-07-29T07:33:19Z</time>
      </trkpt>
      <trkpt lat="47.27234" lon="4.08187">
        <ele>590.51</ele>
        <time>2016-07-29T07:33:26Z</time>
      </trkpt>
      <trkpt lat="47.27229" lon="4.08181">
        <ele>591.42</ele>
        <time>2016-07-29T07:33:33Z</time>
      </trkpt>
      <trkpt lat="47.27222" lon="4.08174">
        <ele>592.6</ele>
        <time>2016-07-29T07:33:41Z</time>
      </trkpt>
      <trkpt lat="47.27217" lon="4.0817">
        <ele>593.53</ele>
        <time>2016-07-29T07:33:50Z</time>
      </trkpt>
      <trkpt lat="47.27203" lon="4.08162">
        <ele>595.56</ele>
        <time>2016-07-29T07:34:03Z</time>
      </trkpt>
      <trkpt lat="47.27186" lon="4.0815">
        <ele>598.14</ele>
        <time>2016-07-29T07:34:23Z</time>
      </trkpt>
      <trkpt lat="47.27177" lon="4.08142">
        <ele>599.54</ele>
        <time>2016-07-29T07:34:34Z</time>
      </trkpt>
      <trkpt lat="47.27166" lon="4.08138">
        <ele>600.65</ele>
        <time>2016-07-29T07:34:46Z</time>
      </trkpt>
      <trkpt lat="47.27157" lon="4.08132">
        <ele>601.88</ele>
        <time>2016-07-29T07:34:56Z</time>
      </trkpt>
      <trkpt lat="47.27147" lon="4.08126">
        <ele>603.28</ele>
        <time>2016-07-29T07:35:07Z</time>
      </trkpt>
      <trkpt lat="47.27135" lon="4.08121">
        <ele>604.33</ele>
        <time>2016-07-29T07:35:17Z</time>
      </trkpt>
      <trkpt lat="47.27126" lon="4.08117">
        <ele>605.28</ele>
        <time>2016-07-29T07:35:25Z</time>
      </trkpt>
      <trkpt lat="47.27112" lon="4.08108">
        <ele>606.85</ele>
        <time>2016-07-29T07:35:40Z</time>
      </trkpt>
      <trkpt lat="47.27106" lon="4.08101">
        <ele>607.72</ele>
        <time>2016-07-29T07:35:49Z</time>
      </trkpt>
      <trkpt lat="47.271" lon="4.08094">
        <ele>608.4</ele>
        <time>2016-07-29T07:35:57Z</time>
      </trkpt>
      <trkpt lat="47.27094" lon="4.08087">
        <ele>609.44</ele>
        <time>2016-07-29T07:36:05Z</time>
      </trkpt>
      <trkpt lat="47.27088" lon="4.08077">
        <ele>610.81</ele>
        <time>2016-07-29T07:36:15Z</time>
      </trkpt>
      <trkpt lat="47.27077" lon="4.08067">
        <ele>611.77</ele>
        <time>2016-07-29T07:36:27Z</time>
      </trkpt>
      <trkpt lat="47.27067" lon="4.08056">
        <ele>612.62</ele>
        <time>2016-07-29T07:36:39Z</time>
      </trkpt>
      <trkpt lat="47.27063" lon="4.08048">
        <ele>613.09</ele>
        <time>2016-07-29T07:36:50Z</time>
      </trkpt>
      <trkpt lat="47.27062" lon="4.08039">
        <ele>613.34</ele>
        <time>2016-07-29T07:36:55Z</time>
      </trkpt>
      <trkpt lat="47.27038" lon="4.08012">
        <ele>615.62</ele>
        <time>2016-07-29T07:37:23Z</time>
      </trkpt>
      <trkpt lat="47.27032" lon="4.08001">
        <ele>616.43</ele>
        <time>2016-07-29T07:37:33Z</time>
      </trkpt>
      <trkpt lat="47.27025" lon="4.07989">
        <ele>617.48</ele>
        <time>2016-07-29T07:37:44Z</time>
      </trkpt>
      <trkpt lat="47.27021" lon="4.07977">
        <ele>619.02</ele>
        <time>2016-07-29T07:37:56Z</time>
      </trkpt>
      <trkpt lat="47.26992" lon="4.07908">
        <ele>622.15</ele>
        <time>2016-07-29T07:38:43Z</time>
      </trkpt>
      <trkpt lat="47.2698" lon="4.07867">
        <ele>622.78</ele>
        <time>2016-07-29T07:39:09Z</time>
      </trkpt>
      <trkpt lat="47.26973" lon="4.07848">
        <ele>623.08</ele>
        <time>2016-07-29T07:39:19Z</time>
      </trkpt>
      <trkpt lat="47.2697" lon="4.07821">
        <ele>623.42</ele>
        <time>2016-07-29T07:39:33Z</time>
      </trkpt>
      <trkpt lat="47.26968" lon="4.07795">
        <ele>623.49</ele>
        <time>2016-07-29T07:39:44Z</time>
      </trkpt>
      <trkpt lat="47.2697" lon="4.07788">
        <ele>623.41</ele>
        <time>2016-07-29T07:39:53Z</time>
      </trkpt>
      <trkpt lat="47.26974" lon="4.07783">
        <ele>624.23</ele>
        <time>2016-07-29T07:40:06Z</time>
      </trkpt>
      <trkpt lat="47.26976" lon="4.07782">
        <ele>624.5</ele>
        <time>2016-07-29T07:40:10Z</time>
      </trkpt>
      <trkpt lat="47.2699" lon="4.07784">
        <ele>626.12</ele>
        <time>2016-07-29T07:40:28Z</time>
      </trkpt>
      <trkpt lat="47.27002" lon="4.07783">
        <ele>627.83</ele>
        <time>2016-07-29T07:40:46Z</time>
      </trkpt>
      <trkpt lat="47.27004" lon="4.07781">
        <ele>628</ele>
        <time>2016-07-29T07:40:48Z</time>
      </trkpt>
      <trkpt lat="47.27016" lon="4.0778">
        <ele>629.66</ele>
        <time>2016-07-29T07:41:04Z</time>
      </trkpt>
      <trkpt lat="47.27043" lon="4.07788">
        <ele>631.92</ele>
        <time>2016-07-29T07:41:30Z</time>
      </trkpt>
      <trkpt lat="47.27062" lon="4.07793">
        <ele>633.46</ele>
        <time>2016-07-29T07:41:51Z</time>
      </trkpt>
      <trkpt lat="47.27094" lon="4.07802">
        <ele>635.27</ele>
        <time>2016-07-29T07:42:18Z</time>
      </trkpt>
      <trkpt lat="47.27122" lon="4.07808">
        <ele>636.8</ele>
        <time>2016-07-29T07:42:46Z</time>
      </trkpt>
      <trkpt lat="47.27146" lon="4.07813">
        <ele>637.84</ele>
        <time>2016-07-29T07:43:10Z</time>
      </trkpt>
      <trkpt lat="47.27154" lon="4.07814">
        <ele>638.25</ele>
        <time>2016-07-29T07:43:20Z</time>
      </trkpt>
      <trkpt lat="47.27171" lon="4.07812">
        <ele>639.75</ele>
        <time>2016-07-29T07:43:37Z</time>
      </trkpt>
      <trkpt lat="47.2719" lon="4.0781">
        <ele>641.73</ele>
        <time>2016-07-29T07:44:00Z</time>
      </trkpt>
      <trkpt lat="47.2719" lon="4.07809">
        <ele>642.12</ele>
        <time>2016-07-29T07:44:04Z</time>
      </trkpt>
      <trkpt lat="47.27202" lon="4.07807">
        <ele>643.92</ele>
        <time>2016-07-29T07:44:23Z</time>
      </trkpt>
      <trkpt lat="47.27227" lon="4.07808">
        <ele>645.6</ele>
        <time>2016-07-29T07:44:42Z</time>
      </trkpt>
      <trkpt lat="47.27239" lon="4.07803">
        <ele>646.59</ele>
        <time>2016-07-29T07:44:54Z</time>
      </trkpt>
      <trkpt lat="47.27246" lon="4.07799">
        <ele>647.26</ele>
        <time>2016-07-29T07:45:03Z</time>
      </trkpt>
      <trkpt lat="47.27259" lon="4.07786">
        <ele>648.28</ele>
        <time>2016-07-29T07:45:19Z</time>
      </trkpt>
      <trkpt lat="47.27276" lon="4.07771">
        <ele>649.56</ele>
        <time>2016-07-29T07:45:38Z</time>
      </trkpt>
      <trkpt lat="47.27284" lon="4.07758">
        <ele>650.33</ele>
        <time>2016-07-29T07:45:51Z</time>
      </trkpt>
      <trkpt lat="47.27288" lon="4.07747">
        <ele>651.01</ele>
        <time>2016-07-29T07:46:02Z</time>
      </trkpt>
      <trkpt lat="47.27296" lon="4.07739">
        <ele>652.8</ele>
        <time>2016-07-29T07:46:19Z</time>
      </trkpt>
      <trkpt lat="47.2731" lon="4.07726">
        <ele>654.02</ele>
        <time>2016-07-29T07:46:37Z</time>
      </trkpt>
      <trkpt lat="47.27317" lon="4.07718">
        <ele>654.28</ele>
        <time>2016-07-29T07:46:46Z</time>
      </trkpt>
      <trkpt lat="47.27331" lon="4.07699">
        <ele>654.63</ele>
        <time>2016-07-29T07:47:04Z</time>
      </trkpt>
      <trkpt lat="47.27346" lon="4.07689">
        <ele>655.02</ele>
        <time>2016-07-29T07:47:18Z</time>
      </trkpt>
      <trkpt lat="47.27368" lon="4.07677">
        <ele>655.71</ele>
        <time>2016-07-29T07:47:36Z</time>
      </trkpt>
      <trkpt lat="47.2737" lon="4.07674">
        <ele>655.76</ele>
        <time>2016-07-29T07:47:38Z</time>
      </trkpt>
      <trkpt lat="47.27379" lon="4.07667">
        <ele>656.03</ele>
        <time>2016-07-29T07:47:50Z</time>
      </trkpt>
      <trkpt lat="47.27392" lon="4.07659">
        <ele>656.35</ele>
        <time>2016-07-29T07:48:02Z</time>
      </trkpt>
      <trkpt lat="47.27408" lon="4.07654">
        <ele>656.49</ele>
        <time>2016-07-29T07:48:12Z</time>
      </trkpt>
      <trkpt lat="47.27419" lon="4.0764">
        <ele>656.67</ele>
        <time>2016-07-29T07:48:25Z</time>
      </trkpt>
      <trkpt lat="47.27429" lon="4.0763">
        <ele>656.83</ele>
        <time>2016-07-29T07:48:36Z</time>
      </trkpt>
      <trkpt lat="47.27439" lon="4.07619">
        <ele>656.76</ele>
        <time>2016-07-29T07:48:48Z</time>
      </trkpt>
      <trkpt lat="47.27452" lon="4.07602">
        <ele>656.36</ele>
        <time>2016-07-29T07:49:05Z</time>
      </trkpt>
      <trkpt lat="47.27462" lon="4.07599">
        <ele>656.25</ele>
        <time>2016-07-29T07:49:16Z</time>
      </trkpt>
      <trkpt lat="47.2747" lon="4.07596">
        <ele>655.95</ele>
        <time>2016-07-29T07:49:27Z</time>
      </trkpt>
      <trkpt lat="47.27478" lon="4.07589">
        <ele>655.53</ele>
        <time>2016-07-29T07:49:38Z</time>
      </trkpt>
      <trkpt lat="47.27495" lon="4.07576">
        <ele>654.35</ele>
        <time>2016-07-29T07:49:51Z</time>
      </trkpt>
      <trkpt lat="47.27521" lon="4.07562">
        <ele>652.52</ele>
        <time>2016-07-29T07:50:10Z</time>
      </trkpt>
      <trkpt lat="47.27537" lon="4.07557">
        <ele>650.39</ele>
        <time>2016-07-29T07:50:28Z</time>
      </trkpt>
      <trkpt lat="47.27545" lon="4.07556">
        <ele>649.83</ele>
        <time>2016-07-29T07:50:36Z</time>
      </trkpt>
      <trkpt lat="47.27555" lon="4.07557">
        <ele>648.94</ele>
        <time>2016-07-29T07:50:48Z</time>
      </trkpt>
      <trkpt lat="47.27571" lon="4.07563">
        <ele>646.35</ele>
        <time>2016-07-29T07:51:10Z</time>
      </trkpt>
      <trkpt lat="47.27589" lon="4.07566">
        <ele>645.13</ele>
        <time>2016-07-29T07:51:25Z</time>
      </trkpt>
      <trkpt lat="47.27612" lon="4.07569">
        <ele>644</ele>
        <time>2016-07-29T07:51:42Z</time>
      </trkpt>
      <trkpt lat="47.27624" lon="4.07572">
        <ele>643.26</ele>
        <time>2016-07-29T07:51:52Z</time>
      </trkpt>
      <trkpt lat="47.27626" lon="4.0757">
        <ele>643.11</ele>
        <time>2016-07-29T07:51:55Z</time>
      </trkpt>
      <trkpt lat="47.2764" lon="4.07561">
        <ele>641.48</ele>
        <time>2016-07-29T07:52:09Z</time>
      </trkpt>
      <trkpt lat="47.27649" lon="4.07555">
        <ele>640.53</ele>
        <time>2016-07-29T07:52:17Z</time>
      </trkpt>
      <trkpt lat="47.2766" lon="4.07547">
        <ele>639.25</ele>
        <time>2016-07-29T07:52:26Z</time>
      </trkpt>
      <trkpt lat="47.27669" lon="4.0754">
        <ele>638.48</ele>
        <time>2016-07-29T07:52:36Z</time>
      </trkpt>
      <trkpt lat="47.27685" lon="4.07525">
        <ele>636.81</ele>
        <time>2016-07-29T07:52:53Z</time>
      </trkpt>
      <trkpt lat="47.27711" lon="4.0751">
        <ele>634.5</ele>
        <time>2016-07-29T07:53:13Z</time>
      </trkpt>
      <trkpt lat="47.27732" lon="4.075">
        <ele>632.74</ele>
        <time>2016-07-29T07:53:27Z</time>
      </trkpt>
      <trkpt lat="47.27746" lon="4.07488">
        <ele>629.74</ele>
        <time>2016-07-29T07:53:50Z</time>
      </trkpt>
      <trkpt lat="47.27755" lon="4.07478">
        <ele>626.88</ele>
        <time>2016-07-29T07:54:09Z</time>
      </trkpt>
      <trkpt lat="47.27766" lon="4.07486">
        <ele>624.41</ele>
        <time>2016-07-29T07:54:28Z</time>
      </trkpt>
      <trkpt lat="47.27767" lon="4.07486">
        <ele>624.33</ele>
        <time>2016-07-29T07:54:29Z</time>
      </trkpt>
      <trkpt lat="47.27784" lon="4.07489">
        <ele>622.65</ele>
        <time>2016-07-29T07:54:43Z</time>
      </trkpt>
      <trkpt lat="47.27799" lon="4.07503">
        <ele>622.2</ele>
        <time>2016-07-29T07:55:08Z</time>
      </trkpt>
      <trkpt lat="47.278" lon="4.07514">
        <ele>622.16</ele>
        <time>2016-07-29T07:55:22Z</time>
      </trkpt>
      <trkpt lat="47.27802" lon="4.07529">
        <ele>622.04</ele>
        <time>2016-07-29T07:55:41Z</time>
      </trkpt>
      <trkpt lat="47.27798" lon="4.07538">
        <ele>621.62</ele>
        <time>2016-07-29T07:55:59Z</time>
      </trkpt>
      <trkpt lat="47.27792" lon="4.07517">
        <ele>621.61</ele>
        <time>2016-07-29T07:56:51Z</time>
      </trkpt>
      <trkpt lat="47.27788" lon="4.07521">
        <ele>621.52</ele>
        <time>2016-07-29T07:57:59Z</time>
      </trkpt>
      <trkpt lat="47.27801" lon="4.07517">
        <ele>621.63</ele>
        <time>2016-07-29T07:58:54Z</time>
      </trkpt>
      <trkpt lat="47.27794" lon="4.07523">
        <ele>621.55</ele>
        <time>2016-07-29T07:59:41Z</time>
      </trkpt>
      <trkpt lat="47.27787" lon="4.07537">
        <ele>621.56</ele>
        <time>2016-07-29T08:00:20Z</time>
      </trkpt>
      <trkpt lat="47.27796" lon="4.07542">
        <ele>621.21</ele>
        <time>2016-07-29T08:00:46Z</time>
      </trkpt>
      <trkpt lat="47.27792" lon="4.0753">
        <ele>621.24</ele>
        <time>2016-07-29T08:01:09Z</time>
      </trkpt>
      <trkpt lat="47.27789" lon="4.07548">
        <ele>620.4</ele>
        <time>2016-07-29T08:01:26Z</time>
      </trkpt>
      <trkpt lat="47.27787" lon="4.07562">
        <ele>619.31</ele>
        <time>2016-07-29T08:01:37Z</time>
      </trkpt>
      <trkpt lat="47.27784" lon="4.07581">
        <ele>617.99</ele>
        <time>2016-07-29T08:01:53Z</time>
      </trkpt>
      <trkpt lat="47.27783" lon="4.07582">
        <ele>617.89</ele>
        <time>2016-07-29T08:01:54Z</time>
      </trkpt>
      <trkpt lat="47.27782" lon="4.07603">
        <ele>616.88</ele>
        <time>2016-07-29T08:02:05Z</time>
      </trkpt>
      <trkpt lat="47.27785" lon="4.0762">
        <ele>615.12</ele>
        <time>2016-07-29T08:02:17Z</time>
      </trkpt>
      <trkpt lat="47.27788" lon="4.07641">
        <ele>612.48</ele>
        <time>2016-07-29T08:02:29Z</time>
      </trkpt>
      <trkpt lat="47.27789" lon="4.07656">
        <ele>611.42</ele>
        <time>2016-07-29T08:02:35Z</time>
      </trkpt>
      <trkpt lat="47.27793" lon="4.07688">
        <ele>608.79</ele>
        <time>2016-07-29T08:02:52Z</time>
      </trkpt>
      <trkpt lat="47.27799" lon="4.07709">
        <ele>605.69</ele>
        <time>2016-07-29T08:03:11Z</time>
      </trkpt>
      <trkpt lat="47.27806" lon="4.07721">
        <ele>603.34</ele>
        <time>2016-07-29T08:03:24Z</time>
      </trkpt>
      <trkpt lat="47.27809" lon="4.0774">
        <ele>601.24</ele>
        <time>2016-07-29T08:03:36Z</time>
      </trkpt>
      <trkpt lat="47.27809" lon="4.07751">
        <ele>599.68</ele>
        <time>2016-07-29T08:03:44Z</time>
      </trkpt>
      <trkpt lat="47.27811" lon="4.07766">
        <ele>598.66</ele>
        <time>2016-07-29T08:03:52Z</time>
      </trkpt>
      <trkpt lat="47.27816" lon="4.07806">
        <ele>596.2</ele>
        <time>2016-07-29T08:04:12Z</time>
      </trkpt>
      <trkpt lat="47.27821" lon="4.07822">
        <ele>594.31</ele>
        <time>2016-07-29T08:04:26Z</time>
      </trkpt>
      <trkpt lat="47.27827" lon="4.07847">
        <ele>591.78</ele>
        <time>2016-07-29T08:04:43Z</time>
      </trkpt>
      <trkpt lat="47.27824" lon="4.07867">
        <ele>588.73</ele>
        <time>2016-07-29T08:04:58Z</time>
      </trkpt>
      <trkpt lat="47.27819" lon="4.079">
        <ele>585.4</ele>
        <time>2016-07-29T08:05:20Z</time>
      </trkpt>
      <trkpt lat="47.27821" lon="4.07916">
        <ele>583.23</ele>
        <time>2016-07-29T08:05:32Z</time>
      </trkpt>
      <trkpt lat="47.27824" lon="4.07926">
        <ele>582.8</ele>
        <time>2016-07-29T08:05:41Z</time>
      </trkpt>
      <trkpt lat="47.27818" lon="4.07937">
        <ele>582.36</ele>
        <time>2016-07-29T08:05:51Z</time>
      </trkpt>
      <trkpt lat="47.27816" lon="4.07949">
        <ele>582.08</ele>
        <time>2016-07-29T08:06:05Z</time>
      </trkpt>
      <trkpt lat="47.27822" lon="4.07955">
        <ele>581.76</ele>
        <time>2016-07-29T08:06:17Z</time>
      </trkpt>
      <trkpt lat="47.27835" lon="4.07953">
        <ele>579.79</ele>
        <time>2016-07-29T08:06:32Z</time>
      </trkpt>
      <trkpt lat="47.27852" lon="4.07933">
        <ele>576.59</ele>
        <time>2016-07-29T08:06:54Z</time>
      </trkpt>
      <trkpt lat="47.27863" lon="4.07914">
        <ele>574.68</ele>
        <time>2016-07-29T08:07:07Z</time>
      </trkpt>
      <trkpt lat="47.27872" lon="4.07906">
        <ele>573.48</ele>
        <time>2016-07-29T08:07:17Z</time>
      </trkpt>
      <trkpt lat="47.27877" lon="4.07906">
        <ele>573.03</ele>
        <time>2016-07-29T08:07:23Z</time>
      </trkpt>
      <trkpt lat="47.27882" lon="4.07906">
        <ele>572.74</ele>
        <time>2016-07-29T08:07:35Z</time>
      </trkpt>
      <trkpt lat="47.2789" lon="4.07917">
        <ele>572.74</ele>
        <time>2016-07-29T08:07:45Z</time>
      </trkpt>
      <trkpt lat="47.27906" lon="4.07944">
        <ele>575.62</ele>
        <time>2016-07-29T08:08:09Z</time>
      </trkpt>
      <trkpt lat="47.27911" lon="4.07975">
        <ele>576.45</ele>
        <time>2016-07-29T08:08:32Z</time>
      </trkpt>
      <trkpt lat="47.27921" lon="4.08008">
        <ele>576.84</ele>
        <time>2016-07-29T08:08:54Z</time>
      </trkpt>
      <trkpt lat="47.27936" lon="4.08034">
        <ele>578.62</ele>
        <time>2016-07-29T08:09:16Z</time>
      </trkpt>
      <trkpt lat="47.27946" lon="4.08063">
        <ele>581.24</ele>
        <time>2016-07-29T08:09:44Z</time>
      </trkpt>
      <trkpt lat="47.27958" lon="4.08094">
        <ele>582.54</ele>
        <time>2016-07-29T08:10:11Z</time>
      </trkpt>
      <trkpt lat="47.27971" lon="4.08125">
        <ele>585.49</ele>
        <time>2016-07-29T08:10:37Z</time>
      </trkpt>
      <trkpt lat="47.2798" lon="4.08144">
        <ele>587.11</ele>
        <time>2016-07-29T08:10:53Z</time>
      </trkpt>
      <trkpt lat="47.28" lon="4.08155">
        <ele>589.02</ele>
        <time>2016-07-29T08:11:11Z</time>
      </trkpt>
      <trkpt lat="47.28006" lon="4.08152">
        <ele>589.89</ele>
        <time>2016-07-29T08:11:38Z</time>
      </trkpt>
      <trkpt lat="47.28004" lon="4.08155">
        <ele>589.86</ele>
        <time>2016-07-29T08:12:32Z</time>
      </trkpt>
      <trkpt lat="47.28005" lon="4.08154">
        <ele>589.97</ele>
        <time>2016-07-29T08:13:00Z</time>
      </trkpt>
      <trkpt lat="47.28004" lon="4.08155">
        <ele>589.93</ele>
        <time>2016-07-29T08:13:35Z</time>
      </trkpt>
      <trkpt lat="47.28007" lon="4.08159">
        <ele>589.99</ele>
        <time>2016-07-29T08:14:15Z</time>
      </trkpt>
      <trkpt lat="47.28008" lon="4.08182">
        <ele>591.2</ele>
        <time>2016-07-29T08:14:35Z</time>
      </trkpt>
      <trkpt lat="47.28005" lon="4.08208">
        <ele>592.07</ele>
        <time>2016-07-29T08:14:56Z</time>
      </trkpt>
      <trkpt lat="47.28" lon="4.08245">
        <ele>594.11</ele>
        <time>2016-07-29T08:15:24Z</time>
      </trkpt>
      <trkpt lat="47.27998" lon="4.08284">
        <ele>595.24</ele>
        <time>2016-07-29T08:15:49Z</time>
      </trkpt>
      <trkpt lat="47.27996" lon="4.08321">
        <ele>596</ele>
        <time>2016-07-29T08:16:14Z</time>
      </trkpt>
      <trkpt lat="47.27994" lon="4.08366">
        <ele>597.48</ele>
        <time>2016-07-29T08:16:41Z</time>
      </trkpt>
      <trkpt lat="47.27999" lon="4.08411">
        <ele>598.68</ele>
        <time>2016-07-29T08:17:08Z</time>
      </trkpt>
      <trkpt lat="47.28002" lon="4.08436">
        <ele>598.61</ele>
        <time>2016-07-29T08:17:19Z</time>
      </trkpt>
      <trkpt lat="47.28001" lon="4.0846">
        <ele>598.65</ele>
        <time>2016-07-29T08:17:34Z</time>
      </trkpt>
      <trkpt lat="47.28007" lon="4.08509">
        <ele>598.9</ele>
        <time>2016-07-29T08:17:59Z</time>
      </trkpt>
      <trkpt lat="47.28028" lon="4.08541">
        <ele>598.55</ele>
        <time>2016-07-29T08:18:22Z</time>
      </trkpt>
      <trkpt lat="47.28051" lon="4.08582">
        <ele>598.86</ele>
        <time>2016-07-29T08:18:52Z</time>
      </trkpt>
      <trkpt lat="47.28053" lon="4.0861">
        <ele>599.83</ele>
        <time>2016-07-29T08:19:09Z</time>
      </trkpt>
      <trkpt lat="47.2805" lon="4.08613">
        <ele>600.08</ele>
        <time>2016-07-29T08:19:16Z</time>
      </trkpt>
      <trkpt lat="47.2805" lon="4.08628">
        <ele>600.09</ele>
        <time>2016-07-29T08:19:32Z</time>
      </trkpt>
      <trkpt lat="47.28046" lon="4.08648">
        <ele>600.99</ele>
        <time>2016-07-29T08:19:56Z</time>
      </trkpt>
      <trkpt lat="47.28041" lon="4.08652">
        <ele>601.26</ele>
        <time>2016-07-29T08:20:05Z</time>
      </trkpt>
      <trkpt lat="47.28034" lon="4.08665">
        <ele>601.98</ele>
        <time>2016-07-29T08:20:22Z</time>
      </trkpt>
      <trkpt lat="47.28025" lon="4.08682">
        <ele>602.44</ele>
        <time>2016-07-29T08:20:34Z</time>
      </trkpt>
      <trkpt lat="47.28003" lon="4.08705">
        <ele>602.8</ele>
        <time>2016-07-29T08:20:53Z</time>
      </trkpt>
      <trkpt lat="47.27993" lon="4.08717">
        <ele>602.96</ele>
        <time>2016-07-29T08:21:04Z</time>
      </trkpt>
      <trkpt lat="47.27978" lon="4.08747">
        <ele>603.87</ele>
        <time>2016-07-29T08:21:28Z</time>
      </trkpt>
      <trkpt lat="47.27967" lon="4.08778">
        <ele>604.59</ele>
        <time>2016-07-29T08:21:46Z</time>
      </trkpt>
      <trkpt lat="47.2796" lon="4.08823">
        <ele>605.88</ele>
        <time>2016-07-29T08:22:10Z</time>
      </trkpt>
      <trkpt lat="47.27964" lon="4.0883">
        <ele>606.27</ele>
        <time>2016-07-29T08:22:16Z</time>
      </trkpt>
      <trkpt lat="47.27971" lon="4.08836">
        <ele>607.27</ele>
        <time>2016-07-29T08:22:23Z</time>
      </trkpt>
      <trkpt lat="47.27994" lon="4.08848">
        <ele>609.01</ele>
        <time>2016-07-29T08:22:38Z</time>
      </trkpt>
      <trkpt lat="47.28011" lon="4.08851">
        <ele>609.77</ele>
        <time>2016-07-29T08:22:53Z</time>
      </trkpt>
      <trkpt lat="47.2802" lon="4.08848">
        <ele>610.82</ele>
        <time>2016-07-29T08:23:03Z</time>
      </trkpt>
      <trkpt lat="47.28029" lon="4.08846">
        <ele>611.6</ele>
        <time>2016-07-29T08:23:12Z</time>
      </trkpt>
      <trkpt lat="47.28037" lon="4.08844">
        <ele>612.25</ele>
        <time>2016-07-29T08:23:19Z</time>
      </trkpt>
      <trkpt lat="47.28045" lon="4.08843">
        <ele>613.11</ele>
        <time>2016-07-29T08:23:27Z</time>
      </trkpt>
      <trkpt lat="47.28058" lon="4.08839">
        <ele>614.02</ele>
        <time>2016-07-29T08:23:40Z</time>
      </trkpt>
      <trkpt lat="47.28067" lon="4.08836">
        <ele>614.83</ele>
        <time>2016-07-29T08:23:49Z</time>
      </trkpt>
      <trkpt lat="47.28078" lon="4.08829">
        <ele>615.92</ele>
        <time>2016-07-29T08:24:02Z</time>
      </trkpt>
      <trkpt lat="47.28088" lon="4.08824">
        <ele>616.68</ele>
        <time>2016-07-29T08:24:11Z</time>
      </trkpt>
      <trkpt lat="47.28098" lon="4.08822">
        <ele>617.27</ele>
        <time>2016-07-29T08:24:19Z</time>
      </trkpt>
      <trkpt lat="47.28101" lon="4.08824">
        <ele>618.36</ele>
        <time>2016-07-29T08:24:30Z</time>
      </trkpt>
      <trkpt lat="47.28122" lon="4.08846">
        <ele>620.24</ele>
        <time>2016-07-29T08:24:54Z</time>
      </trkpt>
      <trkpt lat="47.28143" lon="4.08871">
        <ele>622.03</ele>
        <time>2016-07-29T08:25:22Z</time>
      </trkpt>
      <trkpt lat="47.28164" lon="4.0888">
        <ele>624.59</ele>
        <time>2016-07-29T08:25:46Z</time>
      </trkpt>
      <trkpt lat="47.28195" lon="4.08877">
        <ele>626.51</ele>
        <time>2016-07-29T08:26:08Z</time>
      </trkpt>
      <trkpt lat="47.28211" lon="4.08873">
        <ele>627.46</ele>
        <time>2016-07-29T08:26:25Z</time>
      </trkpt>
      <trkpt lat="47.28214" lon="4.08866">
        <ele>628.05</ele>
        <time>2016-07-29T08:26:45Z</time>
      </trkpt>
      <trkpt lat="47.28219" lon="4.08866">
        <ele>628.14</ele>
        <time>2016-07-29T08:26:51Z</time>
      </trkpt>
      <trkpt lat="47.28245" lon="4.08866">
        <ele>629.33</ele>
        <time>2016-07-29T08:27:17Z</time>
      </trkpt>
      <trkpt lat="47.28271" lon="4.08864">
        <ele>630.63</ele>
        <time>2016-07-29T08:27:35Z</time>
      </trkpt>
      <trkpt lat="47.28285" lon="4.08863">
        <ele>631.56</ele>
        <time>2016-07-29T08:27:47Z</time>
      </trkpt>
      <trkpt lat="47.283" lon="4.0886">
        <ele>632.09</ele>
        <time>2016-07-29T08:27:58Z</time>
      </trkpt>
      <trkpt lat="47.28307" lon="4.08854">
        <ele>632.69</ele>
        <time>2016-07-29T08:28:06Z</time>
      </trkpt>
      <trkpt lat="47.28327" lon="4.08824">
        <ele>633.71</ele>
        <time>2016-07-29T08:28:29Z</time>
      </trkpt>
      <trkpt lat="47.28344" lon="4.0879">
        <ele>634</ele>
        <time>2016-07-29T08:28:53Z</time>
      </trkpt>
      <trkpt lat="47.28359" lon="4.08754">
        <ele>635.31</ele>
        <time>2016-07-29T08:29:20Z</time>
      </trkpt>
      <trkpt lat="47.28371" lon="4.08738">
        <ele>637.45</ele>
        <time>2016-07-29T08:29:36Z</time>
      </trkpt>
      <trkpt lat="47.28377" lon="4.08728">
        <ele>638.67</ele>
        <time>2016-07-29T08:29:44Z</time>
      </trkpt>
      <trkpt lat="47.2839" lon="4.0871">
        <ele>641.01</ele>
        <time>2016-07-29T08:30:01Z</time>
      </trkpt>
      <trkpt lat="47.28401" lon="4.08697">
        <ele>642.5</ele>
        <time>2016-07-29T08:30:16Z</time>
      </trkpt>
      <trkpt lat="47.28411" lon="4.08686">
        <ele>644.34</ele>
        <time>2016-07-29T08:30:31Z</time>
      </trkpt>
      <trkpt lat="47.28415" lon="4.08676">
        <ele>645.45</ele>
        <time>2016-07-29T08:30:43Z</time>
      </trkpt>
      <trkpt lat="47.28416" lon="4.08671">
        <ele>645.75</ele>
        <time>2016-07-29T08:30:48Z</time>
      </trkpt>
      <trkpt lat="47.28422" lon="4.08662">
        <ele>646.53</ele>
        <time>2016-07-29T08:30:57Z</time>
      </trkpt>
      <trkpt lat="47.28425" lon="4.08652">
        <ele>647.69</ele>
        <time>2016-07-29T08:31:08Z</time>
      </trkpt>
      <trkpt lat="47.28428" lon="4.08632">
        <ele>648.14</ele>
        <time>2016-07-29T08:31:20Z</time>
      </trkpt>
      <trkpt lat="47.2843" lon="4.08612">
        <ele>648.52</ele>
        <time>2016-07-29T08:31:31Z</time>
      </trkpt>
      <trkpt lat="47.2844" lon="4.08592">
        <ele>648.78</ele>
        <time>2016-07-29T08:31:42Z</time>
      </trkpt>
      <trkpt lat="47.28449" lon="4.08575">
        <ele>648.68</ele>
        <time>2016-07-29T08:31:53Z</time>
      </trkpt>
      <trkpt lat="47.28452" lon="4.08565">
        <ele>648.55</ele>
        <time>2016-07-29T08:32:00Z</time>
      </trkpt>
      <trkpt lat="47.28458" lon="4.0855">
        <ele>648.38</ele>
        <time>2016-07-29T08:32:12Z</time>
      </trkpt>
      <trkpt lat="47.28472" lon="4.08526">
        <ele>648.02</ele>
        <time>2016-07-29T08:32:29Z</time>
      </trkpt>
      <trkpt lat="47.28479" lon="4.0851">
        <ele>647.91</ele>
        <time>2016-07-29T08:32:40Z</time>
      </trkpt>
      <trkpt lat="47.28492" lon="4.08489">
        <ele>647.68</ele>
        <time>2016-07-29T08:32:54Z</time>
      </trkpt>
      <trkpt lat="47.28495" lon="4.0848">
        <ele>647.62</ele>
        <time>2016-07-29T08:33:01Z</time>
      </trkpt>
      <trkpt lat="47.28506" lon="4.0846">
        <ele>647.21</ele>
        <time>2016-07-29T08:33:13Z</time>
      </trkpt>
      <trkpt lat="47.28515" lon="4.0844">
        <ele>646.77</ele>
        <time>2016-07-29T08:33:25Z</time>
      </trkpt>
      <trkpt lat="47.2852" lon="4.08429">
        <ele>646.59</ele>
        <time>2016-07-29T08:33:32Z</time>
      </trkpt>
      <trkpt lat="47.2852" lon="4.08424">
        <ele>646.53</ele>
        <time>2016-07-29T08:33:35Z</time>
      </trkpt>
      <trkpt lat="47.2853" lon="4.08386">
        <ele>646.04</ele>
        <time>2016-07-29T08:33:58Z</time>
      </trkpt>
      <trkpt lat="47.28536" lon="4.08377">
        <ele>645.84</ele>
        <time>2016-07-29T08:34:08Z</time>
      </trkpt>
      <trkpt lat="47.28543" lon="4.08366">
        <ele>645.79</ele>
        <time>2016-07-29T08:34:16Z</time>
      </trkpt>
      <trkpt lat="47.28566" lon="4.08337">
        <ele>645.6</ele>
        <time>2016-07-29T08:34:38Z</time>
      </trkpt>
      <trkpt lat="47.28582" lon="4.08319">
        <ele>645.38</ele>
        <time>2016-07-29T08:34:52Z</time>
      </trkpt>
      <trkpt lat="47.28593" lon="4.08306">
        <ele>644.87</ele>
        <time>2016-07-29T08:35:04Z</time>
      </trkpt>
      <trkpt lat="47.28603" lon="4.08287">
        <ele>643.94</ele>
        <time>2016-07-29T08:35:18Z</time>
      </trkpt>
      <trkpt lat="47.28613" lon="4.08275">
        <ele>643.01</ele>
        <time>2016-07-29T08:35:30Z</time>
      </trkpt>
      <trkpt lat="47.2862" lon="4.08265">
        <ele>642.49</ele>
        <time>2016-07-29T08:35:38Z</time>
      </trkpt>
      <trkpt lat="47.28625" lon="4.08257">
        <ele>641.75</ele>
        <time>2016-07-29T08:35:47Z</time>
      </trkpt>
      <trkpt lat="47.28631" lon="4.08246">
        <ele>640.8</ele>
        <time>2016-07-29T08:36:01Z</time>
      </trkpt>
      <trkpt lat="47.28633" lon="4.08237">
        <ele>640.31</ele>
        <time>2016-07-29T08:36:09Z</time>
      </trkpt>
      <trkpt lat="47.28641" lon="4.08225">
        <ele>639.01</ele>
        <time>2016-07-29T08:36:21Z</time>
      </trkpt>
      <trkpt lat="47.28639" lon="4.08212">
        <ele>638.01</ele>
        <time>2016-07-29T08:36:35Z</time>
      </trkpt>
      <trkpt lat="47.28638" lon="4.08211">
        <ele>638</ele>
        <time>2016-07-29T08:36:37Z</time>
      </trkpt>
      <trkpt lat="47.28638" lon="4.08193">
        <ele>637.91</ele>
        <time>2016-07-29T08:36:53Z</time>
      </trkpt>
      <trkpt lat="47.28643" lon="4.08176">
        <ele>636.96</ele>
        <time>2016-07-29T08:37:08Z</time>
      </trkpt>
      <trkpt lat="47.28654" lon="4.08164">
        <ele>636.4</ele>
        <time>2016-07-29T08:37:19Z</time>
      </trkpt>
      <trkpt lat="47.28664" lon="4.08148">
        <ele>635.38</ele>
        <time>2016-07-29T08:37:31Z</time>
      </trkpt>
      <trkpt lat="47.28669" lon="4.08144">
        <ele>634.54</ele>
        <time>2016-07-29T08:37:38Z</time>
      </trkpt>
      <trkpt lat="47.2867" lon="4.08142">
        <ele>634.42</ele>
        <time>2016-07-29T08:37:39Z</time>
      </trkpt>
      <trkpt lat="47.28679" lon="4.08121">
        <ele>633.41</ele>
        <time>2016-07-29T08:37:52Z</time>
      </trkpt>
      <trkpt lat="47.28685" lon="4.08114">
        <ele>632.91</ele>
        <time>2016-07-29T08:37:59Z</time>
      </trkpt>
      <trkpt lat="47.28697" lon="4.08103">
        <ele>631.89</ele>
        <time>2016-07-29T08:38:09Z</time>
      </trkpt>
      <trkpt lat="47.28711" lon="4.0808">
        <ele>629.83</ele>
        <time>2016-07-29T08:38:29Z</time>
      </trkpt>
      <trkpt lat="47.28721" lon="4.08061">
        <ele>628.29</ele>
        <time>2016-07-29T08:38:41Z</time>
      </trkpt>
      <trkpt lat="47.28736" lon="4.08046">
        <ele>626.5</ele>
        <time>2016-07-29T08:38:56Z</time>
      </trkpt>
      <trkpt lat="47.28752" lon="4.08028">
        <ele>623.77</ele>
        <time>2016-07-29T08:39:16Z</time>
      </trkpt>
      <trkpt lat="47.28763" lon="4.08012">
        <ele>622.42</ele>
        <time>2016-07-29T08:39:31Z</time>
      </trkpt>
      <trkpt lat="47.28771" lon="4.07998">
        <ele>621.06</ele>
        <time>2016-07-29T08:39:42Z</time>
      </trkpt>
      <trkpt lat="47.28779" lon="4.07983">
        <ele>619.78</ele>
        <time>2016-07-29T08:39:55Z</time>
      </trkpt>
      <trkpt lat="47.28788" lon="4.0797">
        <ele>618.47</ele>
        <time>2016-07-29T08:40:07Z</time>
      </trkpt>
      <trkpt lat="47.28801" lon="4.07944">
        <ele>615.29</ele>
        <time>2016-07-29T08:40:29Z</time>
      </trkpt>
      <trkpt lat="47.28809" lon="4.07927">
        <ele>613.66</ele>
        <time>2016-07-29T08:40:41Z</time>
      </trkpt>
      <trkpt lat="47.28813" lon="4.0792">
        <ele>612.76</ele>
        <time>2016-07-29T08:40:48Z</time>
      </trkpt>
      <trkpt lat="47.28817" lon="4.07918">
        <ele>612.1</ele>
        <time>2016-07-29T08:40:52Z</time>
      </trkpt>
      <trkpt lat="47.28833" lon="4.07908">
        <ele>610.07</ele>
        <time>2016-07-29T08:41:07Z</time>
      </trkpt>
      <trkpt lat="47.28851" lon="4.07895">
        <ele>608.63</ele>
        <time>2016-07-29T08:41:26Z</time>
      </trkpt>
      <trkpt lat="47.28855" lon="4.0789">
        <ele>608.2</ele>
        <time>2016-07-29T08:41:33Z</time>
      </trkpt>
      <trkpt lat="47.28869" lon="4.07888">
        <ele>607.44</ele>
        <time>2016-07-29T08:41:48Z</time>
      </trkpt>
      <trkpt lat="47.28877" lon="4.07883">
        <ele>607.39</ele>
        <time>2016-07-29T08:41:57Z</time>
      </trkpt>
      <trkpt lat="47.28893" lon="4.07874">
        <ele>606.24</ele>
        <time>2016-07-29T08:42:14Z</time>
      </trkpt>
      <trkpt lat="47.28902" lon="4.07864">
        <ele>605.66</ele>
        <time>2016-07-29T08:42:29Z</time>
      </trkpt>
      <trkpt lat="47.28909" lon="4.07854">
        <ele>605.46</ele>
        <time>2016-07-29T08:42:40Z</time>
      </trkpt>
      <trkpt lat="47.28917" lon="4.07845">
        <ele>605.11</ele>
        <time>2016-07-29T08:42:48Z</time>
      </trkpt>
      <trkpt lat="47.28923" lon="4.07835">
        <ele>605.04</ele>
        <time>2016-07-29T08:42:56Z</time>
      </trkpt>
      <trkpt lat="47.28926" lon="4.07822">
        <ele>604.96</ele>
        <time>2016-07-29T08:43:06Z</time>
      </trkpt>
      <trkpt lat="47.28923" lon="4.07812">
        <ele>604.42</ele>
        <time>2016-07-29T08:43:16Z</time>
      </trkpt>
      <trkpt lat="47.28921" lon="4.07799">
        <ele>604.04</ele>
        <time>2016-07-29T08:43:29Z</time>
      </trkpt>
      <trkpt lat="47.28914" lon="4.07781">
        <ele>603.55</ele>
        <time>2016-07-29T08:43:42Z</time>
      </trkpt>
      <trkpt lat="47.28918" lon="4.07756">
        <ele>603.18</ele>
        <time>2016-07-29T08:43:59Z</time>
      </trkpt>
      <trkpt lat="47.28908" lon="4.07743">
        <ele>602.72</ele>
        <time>2016-07-29T08:45:00Z</time>
      </trkpt>
      <trkpt lat="47.28912" lon="4.07758">
        <ele>602.87</ele>
        <time>2016-07-29T08:45:27Z</time>
      </trkpt>
      <trkpt lat="47.28919" lon="4.07762">
        <ele>602.97</ele>
        <time>2016-07-29T08:45:50Z</time>
      </trkpt>
      <trkpt lat="47.28913" lon="4.07754">
        <ele>602.97</ele>
        <time>2016-07-29T08:46:11Z</time>
      </trkpt>
      <trkpt lat="47.28914" lon="4.07749">
        <ele>602.96</ele>
        <time>2016-07-29T08:46:40Z</time>
      </trkpt>
      <trkpt lat="47.28916" lon="4.07745">
        <ele>602.97</ele>
        <time>2016-07-29T08:47:06Z</time>
      </trkpt>
      <trkpt lat="47.28906" lon="4.07745">
        <ele>603.07</ele>
        <time>2016-07-29T08:47:39Z</time>
      </trkpt>
      <trkpt lat="47.2891" lon="4.07749">
        <ele>603.06</ele>
        <time>2016-07-29T08:48:14Z</time>
      </trkpt>
      <trkpt lat="47.28907" lon="4.07753">
        <ele>602.98</ele>
        <time>2016-07-29T08:48:41Z</time>
      </trkpt>
      <trkpt lat="47.28906" lon="4.0775">
        <ele>602.67</ele>
        <time>2016-07-29T08:49:18Z</time>
      </trkpt>
      <trkpt lat="47.28907" lon="4.07747">
        <ele>602.72</ele>
        <time>2016-07-29T08:50:18Z</time>
      </trkpt>
      <trkpt lat="47.28906" lon="4.07751">
        <ele>602.65</ele>
        <time>2016-07-29T08:50:57Z</time>
      </trkpt>
      <trkpt lat="47.28908" lon="4.07743">
        <ele>602.62</ele>
        <time>2016-07-29T08:51:24Z</time>
      </trkpt>
      <trkpt lat="47.28908" lon="4.07744">
        <ele>602.73</ele>
        <time>2016-07-29T08:51:50Z</time>
      </trkpt>
      <trkpt lat="47.28909" lon="4.07746">
        <ele>602.97</ele>
        <time>2016-07-29T08:52:21Z</time>
      </trkpt>
      <trkpt lat="47.28906" lon="4.0775">
        <ele>602.94</ele>
        <time>2016-07-29T08:53:04Z</time>
      </trkpt>
      <trkpt lat="47.28908" lon="4.07746">
        <ele>602.96</ele>
        <time>2016-07-29T08:53:08Z</time>
      </trkpt>
      <trkpt lat="47.28914" lon="4.07744">
        <ele>603.04</ele>
        <time>2016-07-29T08:53:16Z</time>
      </trkpt>
      <trkpt lat="47.28918" lon="4.07742">
        <ele>603.21</ele>
        <time>2016-07-29T08:53:23Z</time>
      </trkpt>
      <trkpt lat="47.28919" lon="4.07737">
        <ele>603.17</ele>
        <time>2016-07-29T08:53:46Z</time>
      </trkpt>
      <trkpt lat="47.28927" lon="4.0773">
        <ele>603.06</ele>
        <time>2016-07-29T08:54:03Z</time>
      </trkpt>
      <trkpt lat="47.2893" lon="4.07733">
        <ele>603.07</ele>
        <time>2016-07-29T08:54:21Z</time>
      </trkpt>
      <trkpt lat="47.28927" lon="4.07745">
        <ele>603.28</ele>
        <time>2016-07-29T08:55:02Z</time>
      </trkpt>
      <trkpt lat="47.28923" lon="4.07746">
        <ele>603.51</ele>
        <time>2016-07-29T08:55:19Z</time>
      </trkpt>
      <trkpt lat="47.28929" lon="4.07737">
        <ele>603.9</ele>
        <time>2016-07-29T08:55:42Z</time>
      </trkpt>
      <trkpt lat="47.28935" lon="4.07716">
        <ele>604.55</ele>
        <time>2016-07-29T08:55:59Z</time>
      </trkpt>
      <trkpt lat="47.28938" lon="4.077">
        <ele>604.98</ele>
        <time>2016-07-29T08:56:10Z</time>
      </trkpt>
      <trkpt lat="47.28941" lon="4.07684">
        <ele>606.01</ele>
        <time>2016-07-29T08:56:20Z</time>
      </trkpt>
      <trkpt lat="47.2894" lon="4.07673">
        <ele>607.29</ele>
        <time>2016-07-29T08:56:29Z</time>
      </trkpt>
      <trkpt lat="47.28949" lon="4.07662">
        <ele>608.23</ele>
        <time>2016-07-29T08:56:39Z</time>
      </trkpt>
      <trkpt lat="47.28954" lon="4.07658">
        <ele>609.22</ele>
        <time>2016-07-29T08:56:45Z</time>
      </trkpt>
      <trkpt lat="47.28964" lon="4.07647">
        <ele>611.18</ele>
        <time>2016-07-29T08:56:57Z</time>
      </trkpt>
      <trkpt lat="47.28973" lon="4.07635">
        <ele>612.24</ele>
        <time>2016-07-29T08:57:09Z</time>
      </trkpt>
      <trkpt lat="47.28979" lon="4.07619">
        <ele>613.33</ele>
        <time>2016-07-29T08:57:25Z</time>
      </trkpt>
      <trkpt lat="47.28983" lon="4.07609">
        <ele>614.07</ele>
        <time>2016-07-29T08:57:34Z</time>
      </trkpt>
      <trkpt lat="47.28992" lon="4.07585">
        <ele>615.83</ele>
        <time>2016-07-29T08:57:52Z</time>
      </trkpt>
      <trkpt lat="47.28995" lon="4.07561">
        <ele>616.74</ele>
        <time>2016-07-29T08:58:06Z</time>
      </trkpt>
      <trkpt lat="47.28989" lon="4.07522">
        <ele>617.66</ele>
        <time>2016-07-29T08:58:42Z</time>
      </trkpt>
      <trkpt lat="47.28989" lon="4.07504">
        <ele>618.73</ele>
        <time>2016-07-29T08:58:58Z</time>
      </trkpt>
      <trkpt lat="47.2899" lon="4.07497">
        <ele>619.08</ele>
        <time>2016-07-29T08:59:03Z</time>
      </trkpt>
      <trkpt lat="47.28995" lon="4.07477">
        <ele>620.38</ele>
        <time>2016-07-29T08:59:14Z</time>
      </trkpt>
      <trkpt lat="47.28998" lon="4.07455">
        <ele>623.14</ele>
        <time>2016-07-29T08:59:35Z</time>
      </trkpt>
      <trkpt lat="47.28998" lon="4.0744">
        <ele>624.08</ele>
        <time>2016-07-29T08:59:46Z</time>
      </trkpt>
      <trkpt lat="47.28998" lon="4.07428">
        <ele>626.24</ele>
        <time>2016-07-29T09:00:00Z</time>
      </trkpt>
      <trkpt lat="47.28994" lon="4.07413">
        <ele>627.75</ele>
        <time>2016-07-29T09:00:11Z</time>
      </trkpt>
      <trkpt lat="47.28991" lon="4.07408">
        <ele>628.08</ele>
        <time>2016-07-29T09:00:15Z</time>
      </trkpt>
      <trkpt lat="47.28985" lon="4.07398">
        <ele>628.61</ele>
        <time>2016-07-29T09:00:23Z</time>
      </trkpt>
      <trkpt lat="47.2898" lon="4.07382">
        <ele>629.46</ele>
        <time>2016-07-29T09:00:41Z</time>
      </trkpt>
      <trkpt lat="47.28976" lon="4.0737">
        <ele>630.23</ele>
        <time>2016-07-29T09:00:56Z</time>
      </trkpt>
      <trkpt lat="47.28975" lon="4.07351">
        <ele>631.1</ele>
        <time>2016-07-29T09:01:11Z</time>
      </trkpt>
      <trkpt lat="47.28973" lon="4.07336">
        <ele>631.51</ele>
        <time>2016-07-29T09:01:21Z</time>
      </trkpt>
      <trkpt lat="47.28974" lon="4.07327">
        <ele>631.76</ele>
        <time>2016-07-29T09:01:26Z</time>
      </trkpt>
      <trkpt lat="47.28972" lon="4.0731">
        <ele>632.36</ele>
        <time>2016-07-29T09:01:37Z</time>
      </trkpt>
      <trkpt lat="47.28963" lon="4.07298">
        <ele>632.79</ele>
        <time>2016-07-29T09:01:47Z</time>
      </trkpt>
      <trkpt lat="47.28961" lon="4.07294">
        <ele>632.94</ele>
        <time>2016-07-29T09:01:51Z</time>
      </trkpt>
      <trkpt lat="47.28951" lon="4.0728">
        <ele>633.39</ele>
        <time>2016-07-29T09:02:20Z</time>
      </trkpt>
      <trkpt lat="47.28932" lon="4.07241">
        <ele>634.25</ele>
        <time>2016-07-29T09:03:14Z</time>
      </trkpt>
      <trkpt lat="47.28937" lon="4.0723">
        <ele>634.28</ele>
        <time>2016-07-29T09:03:36Z</time>
      </trkpt>
      <trkpt lat="47.28921" lon="4.07221">
        <ele>634.88</ele>
        <time>2016-07-29T09:04:01Z</time>
      </trkpt>
      <trkpt lat="47.28908" lon="4.07218">
        <ele>636.42</ele>
        <time>2016-07-29T09:04:20Z</time>
      </trkpt>
      <trkpt lat="47.28888" lon="4.07207">
        <ele>637.5</ele>
        <time>2016-07-29T09:04:43Z</time>
      </trkpt>
      <trkpt lat="47.28873" lon="4.07206">
        <ele>637.87</ele>
        <time>2016-07-29T09:04:52Z</time>
      </trkpt>
      <trkpt lat="47.28861" lon="4.07201">
        <ele>638.04</ele>
        <time>2016-07-29T09:05:04Z</time>
      </trkpt>
      <trkpt lat="47.28857" lon="4.07196">
        <ele>638.09</ele>
        <time>2016-07-29T09:05:10Z</time>
      </trkpt>
      <trkpt lat="47.28849" lon="4.07181">
        <ele>638.31</ele>
        <time>2016-07-29T09:05:26Z</time>
      </trkpt>
      <trkpt lat="47.28842" lon="4.07164">
        <ele>638.39</ele>
        <time>2016-07-29T09:05:40Z</time>
      </trkpt>
      <trkpt lat="47.28829" lon="4.07145">
        <ele>638.65</ele>
        <time>2016-07-29T09:05:54Z</time>
      </trkpt>
      <trkpt lat="47.28824" lon="4.07137">
        <ele>638.7</ele>
        <time>2016-07-29T09:05:59Z</time>
      </trkpt>
      <trkpt lat="47.28822" lon="4.07125">
        <ele>638.71</ele>
        <time>2016-07-29T09:06:06Z</time>
      </trkpt>
      <trkpt lat="47.28807" lon="4.07098">
        <ele>638.85</ele>
        <time>2016-07-29T09:06:25Z</time>
      </trkpt>
      <trkpt lat="47.28805" lon="4.07092">
        <ele>638.81</ele>
        <time>2016-07-29T09:06:31Z</time>
      </trkpt>
      <trkpt lat="47.28788" lon="4.07063">
        <ele>638.59</ele>
        <time>2016-07-29T09:06:48Z</time>
      </trkpt>
      <trkpt lat="47.28786" lon="4.07049">
        <ele>638.22</ele>
        <time>2016-07-29T09:06:57Z</time>
      </trkpt>
      <trkpt lat="47.28782" lon="4.07036">
        <ele>638.24</ele>
        <time>2016-07-29T09:07:08Z</time>
      </trkpt>
      <trkpt lat="47.28774" lon="4.07014">
        <ele>639</ele>
        <time>2016-07-29T09:07:26Z</time>
      </trkpt>
      <trkpt lat="47.2877" lon="4.07001">
        <ele>639.62</ele>
        <time>2016-07-29T09:07:38Z</time>
      </trkpt>
      <trkpt lat="47.28763" lon="4.06987">
        <ele>640.16</ele>
        <time>2016-07-29T09:07:48Z</time>
      </trkpt>
      <trkpt lat="47.2876" lon="4.06983">
        <ele>640.28</ele>
        <time>2016-07-29T09:07:52Z</time>
      </trkpt>
      <trkpt lat="47.28746" lon="4.06958">
        <ele>640.38</ele>
        <time>2016-07-29T09:08:11Z</time>
      </trkpt>
      <trkpt lat="47.28728" lon="4.06937">
        <ele>640.1</ele>
        <time>2016-07-29T09:08:26Z</time>
      </trkpt>
      <trkpt lat="47.2872" lon="4.06914">
        <ele>639.43</ele>
        <time>2016-07-29T09:08:49Z</time>
      </trkpt>
      <trkpt lat="47.28706" lon="4.069">
        <ele>639.29</ele>
        <time>2016-07-29T09:09:01Z</time>
      </trkpt>
      <trkpt lat="47.28691" lon="4.06882">
        <ele>638.94</ele>
        <time>2016-07-29T09:09:18Z</time>
      </trkpt>
      <trkpt lat="47.28685" lon="4.06864">
        <ele>638.15</ele>
        <time>2016-07-29T09:09:30Z</time>
      </trkpt>
      <trkpt lat="47.28683" lon="4.06851">
        <ele>637.79</ele>
        <time>2016-07-29T09:09:36Z</time>
      </trkpt>
      <trkpt lat="47.28667" lon="4.0682">
        <ele>636.38</ele>
        <time>2016-07-29T09:10:02Z</time>
      </trkpt>
      <trkpt lat="47.28653" lon="4.06793">
        <ele>635.44</ele>
        <time>2016-07-29T09:10:23Z</time>
      </trkpt>
      <trkpt lat="47.2864" lon="4.06766">
        <ele>634.57</ele>
        <time>2016-07-29T09:10:42Z</time>
      </trkpt>
      <trkpt lat="47.28633" lon="4.06755">
        <ele>634.14</ele>
        <time>2016-07-29T09:10:51Z</time>
      </trkpt>
      <trkpt lat="47.28626" lon="4.06733">
        <ele>633.95</ele>
        <time>2016-07-29T09:11:03Z</time>
      </trkpt>
      <trkpt lat="47.28616" lon="4.06724">
        <ele>634.17</ele>
        <time>2016-07-29T09:11:15Z</time>
      </trkpt>
      <trkpt lat="47.28605" lon="4.06695">
        <ele>634.16</ele>
        <time>2016-07-29T09:11:32Z</time>
      </trkpt>
      <trkpt lat="47.28602" lon="4.06684">
        <ele>633.9</ele>
        <time>2016-07-29T09:11:37Z</time>
      </trkpt>
      <trkpt lat="47.28599" lon="4.06648">
        <ele>632.78</ele>
        <time>2016-07-29T09:12:00Z</time>
      </trkpt>
      <trkpt lat="47.28601" lon="4.0662">
        <ele>632.21</ele>
        <time>2016-07-29T09:12:14Z</time>
      </trkpt>
      <trkpt lat="47.28604" lon="4.06603">
        <ele>632.03</ele>
        <time>2016-07-29T09:12:25Z</time>
      </trkpt>
      <trkpt lat="47.28614" lon="4.06569">
        <ele>631.79</ele>
        <time>2016-07-29T09:12:42Z</time>
      </trkpt>
      <trkpt lat="47.28619" lon="4.06541">
        <ele>631.71</ele>
        <time>2016-07-29T09:12:57Z</time>
      </trkpt>
      <trkpt lat="47.28628" lon="4.06489">
        <ele>631.41</ele>
        <time>2016-07-29T09:13:22Z</time>
      </trkpt>
      <trkpt lat="47.2863" lon="4.06471">
        <ele>631.23</ele>
        <time>2016-07-29T09:13:34Z</time>
      </trkpt>
      <trkpt lat="47.2863" lon="4.06438">
        <ele>630.76</ele>
        <time>2016-07-29T09:13:51Z</time>
      </trkpt>
      <trkpt lat="47.28632" lon="4.06424">
        <ele>630.4</ele>
        <time>2016-07-29T09:14:01Z</time>
      </trkpt>
      <trkpt lat="47.28636" lon="4.06409">
        <ele>630.18</ele>
        <time>2016-07-29T09:14:12Z</time>
      </trkpt>
      <trkpt lat="47.28643" lon="4.06395">
        <ele>630.31</ele>
        <time>2016-07-29T09:14:21Z</time>
      </trkpt>
      <trkpt lat="47.28649" lon="4.06359">
        <ele>630.45</ele>
        <time>2016-07-29T09:14:40Z</time>
      </trkpt>
      <trkpt lat="47.28656" lon="4.06331">
        <ele>629.38</ele>
        <time>2016-07-29T09:14:56Z</time>
      </trkpt>
      <trkpt lat="47.28658" lon="4.06316">
        <ele>628.97</ele>
        <time>2016-07-29T09:15:09Z</time>
      </trkpt>
      <trkpt lat="47.28671" lon="4.06272">
        <ele>626.7</ele>
        <time>2016-07-29T09:15:33Z</time>
      </trkpt>
      <trkpt lat="47.28686" lon="4.06233">
        <ele>623.68</ele>
        <time>2016-07-29T09:15:54Z</time>
      </trkpt>
      <trkpt lat="47.28702" lon="4.06212">
        <ele>620.66</ele>
        <time>2016-07-29T09:16:13Z</time>
      </trkpt>
      <trkpt lat="47.28715" lon="4.06187">
        <ele>618.13</ele>
        <time>2016-07-29T09:16:31Z</time>
      </trkpt>
      <trkpt lat="47.28721" lon="4.06161">
        <ele>615.1</ele>
        <time>2016-07-29T09:16:49Z</time>
      </trkpt>
      <trkpt lat="47.28731" lon="4.06134">
        <ele>612.85</ele>
        <time>2016-07-29T09:17:05Z</time>
      </trkpt>
      <trkpt lat="47.28748" lon="4.06104">
        <ele>609.73</ele>
        <time>2016-07-29T09:17:24Z</time>
      </trkpt>
      <trkpt lat="47.28768" lon="4.06073">
        <ele>606.6</ele>
        <time>2016-07-29T09:17:47Z</time>
      </trkpt>
      <trkpt lat="47.28779" lon="4.06049">
        <ele>604.9</ele>
        <time>2016-07-29T09:18:01Z</time>
      </trkpt>
      <trkpt lat="47.28779" lon="4.06012">
        <ele>602.37</ele>
        <time>2016-07-29T09:18:23Z</time>
      </trkpt>
      <trkpt lat="47.28783" lon="4.05985">
        <ele>600.25</ele>
        <time>2016-07-29T09:18:42Z</time>
      </trkpt>
      <trkpt lat="47.28794" lon="4.0597">
        <ele>598.98</ele>
        <time>2016-07-29T09:18:53Z</time>
      </trkpt>
      <trkpt lat="47.28801" lon="4.05958">
        <ele>598.55</ele>
        <time>2016-07-29T09:19:02Z</time>
      </trkpt>
      <trkpt lat="47.28807" lon="4.05945">
        <ele>597.85</ele>
        <time>2016-07-29T09:19:11Z</time>
      </trkpt>
      <trkpt lat="47.28815" lon="4.05929">
        <ele>596.9</ele>
        <time>2016-07-29T09:19:24Z</time>
      </trkpt>
      <trkpt lat="47.28823" lon="4.05912">
        <ele>596.41</ele>
        <time>2016-07-29T09:19:37Z</time>
      </trkpt>
      <trkpt lat="47.28828" lon="4.05902">
        <ele>595.7</ele>
        <time>2016-07-29T09:19:47Z</time>
      </trkpt>
      <trkpt lat="47.28832" lon="4.05879">
        <ele>595.41</ele>
        <time>2016-07-29T09:19:57Z</time>
      </trkpt>
      <trkpt lat="47.2883" lon="4.05863">
        <ele>594.89</ele>
        <time>2016-07-29T09:20:05Z</time>
      </trkpt>
      <trkpt lat="47.28824" lon="4.05857">
        <ele>594.51</ele>
        <time>2016-07-29T09:20:15Z</time>
      </trkpt>
      <trkpt lat="47.28822" lon="4.05853">
        <ele>594.48</ele>
        <time>2016-07-29T09:20:28Z</time>
      </trkpt>
      <trkpt lat="47.2882" lon="4.05851">
        <ele>594.26</ele>
        <time>2016-07-29T09:20:36Z</time>
      </trkpt>
      <trkpt lat="47.28802" lon="4.0584">
        <ele>594.25</ele>
        <time>2016-07-29T09:20:57Z</time>
      </trkpt>
      <trkpt lat="47.2879" lon="4.05845">
        <ele>594.37</ele>
        <time>2016-07-29T09:21:15Z</time>
      </trkpt>
      <trkpt lat="47.2878" lon="4.05849">
        <ele>595.01</ele>
        <time>2016-07-29T09:21:33Z</time>
      </trkpt>
      <trkpt lat="47.28765" lon="4.05855">
        <ele>594.94</ele>
        <time>2016-07-29T09:21:44Z</time>
      </trkpt>
      <trkpt lat="47.28755" lon="4.05857">
        <ele>594.87</ele>
        <time>2016-07-29T09:21:53Z</time>
      </trkpt>
      <trkpt lat="47.28741" lon="4.0586">
        <ele>594.62</ele>
        <time>2016-07-29T09:22:05Z</time>
      </trkpt>
      <trkpt lat="47.28725" lon="4.05851">
        <ele>593.59</ele>
        <time>2016-07-29T09:22:21Z</time>
      </trkpt>
      <trkpt lat="47.28712" lon="4.05856">
        <ele>592.71</ele>
        <time>2016-07-29T09:22:30Z</time>
      </trkpt>
      <trkpt lat="47.28703" lon="4.05859">
        <ele>592.4</ele>
        <time>2016-07-29T09:22:37Z</time>
      </trkpt>
      <trkpt lat="47.28697" lon="4.05858">
        <ele>591.89</ele>
        <time>2016-07-29T09:22:45Z</time>
      </trkpt>
      <trkpt lat="47.28688" lon="4.05857">
        <ele>591.59</ele>
        <time>2016-07-29T09:22:54Z</time>
      </trkpt>
      <trkpt lat="47.28679" lon="4.05856">
        <ele>591.09</ele>
        <time>2016-07-29T09:23:03Z</time>
      </trkpt>
      <trkpt lat="47.28663" lon="4.05854">
        <ele>590.19</ele>
        <time>2016-07-29T09:23:16Z</time>
      </trkpt>
      <trkpt lat="47.28651" lon="4.05851">
        <ele>589.12</ele>
        <time>2016-07-29T09:23:28Z</time>
      </trkpt>
      <trkpt lat="47.28645" lon="4.05845">
        <ele>588.55</ele>
        <time>2016-07-29T09:23:35Z</time>
      </trkpt>
      <trkpt lat="47.28625" lon="4.05836">
        <ele>587.15</ele>
        <time>2016-07-29T09:23:50Z</time>
      </trkpt>
      <trkpt lat="47.28623" lon="4.05835">
        <ele>586.97</ele>
        <time>2016-07-29T09:23:52Z</time>
      </trkpt>
      <trkpt lat="47.2861" lon="4.05829">
        <ele>586.02</ele>
        <time>2016-07-29T09:24:02Z</time>
      </trkpt>
      <trkpt lat="47.28598" lon="4.05824">
        <ele>584.82</ele>
        <time>2016-07-29T09:24:13Z</time>
      </trkpt>
      <trkpt lat="47.28586" lon="4.05819">
        <ele>583.98</ele>
        <time>2016-07-29T09:24:24Z</time>
      </trkpt>
      <trkpt lat="47.28571" lon="4.05814">
        <ele>583.17</ele>
        <time>2016-07-29T09:24:33Z</time>
      </trkpt>
      <trkpt lat="47.28542" lon="4.05811">
        <ele>581.57</ele>
        <time>2016-07-29T09:24:53Z</time>
      </trkpt>
      <trkpt lat="47.28507" lon="4.05811">
        <ele>579.8</ele>
        <time>2016-07-29T09:25:17Z</time>
      </trkpt>
      <trkpt lat="47.28487" lon="4.05809">
        <ele>578.66</ele>
        <time>2016-07-29T09:25:37Z</time>
      </trkpt>
      <trkpt lat="47.28462" lon="4.05802">
        <ele>577.68</ele>
        <time>2016-07-29T09:25:57Z</time>
      </trkpt>
      <trkpt lat="47.28448" lon="4.05808">
        <ele>577.13</ele>
        <time>2016-07-29T09:26:14Z</time>
      </trkpt>
      <trkpt lat="47.28426" lon="4.05805">
        <ele>577.01</ele>
        <time>2016-07-29T09:26:34Z</time>
      </trkpt>
      <trkpt lat="47.28402" lon="4.0581">
        <ele>577.14</ele>
        <time>2016-07-29T09:26:45Z</time>
      </trkpt>
      <trkpt lat="47.28362" lon="4.05824">
        <ele>577.42</ele>
        <time>2016-07-29T09:27:09Z</time>
      </trkpt>
      <trkpt lat="47.28338" lon="4.05829">
        <ele>577.45</ele>
        <time>2016-07-29T09:27:29Z</time>
      </trkpt>
      <trkpt lat="47.28326" lon="4.05831">
        <ele>577.44</ele>
        <time>2016-07-29T09:27:40Z</time>
      </trkpt>
      <trkpt lat="47.28317" lon="4.05823">
        <ele>576.59</ele>
        <time>2016-07-29T09:27:51Z</time>
      </trkpt>
      <trkpt lat="47.28312" lon="4.05814">
        <ele>575.12</ele>
        <time>2016-07-29T09:27:57Z</time>
      </trkpt>
      <trkpt lat="47.28304" lon="4.05805">
        <ele>573.41</ele>
        <time>2016-07-29T09:28:07Z</time>
      </trkpt>
      <trkpt lat="47.28298" lon="4.05792">
        <ele>571.42</ele>
        <time>2016-07-29T09:28:18Z</time>
      </trkpt>
      <trkpt lat="47.28303" lon="4.05781">
        <ele>569.76</ele>
        <time>2016-07-29T09:28:27Z</time>
      </trkpt>
      <trkpt lat="47.28303" lon="4.0578">
        <ele>569.66</ele>
        <time>2016-07-29T09:28:28Z</time>
      </trkpt>
      <trkpt lat="47.2831" lon="4.05763">
        <ele>568.37</ele>
        <time>2016-07-29T09:28:40Z</time>
      </trkpt>
      <trkpt lat="47.2832" lon="4.05743">
        <ele>566.7</ele>
        <time>2016-07-29T09:28:56Z</time>
      </trkpt>
      <trkpt lat="47.28326" lon="4.05729">
        <ele>565.5</ele>
        <time>2016-07-29T09:29:08Z</time>
      </trkpt>
      <trkpt lat="47.28328" lon="4.05718">
        <ele>564.59</ele>
        <time>2016-07-29T09:29:16Z</time>
      </trkpt>
      <trkpt lat="47.28331" lon="4.05703">
        <ele>564.04</ele>
        <time>2016-07-29T09:29:30Z</time>
      </trkpt>
      <trkpt lat="47.28323" lon="4.05701">
        <ele>564.06</ele>
        <time>2016-07-29T09:29:44Z</time>
      </trkpt>
      <trkpt lat="47.28314" lon="4.05697">
        <ele>564</ele>
        <time>2016-07-29T09:29:57Z</time>
      </trkpt>
      <trkpt lat="47.28319" lon="4.05689">
        <ele>563.4</ele>
        <time>2016-07-29T09:30:09Z</time>
      </trkpt>
      <trkpt lat="47.2832" lon="4.05672">
        <ele>561.39</ele>
        <time>2016-07-29T09:30:23Z</time>
      </trkpt>
      <trkpt lat="47.28322" lon="4.05659">
        <ele>560.45</ele>
        <time>2016-07-29T09:30:31Z</time>
      </trkpt>
      <trkpt lat="47.28319" lon="4.05648">
        <ele>559.15</ele>
        <time>2016-07-29T09:30:46Z</time>
      </trkpt>
      <trkpt lat="47.28319" lon="4.05633">
        <ele>557.71</ele>
        <time>2016-07-29T09:31:03Z</time>
      </trkpt>
      <trkpt lat="47.28321" lon="4.05618">
        <ele>556.55</ele>
        <time>2016-07-29T09:31:12Z</time>
      </trkpt>
      <trkpt lat="47.28325" lon="4.05603">
        <ele>554.73</ele>
        <time>2016-07-29T09:31:23Z</time>
      </trkpt>
      <trkpt lat="47.28323" lon="4.05576">
        <ele>552.35</ele>
        <time>2016-07-29T09:31:39Z</time>
      </trkpt>
      <trkpt lat="47.28318" lon="4.0556">
        <ele>550.14</ele>
        <time>2016-07-29T09:31:50Z</time>
      </trkpt>
      <trkpt lat="47.28313" lon="4.05547">
        <ele>548.35</ele>
        <time>2016-07-29T09:32:00Z</time>
      </trkpt>
      <trkpt lat="47.28312" lon="4.05536">
        <ele>545.97</ele>
        <time>2016-07-29T09:32:09Z</time>
      </trkpt>
      <trkpt lat="47.28313" lon="4.05522">
        <ele>543.29</ele>
        <time>2016-07-29T09:32:21Z</time>
      </trkpt>
      <trkpt lat="47.28318" lon="4.05507">
        <ele>540.66</ele>
        <time>2016-07-29T09:32:32Z</time>
      </trkpt>
      <trkpt lat="47.2832" lon="4.05494">
        <ele>538.23</ele>
        <time>2016-07-29T09:32:41Z</time>
      </trkpt>
      <trkpt lat="47.28319" lon="4.05477">
        <ele>535.31</ele>
        <time>2016-07-29T09:32:59Z</time>
      </trkpt>
      <trkpt lat="47.28318" lon="4.05474">
        <ele>534.44</ele>
        <time>2016-07-29T09:33:02Z</time>
      </trkpt>
      <trkpt lat="47.2831" lon="4.05465">
        <ele>532.12</ele>
        <time>2016-07-29T09:33:19Z</time>
      </trkpt>
      <trkpt lat="47.28305" lon="4.05456">
        <ele>529.2</ele>
        <time>2016-07-29T09:33:30Z</time>
      </trkpt>
      <trkpt lat="47.28303" lon="4.05434">
        <ele>525.98</ele>
        <time>2016-07-29T09:33:44Z</time>
      </trkpt>
      <trkpt lat="47.28302" lon="4.05423">
        <ele>523.65</ele>
        <time>2016-07-29T09:33:54Z</time>
      </trkpt>
      <trkpt lat="47.28298" lon="4.054">
        <ele>520.6</ele>
        <time>2016-07-29T09:34:12Z</time>
      </trkpt>
      <trkpt lat="47.28297" lon="4.05392">
        <ele>519.26</ele>
        <time>2016-07-29T09:34:20Z</time>
      </trkpt>
      <trkpt lat="47.28292" lon="4.05376">
        <ele>516.62</ele>
        <time>2016-07-29T09:34:36Z</time>
      </trkpt>
      <trkpt lat="47.28287" lon="4.05365">
        <ele>514.02</ele>
        <time>2016-07-29T09:34:56Z</time>
      </trkpt>
      <trkpt lat="47.28282" lon="4.05353">
        <ele>511.69</ele>
        <time>2016-07-29T09:35:10Z</time>
      </trkpt>
      <trkpt lat="47.28276" lon="4.05344">
        <ele>509.75</ele>
        <time>2016-07-29T09:35:26Z</time>
      </trkpt>
      <trkpt lat="47.28271" lon="4.05332">
        <ele>506.97</ele>
        <time>2016-07-29T09:35:44Z</time>
      </trkpt>
      <trkpt lat="47.28263" lon="4.05335">
        <ele>505.92</ele>
        <time>2016-07-29T09:35:55Z</time>
      </trkpt>
      <trkpt lat="47.28253" lon="4.05336">
        <ele>503.75</ele>
        <time>2016-07-29T09:36:08Z</time>
      </trkpt>
      <trkpt lat="47.28236" lon="4.05335">
        <ele>500.63</ele>
        <time>2016-07-29T09:36:28Z</time>
      </trkpt>
      <trkpt lat="47.28225" lon="4.05335">
        <ele>498.89</ele>
        <time>2016-07-29T09:36:42Z</time>
      </trkpt>
      <trkpt lat="47.28216" lon="4.05333">
        <ele>498.47</ele>
        <time>2016-07-29T09:36:53Z</time>
      </trkpt>
      <trkpt lat="47.28208" lon="4.05327">
        <ele>498.13</ele>
        <time>2016-07-29T09:37:02Z</time>
      </trkpt>
      <trkpt lat="47.28202" lon="4.05321">
        <ele>498.16</ele>
        <time>2016-07-29T09:37:12Z</time>
      </trkpt>
      <trkpt lat="47.28202" lon="4.05318">
        <ele>498.75</ele>
        <time>2016-07-29T09:37:25Z</time>
      </trkpt>
      <trkpt lat="47.28195" lon="4.05331">
        <ele>498.8</ele>
        <time>2016-07-29T09:37:47Z</time>
      </trkpt>
      <trkpt lat="47.28179" lon="4.05347">
        <ele>499.21</ele>
        <time>2016-07-29T09:38:04Z</time>
      </trkpt>
      <trkpt lat="47.28157" lon="4.05362">
        <ele>499.95</ele>
        <time>2016-07-29T09:38:26Z</time>
      </trkpt>
      <trkpt lat="47.28135" lon="4.0535">
        <ele>500.7</ele>
        <time>2016-07-29T09:38:48Z</time>
      </trkpt>
      <trkpt lat="47.2813" lon="4.05348">
        <ele>500.75</ele>
        <time>2016-07-29T09:38:53Z</time>
      </trkpt>
      <trkpt lat="47.28115" lon="4.05343">
        <ele>501.08</ele>
        <time>2016-07-29T09:39:13Z</time>
      </trkpt>
      <trkpt lat="47.28113" lon="4.05342">
        <ele>501.71</ele>
        <time>2016-07-29T09:39:25Z</time>
      </trkpt>
      <trkpt lat="47.28107" lon="4.05327">
        <ele>501.66</ele>
        <time>2016-07-29T09:40:17Z</time>
      </trkpt>
      <trkpt lat="47.28108" lon="4.0532">
        <ele>501.73</ele>
        <time>2016-07-29T09:40:50Z</time>
      </trkpt>
      <trkpt lat="47.28112" lon="4.05323">
        <ele>501.67</ele>
        <time>2016-07-29T09:41:03Z</time>
      </trkpt>
      <trkpt lat="47.28109" lon="4.05332">
        <ele>501.56</ele>
        <time>2016-07-29T09:41:32Z</time>
      </trkpt>
      <trkpt lat="47.28103" lon="4.05339">
        <ele>501.89</ele>
        <time>2016-07-29T09:42:06Z</time>
      </trkpt>
      <trkpt lat="47.28086" lon="4.05361">
        <ele>502.68</ele>
        <time>2016-07-29T09:42:31Z</time>
      </trkpt>
      <trkpt lat="47.28079" lon="4.0537">
        <ele>503.59</ele>
        <time>2016-07-29T09:42:49Z</time>
      </trkpt>
      <trkpt lat="47.28067" lon="4.05394">
        <ele>504.4</ele>
        <time>2016-07-29T09:43:09Z</time>
      </trkpt>
      <trkpt lat="47.28056" lon="4.05407">
        <ele>505.74</ele>
        <time>2016-07-29T09:43:26Z</time>
      </trkpt>
      <trkpt lat="47.28044" lon="4.05414">
        <ele>508.81</ele>
        <time>2016-07-29T09:43:44Z</time>
      </trkpt>
      <trkpt lat="47.28039" lon="4.05421">
        <ele>511.86</ele>
        <time>2016-07-29T09:43:59Z</time>
      </trkpt>
      <trkpt lat="47.28026" lon="4.05427">
        <ele>514.91</ele>
        <time>2016-07-29T09:44:17Z</time>
      </trkpt>
      <trkpt lat="47.28015" lon="4.05435">
        <ele>517.9</ele>
        <time>2016-07-29T09:44:35Z</time>
      </trkpt>
      <trkpt lat="47.28004" lon="4.05442">
        <ele>519.41</ele>
        <time>2016-07-29T09:44:53Z</time>
      </trkpt>
      <trkpt lat="47.27991" lon="4.05465">
        <ele>519.76</ele>
        <time>2016-07-29T09:45:16Z</time>
      </trkpt>
      <trkpt lat="47.27976" lon="4.05486">
        <ele>520.98</ele>
        <time>2016-07-29T09:45:37Z</time>
      </trkpt>
      <trkpt lat="47.27976" lon="4.05485">
        <ele>521.34</ele>
        <time>2016-07-29T09:45:41Z</time>
      </trkpt>
      <trkpt lat="47.27961" lon="4.05492">
        <ele>523.33</ele>
        <time>2016-07-29T09:46:02Z</time>
      </trkpt>
      <trkpt lat="47.27941" lon="4.05501">
        <ele>526.32</ele>
        <time>2016-07-29T09:46:24Z</time>
      </trkpt>
      <trkpt lat="47.27924" lon="4.05509">
        <ele>529.46</ele>
        <time>2016-07-29T09:46:47Z</time>
      </trkpt>
      <trkpt lat="47.27909" lon="4.0552">
        <ele>531.7</ele>
        <time>2016-07-29T09:47:11Z</time>
      </trkpt>
      <trkpt lat="47.27886" lon="4.05524">
        <ele>531.2</ele>
        <time>2016-07-29T09:47:35Z</time>
      </trkpt>
      <trkpt lat="47.27862" lon="4.05533">
        <ele>531.48</ele>
        <time>2016-07-29T09:47:59Z</time>
      </trkpt>
      <trkpt lat="47.27861" lon="4.05534">
        <ele>531.61</ele>
        <time>2016-07-29T09:48:00Z</time>
      </trkpt>
      <trkpt lat="47.27844" lon="4.05547">
        <ele>533.93</ele>
        <time>2016-07-29T09:48:20Z</time>
      </trkpt>
      <trkpt lat="47.27818" lon="4.05552">
        <ele>537.01</ele>
        <time>2016-07-29T09:48:47Z</time>
      </trkpt>
      <trkpt lat="47.27798" lon="4.05537">
        <ele>540.05</ele>
        <time>2016-07-29T09:49:10Z</time>
      </trkpt>
      <trkpt lat="47.27772" lon="4.05517">
        <ele>541.86</ele>
        <time>2016-07-29T09:49:36Z</time>
      </trkpt>
      <trkpt lat="47.27762" lon="4.05508">
        <ele>542.25</ele>
        <time>2016-07-29T09:49:48Z</time>
      </trkpt>
      <trkpt lat="47.2775" lon="4.05495">
        <ele>542.34</ele>
        <time>2016-07-29T09:50:01Z</time>
      </trkpt>
      <trkpt lat="47.27725" lon="4.05471">
        <ele>542.71</ele>
        <time>2016-07-29T09:50:26Z</time>
      </trkpt>
      <trkpt lat="47.27709" lon="4.05454">
        <ele>544.53</ele>
        <time>2016-07-29T09:50:45Z</time>
      </trkpt>
      <trkpt lat="47.27696" lon="4.05441">
        <ele>547.54</ele>
        <time>2016-07-29T09:51:04Z</time>
      </trkpt>
      <trkpt lat="47.27673" lon="4.05422">
        <ele>550.6</ele>
        <time>2016-07-29T09:51:27Z</time>
      </trkpt>
      <trkpt lat="47.2766" lon="4.05405">
        <ele>553.39</ele>
        <time>2016-07-29T09:51:44Z</time>
      </trkpt>
      <trkpt lat="47.27647" lon="4.05386">
        <ele>555.9</ele>
        <time>2016-07-29T09:52:04Z</time>
      </trkpt>
      <trkpt lat="47.2763" lon="4.05366">
        <ele>559.08</ele>
        <time>2016-07-29T09:52:27Z</time>
      </trkpt>
      <trkpt lat="47.27613" lon="4.05352">
        <ele>562.14</ele>
        <time>2016-07-29T09:52:46Z</time>
      </trkpt>
      <trkpt lat="47.276" lon="4.05338">
        <ele>565.35</ele>
        <time>2016-07-29T09:53:03Z</time>
      </trkpt>
      <trkpt lat="47.27592" lon="4.05329">
        <ele>568.51</ele>
        <time>2016-07-29T09:53:17Z</time>
      </trkpt>
      <trkpt lat="47.27581" lon="4.0532">
        <ele>571.58</ele>
        <time>2016-07-29T09:53:31Z</time>
      </trkpt>
      <trkpt lat="47.27572" lon="4.0531">
        <ele>574.68</ele>
        <time>2016-07-29T09:53:46Z</time>
      </trkpt>
      <trkpt lat="47.27559" lon="4.05296">
        <ele>577.83</ele>
        <time>2016-07-29T09:54:05Z</time>
      </trkpt>
      <trkpt lat="47.27546" lon="4.05288">
        <ele>580.99</ele>
        <time>2016-07-29T09:54:20Z</time>
      </trkpt>
      <trkpt lat="47.27535" lon="4.05276">
        <ele>584.01</ele>
        <time>2016-07-29T09:54:35Z</time>
      </trkpt>
      <trkpt lat="47.27521" lon="4.05264">
        <ele>587.11</ele>
        <time>2016-07-29T09:54:55Z</time>
      </trkpt>
      <trkpt lat="47.27514" lon="4.05256">
        <ele>589.05</ele>
        <time>2016-07-29T09:55:10Z</time>
      </trkpt>
      <trkpt lat="47.27501" lon="4.05245">
        <ele>590.95</ele>
        <time>2016-07-29T09:55:35Z</time>
      </trkpt>
      <trkpt lat="47.27485" lon="4.05229">
        <ele>592.34</ele>
        <time>2016-07-29T09:55:56Z</time>
      </trkpt>
      <trkpt lat="47.27473" lon="4.0522">
        <ele>593.62</ele>
        <time>2016-07-29T09:56:19Z</time>
      </trkpt>
      <trkpt lat="47.27458" lon="4.05203">
        <ele>594.02</ele>
        <time>2016-07-29T09:56:44Z</time>
      </trkpt>
      <trkpt lat="47.2745" lon="4.05199">
        <ele>594.49</ele>
        <time>2016-07-29T09:57:08Z</time>
      </trkpt>
      <trkpt lat="47.27444" lon="4.05198">
        <ele>594.64</ele>
        <time>2016-07-29T09:57:26Z</time>
      </trkpt>
      <trkpt lat="47.27443" lon="4.05199">
        <ele>594.5</ele>
        <time>2016-07-29T09:57:38Z</time>
      </trkpt>
      <trkpt lat="47.27445" lon="4.05199">
        <ele>594.42</ele>
        <time>2016-07-29T09:58:16Z</time>
      </trkpt>
      <trkpt lat="47.27449" lon="4.052">
        <ele>594.22</ele>
        <time>2016-07-29T09:58:33Z</time>
      </trkpt>
      <trkpt lat="47.27447" lon="4.0519">
        <ele>594.42</ele>
        <time>2016-07-29T09:59:17Z</time>
      </trkpt>
      <trkpt lat="47.27445" lon="4.05181">
        <ele>594.31</ele>
        <time>2016-07-29T09:59:37Z</time>
      </trkpt>
      <trkpt lat="47.27447" lon="4.0518">
        <ele>594.39</ele>
        <time>2016-07-29T10:00:14Z</time>
      </trkpt>
      <trkpt lat="47.27442" lon="4.05186">
        <ele>593.87</ele>
        <time>2016-07-29T10:00:41Z</time>
      </trkpt>
      <trkpt lat="47.27437" lon="4.05191">
        <ele>594.13</ele>
        <time>2016-07-29T10:00:58Z</time>
      </trkpt>
      <trkpt lat="47.27433" lon="4.05196">
        <ele>594.58</ele>
        <time>2016-07-29T10:01:34Z</time>
      </trkpt>
      <trkpt lat="47.27434" lon="4.05212">
        <ele>595.16</ele>
        <time>2016-07-29T10:01:57Z</time>
      </trkpt>
      <trkpt lat="47.27432" lon="4.05221">
        <ele>595.77</ele>
        <time>2016-07-29T10:02:03Z</time>
      </trkpt>
      <trkpt lat="47.27432" lon="4.05251">
        <ele>597.78</ele>
        <time>2016-07-29T10:02:27Z</time>
      </trkpt>
      <trkpt lat="47.2743" lon="4.05283">
        <ele>598.54</ele>
        <time>2016-07-29T10:02:50Z</time>
      </trkpt>
      <trkpt lat="47.27422" lon="4.05316">
        <ele>599.18</ele>
        <time>2016-07-29T10:03:09Z</time>
      </trkpt>
      <trkpt lat="47.27409" lon="4.05346">
        <ele>600.01</ele>
        <time>2016-07-29T10:03:29Z</time>
      </trkpt>
      <trkpt lat="47.27402" lon="4.05358">
        <ele>600.73</ele>
        <time>2016-07-29T10:03:41Z</time>
      </trkpt>
      <trkpt lat="47.27394" lon="4.05383">
        <ele>600.95</ele>
        <time>2016-07-29T10:04:01Z</time>
      </trkpt>
      <trkpt lat="47.27378" lon="4.05406">
        <ele>600.12</ele>
        <time>2016-07-29T10:04:23Z</time>
      </trkpt>
      <trkpt lat="47.27364" lon="4.05436">
        <ele>598.15</ele>
        <time>2016-07-29T10:04:45Z</time>
      </trkpt>
      <trkpt lat="47.27356" lon="4.05456">
        <ele>596.18</ele>
        <time>2016-07-29T10:05:00Z</time>
      </trkpt>
      <trkpt lat="47.27351" lon="4.05476">
        <ele>593.07</ele>
        <time>2016-07-29T10:05:18Z</time>
      </trkpt>
      <trkpt lat="47.2735" lon="4.05483">
        <ele>591.84</ele>
        <time>2016-07-29T10:05:25Z</time>
      </trkpt>
      <trkpt lat="47.27347" lon="4.05506">
        <ele>588.87</ele>
        <time>2016-07-29T10:05:40Z</time>
      </trkpt>
      <trkpt lat="47.27347" lon="4.0553">
        <ele>586.51</ele>
        <time>2016-07-29T10:05:59Z</time>
      </trkpt>
      <trkpt lat="47.27347" lon="4.05562">
        <ele>584.12</ele>
        <time>2016-07-29T10:06:21Z</time>
      </trkpt>
      <trkpt lat="47.27345" lon="4.05596">
        <ele>582.02</ele>
        <time>2016-07-29T10:06:46Z</time>
      </trkpt>
      <trkpt lat="47.27327" lon="4.05629">
        <ele>580.61</ele>
        <time>2016-07-29T10:07:12Z</time>
      </trkpt>
      <trkpt lat="47.27317" lon="4.05663">
        <ele>579.72</ele>
        <time>2016-07-29T10:07:31Z</time>
      </trkpt>
      <trkpt lat="47.27314" lon="4.05696">
        <ele>580.2</ele>
        <time>2016-07-29T10:07:51Z</time>
      </trkpt>
      <trkpt lat="47.27304" lon="4.05715">
        <ele>581.56</ele>
        <time>2016-07-29T10:08:11Z</time>
      </trkpt>
      <trkpt lat="47.27301" lon="4.0571">
        <ele>584</ele>
        <time>2016-07-29T10:08:29Z</time>
      </trkpt>
      <trkpt lat="47.27307" lon="4.05711">
        <ele>584.78</ele>
        <time>2016-07-29T10:08:38Z</time>
      </trkpt>
      <trkpt lat="47.27302" lon="4.057">
        <ele>586.6</ele>
        <time>2016-07-29T10:08:57Z</time>
      </trkpt>
      <trkpt lat="47.27298" lon="4.05689">
        <ele>589.09</ele>
        <time>2016-07-29T10:09:14Z</time>
      </trkpt>
      <trkpt lat="47.27281" lon="4.05674">
        <ele>591.49</ele>
        <time>2016-07-29T10:09:36Z</time>
      </trkpt>
      <trkpt lat="47.27268" lon="4.0565">
        <ele>594.55</ele>
        <time>2016-07-29T10:09:57Z</time>
      </trkpt>
      <trkpt lat="47.27258" lon="4.05641">
        <ele>595.93</ele>
        <time>2016-07-29T10:10:17Z</time>
      </trkpt>
      <trkpt lat="47.27248" lon="4.05626">
        <ele>597.26</ele>
        <time>2016-07-29T10:10:41Z</time>
      </trkpt>
      <trkpt lat="47.27233" lon="4.0561">
        <ele>598.99</ele>
        <time>2016-07-29T10:10:59Z</time>
      </trkpt>
      <trkpt lat="47.27207" lon="4.05585">
        <ele>602.1</ele>
        <time>2016-07-29T10:11:23Z</time>
      </trkpt>
      <trkpt lat="47.27189" lon="4.05567">
        <ele>605.19</ele>
        <time>2016-07-29T10:11:43Z</time>
      </trkpt>
      <trkpt lat="47.27172" lon="4.05547">
        <ele>607.54</ele>
        <time>2016-07-29T10:12:07Z</time>
      </trkpt>
      <trkpt lat="47.27148" lon="4.05521">
        <ele>608.85</ele>
        <time>2016-07-29T10:12:32Z</time>
      </trkpt>
      <trkpt lat="47.27128" lon="4.0549">
        <ele>608.37</ele>
        <time>2016-07-29T10:12:59Z</time>
      </trkpt>
      <trkpt lat="47.27107" lon="4.05459">
        <ele>606.99</ele>
        <time>2016-07-29T10:13:26Z</time>
      </trkpt>
      <trkpt lat="47.27094" lon="4.05444">
        <ele>605.14</ele>
        <time>2016-07-29T10:13:46Z</time>
      </trkpt>
      <trkpt lat="47.27081" lon="4.05424">
        <ele>602.37</ele>
        <time>2016-07-29T10:14:10Z</time>
      </trkpt>
      <trkpt lat="47.27074" lon="4.05414">
        <ele>601.21</ele>
        <time>2016-07-29T10:14:42Z</time>
      </trkpt>
      <trkpt lat="47.27076" lon="4.05417">
        <ele>600.93</ele>
        <time>2016-07-29T10:15:10Z</time>
      </trkpt>
      <trkpt lat="47.27077" lon="4.05415">
        <ele>600.71</ele>
        <time>2016-07-29T10:15:48Z</time>
      </trkpt>
      <trkpt lat="47.27079" lon="4.05415">
        <ele>600.66</ele>
        <time>2016-07-29T10:16:18Z</time>
      </trkpt>
      <trkpt lat="47.27071" lon="4.05418">
        <ele>600.87</ele>
        <time>2016-07-29T10:16:58Z</time>
      </trkpt>
      <trkpt lat="47.27071" lon="4.05413">
        <ele>600.81</ele>
        <time>2016-07-29T10:17:40Z</time>
      </trkpt>
      <trkpt lat="47.27073" lon="4.05412">
        <ele>600.66</ele>
        <time>2016-07-29T10:17:49Z</time>
      </trkpt>
      <trkpt lat="47.27067" lon="4.05413">
        <ele>600.59</ele>
        <time>2016-07-29T10:18:08Z</time>
      </trkpt>
      <trkpt lat="47.27068" lon="4.05407">
        <ele>600.38</ele>
        <time>2016-07-29T10:18:39Z</time>
      </trkpt>
      <trkpt lat="47.27068" lon="4.05406">
        <ele>600.41</ele>
        <time>2016-07-29T10:18:41Z</time>
      </trkpt>
      <trkpt lat="47.27071" lon="4.05409">
        <ele>599.68</ele>
        <time>2016-07-29T10:19:02Z</time>
      </trkpt>
      <trkpt lat="47.27068" lon="4.05409">
        <ele>599.13</ele>
        <time>2016-07-29T10:19:32Z</time>
      </trkpt>
      <trkpt lat="47.27064" lon="4.05401">
        <ele>597.67</ele>
        <time>2016-07-29T10:20:04Z</time>
      </trkpt>
      <trkpt lat="47.27056" lon="4.054">
        <ele>597.02</ele>
        <time>2016-07-29T10:20:38Z</time>
      </trkpt>
      <trkpt lat="47.27051" lon="4.05386">
        <ele>595.51</ele>
        <time>2016-07-29T10:20:57Z</time>
      </trkpt>
      <trkpt lat="47.27041" lon="4.05371">
        <ele>592.46</ele>
        <time>2016-07-29T10:21:17Z</time>
      </trkpt>
      <trkpt lat="47.27024" lon="4.0535">
        <ele>589.31</ele>
        <time>2016-07-29T10:21:39Z</time>
      </trkpt>
      <trkpt lat="47.27017" lon="4.05337">
        <ele>587.53</ele>
        <time>2016-07-29T10:21:52Z</time>
      </trkpt>
      <trkpt lat="47.27002" lon="4.05321">
        <ele>584.52</ele>
        <time>2016-07-29T10:22:10Z</time>
      </trkpt>
      <trkpt lat="47.2699" lon="4.05309">
        <ele>581.27</ele>
        <time>2016-07-29T10:22:22Z</time>
      </trkpt>
      <trkpt lat="47.26982" lon="4.05298">
        <ele>578.83</ele>
        <time>2016-07-29T10:22:31Z</time>
      </trkpt>
      <trkpt lat="47.26973" lon="4.0528">
        <ele>576.08</ele>
        <time>2016-07-29T10:22:41Z</time>
      </trkpt>
      <trkpt lat="47.2697" lon="4.05278">
        <ele>573.8</ele>
        <time>2016-07-29T10:22:45Z</time>
      </trkpt>
      <trkpt lat="47.26967" lon="4.05276">
        <ele>572.94</ele>
        <time>2016-07-29T10:22:52Z</time>
      </trkpt>
      <trkpt lat="47.26954" lon="4.05263">
        <ele>571.91</ele>
        <time>2016-07-29T10:23:10Z</time>
      </trkpt>
      <trkpt lat="47.26944" lon="4.05256">
        <ele>569.69</ele>
        <time>2016-07-29T10:23:27Z</time>
      </trkpt>
      <trkpt lat="47.2694" lon="4.05247">
        <ele>566.59</ele>
        <time>2016-07-29T10:23:34Z</time>
      </trkpt>
      <trkpt lat="47.26932" lon="4.05238">
        <ele>563.58</ele>
        <time>2016-07-29T10:23:44Z</time>
      </trkpt>
      <trkpt lat="47.26922" lon="4.05223">
        <ele>561.07</ele>
        <time>2016-07-29T10:23:55Z</time>
      </trkpt>
      <trkpt lat="47.26912" lon="4.05206">
        <ele>558.84</ele>
        <time>2016-07-29T10:24:08Z</time>
      </trkpt>
      <trkpt lat="47.26909" lon="4.05202">
        <ele>558.82</ele>
        <time>2016-07-29T10:24:23Z</time>
      </trkpt>
      <trkpt lat="47.26894" lon="4.05182">
        <ele>556.71</ele>
        <time>2016-07-29T10:24:37Z</time>
      </trkpt>
      <trkpt lat="47.26891" lon="4.05175">
        <ele>553.27</ele>
        <time>2016-07-29T10:24:45Z</time>
      </trkpt>
      <trkpt lat="47.26885" lon="4.05165">
        <ele>550.28</ele>
        <time>2016-07-29T10:24:57Z</time>
      </trkpt>
      <trkpt lat="47.26875" lon="4.05155">
        <ele>548.41</ele>
        <time>2016-07-29T10:25:09Z</time>
      </trkpt>
      <trkpt lat="47.26872" lon="4.05152">
        <ele>547.86</ele>
        <time>2016-07-29T10:25:12Z</time>
      </trkpt>
      <trkpt lat="47.2687" lon="4.05148">
        <ele>547.22</ele>
        <time>2016-07-29T10:25:15Z</time>
      </trkpt>
      <trkpt lat="47.26867" lon="4.05146">
        <ele>546.75</ele>
        <time>2016-07-29T10:25:18Z</time>
      </trkpt>
      <trkpt lat="47.26862" lon="4.05139">
        <ele>545.08</ele>
        <time>2016-07-29T10:25:24Z</time>
      </trkpt>
      <trkpt lat="47.2685" lon="4.05128">
        <ele>543.35</ele>
        <time>2016-07-29T10:25:37Z</time>
      </trkpt>
      <trkpt lat="47.26842" lon="4.05118">
        <ele>541.5</ele>
        <time>2016-07-29T10:25:48Z</time>
      </trkpt>
      <trkpt lat="47.26835" lon="4.05111">
        <ele>540.23</ele>
        <time>2016-07-29T10:25:56Z</time>
      </trkpt>
      <trkpt lat="47.26822" lon="4.05097">
        <ele>537.67</ele>
        <time>2016-07-29T10:26:11Z</time>
      </trkpt>
      <trkpt lat="47.26814" lon="4.05086">
        <ele>536.02</ele>
        <time>2016-07-29T10:26:23Z</time>
      </trkpt>
      <trkpt lat="47.26805" lon="4.05073">
        <ele>534.2</ele>
        <time>2016-07-29T10:26:34Z</time>
      </trkpt>
      <trkpt lat="47.268" lon="4.05065">
        <ele>532.57</ele>
        <time>2016-07-29T10:26:45Z</time>
      </trkpt>
      <trkpt lat="47.26795" lon="4.05057">
        <ele>531.42</ele>
        <time>2016-07-29T10:26:52Z</time>
      </trkpt>
      <trkpt lat="47.26792" lon="4.05055">
        <ele>531.24</ele>
        <time>2016-07-29T10:26:54Z</time>
      </trkpt>
      <trkpt lat="47.26782" lon="4.05043">
        <ele>529.56</ele>
        <time>2016-07-29T10:27:06Z</time>
      </trkpt>
      <trkpt lat="47.26777" lon="4.05036">
        <ele>528.9</ele>
        <time>2016-07-29T10:27:13Z</time>
      </trkpt>
      <trkpt lat="47.26772" lon="4.05036">
        <ele>528.46</ele>
        <time>2016-07-29T10:27:20Z</time>
      </trkpt>
      <trkpt lat="47.26759" lon="4.05043">
        <ele>528.02</ele>
        <time>2016-07-29T10:27:33Z</time>
      </trkpt>
      <trkpt lat="47.26748" lon="4.0506">
        <ele>527.93</ele>
        <time>2016-07-29T10:27:52Z</time>
      </trkpt>
      <trkpt lat="47.2674" lon="4.05097">
        <ele>529.1</ele>
        <time>2016-07-29T10:28:15Z</time>
      </trkpt>
      <trkpt lat="47.26729" lon="4.05135">
        <ele>528.62</ele>
        <time>2016-07-29T10:28:39Z</time>
      </trkpt>
      <trkpt lat="47.26715" lon="4.05169">
        <ele>528.88</ele>
        <time>2016-07-29T10:29:03Z</time>
      </trkpt>
      <trkpt lat="47.26708" lon="4.05177">
        <ele>529.43</ele>
        <time>2016-07-29T10:29:15Z</time>
      </trkpt>
      <trkpt lat="47.26704" lon="4.05182">
        <ele>529.3</ele>
        <time>2016-07-29T10:29:54Z</time>
      </trkpt>
      <trkpt lat="47.26701" lon="4.05189">
        <ele>529.17</ele>
        <time>2016-07-29T10:30:42Z</time>
      </trkpt>
      <trkpt lat="47.26703" lon="4.05189">
        <ele>529.05</ele>
        <time>2016-07-29T10:31:22Z</time>
      </trkpt>
      <trkpt lat="47.26706" lon="4.05189">
        <ele>529.19</ele>
        <time>2016-07-29T10:31:43Z</time>
      </trkpt>
      <trkpt lat="47.26705" lon="4.05188">
        <ele>529.22</ele>
        <time>2016-07-29T10:32:11Z</time>
      </trkpt>
      <trkpt lat="47.26708" lon="4.05189">
        <ele>529.29</ele>
        <time>2016-07-29T10:32:50Z</time>
      </trkpt>
      <trkpt lat="47.26705" lon="4.0519">
        <ele>529.24</ele>
        <time>2016-07-29T10:33:32Z</time>
      </trkpt>
      <trkpt lat="47.26698" lon="4.05197">
        <ele>529.05</ele>
        <time>2016-07-29T10:33:57Z</time>
      </trkpt>
      <trkpt lat="47.2669" lon="4.05217">
        <ele>529.17</ele>
        <time>2016-07-29T10:34:16Z</time>
      </trkpt>
      <trkpt lat="47.26682" lon="4.05233">
        <ele>529.65</ele>
        <time>2016-07-29T10:34:28Z</time>
      </trkpt>
      <trkpt lat="47.2667" lon="4.05274">
        <ele>530.88</ele>
        <time>2016-07-29T10:34:52Z</time>
      </trkpt>
      <trkpt lat="47.26662" lon="4.05298">
        <ele>531.77</ele>
        <time>2016-07-29T10:35:11Z</time>
      </trkpt>
      <trkpt lat="47.26651" lon="4.05343">
        <ele>532.27</ele>
        <time>2016-07-29T10:35:34Z</time>
      </trkpt>
      <trkpt lat="47.26636" lon="4.05387">
        <ele>531.84</ele>
        <time>2016-07-29T10:36:01Z</time>
      </trkpt>
      <trkpt lat="47.26624" lon="4.0542">
        <ele>529.04</ele>
        <time>2016-07-29T10:36:22Z</time>
      </trkpt>
      <trkpt lat="47.26619" lon="4.05452">
        <ele>527.13</ele>
        <time>2016-07-29T10:36:43Z</time>
      </trkpt>
      <trkpt lat="47.26614" lon="4.0546">
        <ele>527.29</ele>
        <time>2016-07-29T10:36:56Z</time>
      </trkpt>
      <trkpt lat="47.26595" lon="4.05478">
        <ele>530.41</ele>
        <time>2016-07-29T10:37:17Z</time>
      </trkpt>
      <trkpt lat="47.26583" lon="4.05498">
        <ele>532.96</ele>
        <time>2016-07-29T10:37:37Z</time>
      </trkpt>
      <trkpt lat="47.26568" lon="4.05517">
        <ele>535.86</ele>
        <time>2016-07-29T10:38:00Z</time>
      </trkpt>
      <trkpt lat="47.26557" lon="4.05536">
        <ele>538.14</ele>
        <time>2016-07-29T10:38:21Z</time>
      </trkpt>
      <trkpt lat="47.26543" lon="4.05549">
        <ele>540.82</ele>
        <time>2016-07-29T10:38:42Z</time>
      </trkpt>
      <trkpt lat="47.2653" lon="4.05563">
        <ele>543.45</ele>
        <time>2016-07-29T10:39:04Z</time>
      </trkpt>
      <trkpt lat="47.26515" lon="4.05573">
        <ele>544.72</ele>
        <time>2016-07-29T10:39:20Z</time>
      </trkpt>
      <trkpt lat="47.26493" lon="4.05581">
        <ele>546.98</ele>
        <time>2016-07-29T10:39:41Z</time>
      </trkpt>
      <trkpt lat="47.26469" lon="4.05597">
        <ele>548.9</ele>
        <time>2016-07-29T10:40:04Z</time>
      </trkpt>
      <trkpt lat="47.26458" lon="4.05617">
        <ele>550.8</ele>
        <time>2016-07-29T10:40:25Z</time>
      </trkpt>
      <trkpt lat="47.26442" lon="4.05641">
        <ele>551.42</ele>
        <time>2016-07-29T10:40:46Z</time>
      </trkpt>
      <trkpt lat="47.26431" lon="4.05663">
        <ele>549.47</ele>
        <time>2016-07-29T10:41:02Z</time>
      </trkpt>
      <trkpt lat="47.26414" lon="4.05683">
        <ele>546.42</ele>
        <time>2016-07-29T10:41:21Z</time>
      </trkpt>
      <trkpt lat="47.26393" lon="4.05703">
        <ele>543.77</ele>
        <time>2016-07-29T10:41:42Z</time>
      </trkpt>
      <trkpt lat="47.26384" lon="4.05714">
        <ele>542.79</ele>
        <time>2016-07-29T10:41:51Z</time>
      </trkpt>
      <trkpt lat="47.26381" lon="4.05719">
        <ele>542.59</ele>
        <time>2016-07-29T10:41:54Z</time>
      </trkpt>
      <trkpt lat="47.26377" lon="4.05726">
        <ele>542.21</ele>
        <time>2016-07-29T10:41:59Z</time>
      </trkpt>
      <trkpt lat="47.26368" lon="4.05737">
        <ele>540.98</ele>
        <time>2016-07-29T10:42:10Z</time>
      </trkpt>
      <trkpt lat="47.26361" lon="4.05748">
        <ele>539.92</ele>
        <time>2016-07-29T10:42:22Z</time>
      </trkpt>
      <trkpt lat="47.2635" lon="4.05758">
        <ele>539.21</ele>
        <time>2016-07-29T10:42:33Z</time>
      </trkpt>
      <trkpt lat="47.2635" lon="4.0576">
        <ele>539.15</ele>
        <time>2016-07-29T10:42:34Z</time>
      </trkpt>
      <trkpt lat="47.26347" lon="4.05764">
        <ele>538.86</ele>
        <time>2016-07-29T10:42:37Z</time>
      </trkpt>
      <trkpt lat="47.26335" lon="4.05779">
        <ele>537.26</ele>
        <time>2016-07-29T10:42:50Z</time>
      </trkpt>
      <trkpt lat="47.26322" lon="4.05794">
        <ele>536.29</ele>
        <time>2016-07-29T10:43:02Z</time>
      </trkpt>
      <trkpt lat="47.26313" lon="4.05805">
        <ele>535.62</ele>
        <time>2016-07-29T10:43:14Z</time>
      </trkpt>
      <trkpt lat="47.26304" lon="4.05818">
        <ele>534.02</ele>
        <time>2016-07-29T10:43:28Z</time>
      </trkpt>
      <trkpt lat="47.26294" lon="4.0583">
        <ele>533.08</ele>
        <time>2016-07-29T10:43:38Z</time>
      </trkpt>
      <trkpt lat="47.26288" lon="4.05842">
        <ele>531.91</ele>
        <time>2016-07-29T10:43:51Z</time>
      </trkpt>
      <trkpt lat="47.2627" lon="4.05865">
        <ele>530.25</ele>
        <time>2016-07-29T10:44:11Z</time>
      </trkpt>
      <trkpt lat="47.26259" lon="4.0589">
        <ele>529.88</ele>
        <time>2016-07-29T10:44:30Z</time>
      </trkpt>
      <trkpt lat="47.26256" lon="4.05892">
        <ele>529.85</ele>
        <time>2016-07-29T10:44:34Z</time>
      </trkpt>
      <trkpt lat="47.26234" lon="4.05905">
        <ele>531.09</ele>
        <time>2016-07-29T10:44:57Z</time>
      </trkpt>
      <trkpt lat="47.26215" lon="4.05921">
        <ele>532.84</ele>
        <time>2016-07-29T10:45:20Z</time>
      </trkpt>
      <trkpt lat="47.26189" lon="4.05938">
        <ele>532.9</ele>
        <time>2016-07-29T10:45:44Z</time>
      </trkpt>
      <trkpt lat="47.26172" lon="4.05947">
        <ele>532.7</ele>
        <time>2016-07-29T10:46:02Z</time>
      </trkpt>
      <trkpt lat="47.26157" lon="4.05957">
        <ele>532.8</ele>
        <time>2016-07-29T10:46:19Z</time>
      </trkpt>
      <trkpt lat="47.26139" lon="4.0597">
        <ele>532.22</ele>
        <time>2016-07-29T10:46:39Z</time>
      </trkpt>
      <trkpt lat="47.26125" lon="4.05984">
        <ele>531.32</ele>
        <time>2016-07-29T10:47:01Z</time>
      </trkpt>
      <trkpt lat="47.26114" lon="4.05999">
        <ele>530.45</ele>
        <time>2016-07-29T10:47:20Z</time>
      </trkpt>
      <trkpt lat="47.26096" lon="4.06013">
        <ele>528.99</ele>
        <time>2016-07-29T10:47:43Z</time>
      </trkpt>
      <trkpt lat="47.26079" lon="4.06038">
        <ele>527.79</ele>
        <time>2016-07-29T10:48:07Z</time>
      </trkpt>
      <trkpt lat="47.26067" lon="4.06056">
        <ele>527.04</ele>
        <time>2016-07-29T10:48:26Z</time>
      </trkpt>
      <trkpt lat="47.26047" lon="4.06082">
        <ele>526.19</ele>
        <time>2016-07-29T10:48:49Z</time>
      </trkpt>
      <trkpt lat="47.26037" lon="4.06091">
        <ele>525.93</ele>
        <time>2016-07-29T10:49:00Z</time>
      </trkpt>
      <trkpt lat="47.26029" lon="4.06107">
        <ele>525.54</ele>
        <time>2016-07-29T10:49:13Z</time>
      </trkpt>
      <trkpt lat="47.26016" lon="4.06118">
        <ele>524.89</ele>
        <time>2016-07-29T10:49:25Z</time>
      </trkpt>
      <trkpt lat="47.26004" lon="4.06132">
        <ele>523.87</ele>
        <time>2016-07-29T10:49:38Z</time>
      </trkpt>
      <trkpt lat="47.25994" lon="4.06142">
        <ele>522.95</ele>
        <time>2016-07-29T10:49:48Z</time>
      </trkpt>
      <trkpt lat="47.25988" lon="4.06149">
        <ele>522.7</ele>
        <time>2016-07-29T10:49:54Z</time>
      </trkpt>
      <trkpt lat="47.25979" lon="4.06163">
        <ele>522.02</ele>
        <time>2016-07-29T10:50:06Z</time>
      </trkpt>
      <trkpt lat="47.25967" lon="4.06176">
        <ele>521.24</ele>
        <time>2016-07-29T10:50:18Z</time>
      </trkpt>
      <trkpt lat="47.25954" lon="4.06194">
        <ele>520.52</ele>
        <time>2016-07-29T10:50:35Z</time>
      </trkpt>
      <trkpt lat="47.25938" lon="4.0623">
        <ele>519.04</ele>
        <time>2016-07-29T10:50:57Z</time>
      </trkpt>
      <trkpt lat="47.25918" lon="4.06267">
        <ele>516.29</ele>
        <time>2016-07-29T10:51:24Z</time>
      </trkpt>
      <trkpt lat="47.25916" lon="4.06269">
        <ele>515.68</ele>
        <time>2016-07-29T10:51:30Z</time>
      </trkpt>
      <trkpt lat="47.25909" lon="4.06272">
        <ele>515.11</ele>
        <time>2016-07-29T10:51:43Z</time>
      </trkpt>
      <trkpt lat="47.25898" lon="4.06281">
        <ele>514.96</ele>
        <time>2016-07-29T10:52:24Z</time>
      </trkpt>
      <trkpt lat="47.25877" lon="4.06286">
        <ele>514.5</ele>
        <time>2016-07-29T10:52:45Z</time>
      </trkpt>
      <trkpt lat="47.25863" lon="4.06288">
        <ele>514.28</ele>
        <time>2016-07-29T10:52:55Z</time>
      </trkpt>
      <trkpt lat="47.25844" lon="4.06294">
        <ele>513.91</ele>
        <time>2016-07-29T10:53:09Z</time>
      </trkpt>
      <trkpt lat="47.25834" lon="4.06296">
        <ele>513.97</ele>
        <time>2016-07-29T10:53:18Z</time>
      </trkpt>
      <trkpt lat="47.25823" lon="4.06299">
        <ele>514.14</ele>
        <time>2016-07-29T10:53:30Z</time>
      </trkpt>
      <trkpt lat="47.25811" lon="4.063">
        <ele>514.62</ele>
        <time>2016-07-29T10:53:42Z</time>
      </trkpt>
      <trkpt lat="47.25794" lon="4.06305">
        <ele>514.98</ele>
        <time>2016-07-29T10:53:57Z</time>
      </trkpt>
      <trkpt lat="47.25782" lon="4.06309">
        <ele>515.35</ele>
        <time>2016-07-29T10:54:10Z</time>
      </trkpt>
      <trkpt lat="47.25776" lon="4.06315">
        <ele>515.48</ele>
        <time>2016-07-29T10:54:20Z</time>
      </trkpt>
      <trkpt lat="47.25775" lon="4.06315">
        <ele>515.48</ele>
        <time>2016-07-29T10:54:21Z</time>
      </trkpt>
      <trkpt lat="47.25771" lon="4.06316">
        <ele>515.48</ele>
        <time>2016-07-29T10:54:25Z</time>
      </trkpt>
      <trkpt lat="47.2576" lon="4.0632">
        <ele>515.44</ele>
        <time>2016-07-29T10:54:37Z</time>
      </trkpt>
      <trkpt lat="47.25747" lon="4.06333">
        <ele>515.63</ele>
        <time>2016-07-29T10:54:52Z</time>
      </trkpt>
      <trkpt lat="47.25724" lon="4.06359">
        <ele>516.25</ele>
        <time>2016-07-29T10:55:14Z</time>
      </trkpt>
      <trkpt lat="47.25705" lon="4.06377">
        <ele>515.76</ele>
        <time>2016-07-29T10:55:34Z</time>
      </trkpt>
      <trkpt lat="47.25678" lon="4.06399">
        <ele>513.73</ele>
        <time>2016-07-29T10:55:54Z</time>
      </trkpt>
      <trkpt lat="47.25674" lon="4.06401">
        <ele>513.25</ele>
        <time>2016-07-29T10:55:57Z</time>
      </trkpt>
      <trkpt lat="47.25669" lon="4.06398">
        <ele>512.66</ele>
        <time>2016-07-29T10:56:02Z</time>
      </trkpt>
      <trkpt lat="47.25652" lon="4.06386">
        <ele>511.06</ele>
        <time>2016-07-29T10:56:20Z</time>
      </trkpt>
      <trkpt lat="47.25629" lon="4.06371">
        <ele>510.6</ele>
        <time>2016-07-29T10:56:40Z</time>
      </trkpt>
      <trkpt lat="47.25602" lon="4.06357">
        <ele>510.61</ele>
        <time>2016-07-29T10:57:01Z</time>
      </trkpt>
      <trkpt lat="47.25585" lon="4.06346">
        <ele>510.93</ele>
        <time>2016-07-29T10:57:13Z</time>
      </trkpt>
      <trkpt lat="47.25571" lon="4.06336">
        <ele>511.07</ele>
        <time>2016-07-29T10:57:25Z</time>
      </trkpt>
      <trkpt lat="47.25556" lon="4.06328">
        <ele>511.65</ele>
        <time>2016-07-29T10:57:36Z</time>
      </trkpt>
      <trkpt lat="47.25545" lon="4.06327">
        <ele>512.08</ele>
        <time>2016-07-29T10:57:48Z</time>
      </trkpt>
      <trkpt lat="47.25533" lon="4.06331">
        <ele>512.8</ele>
        <time>2016-07-29T10:58:01Z</time>
      </trkpt>
      <trkpt lat="47.25522" lon="4.0634">
        <ele>513.35</ele>
        <time>2016-07-29T10:58:12Z</time>
      </trkpt>
      <trkpt lat="47.25508" lon="4.06359">
        <ele>514.12</ele>
        <time>2016-07-29T10:58:26Z</time>
      </trkpt>
      <trkpt lat="47.25498" lon="4.06372">
        <ele>514.93</ele>
        <time>2016-07-29T10:58:37Z</time>
      </trkpt>
      <trkpt lat="47.25487" lon="4.06381">
        <ele>516.17</ele>
        <time>2016-07-29T10:58:48Z</time>
      </trkpt>
      <trkpt lat="47.25477" lon="4.06389">
        <ele>517.67</ele>
        <time>2016-07-29T10:59:00Z</time>
      </trkpt>
      <trkpt lat="47.25465" lon="4.06395">
        <ele>518.45</ele>
        <time>2016-07-29T10:59:10Z</time>
      </trkpt>
      <trkpt lat="47.25454" lon="4.06398">
        <ele>518.95</ele>
        <time>2016-07-29T10:59:21Z</time>
      </trkpt>
      <trkpt lat="47.2545" lon="4.064">
        <ele>519.18</ele>
        <time>2016-07-29T10:59:25Z</time>
      </trkpt>
      <trkpt lat="47.25439" lon="4.06402">
        <ele>519.9</ele>
        <time>2016-07-29T10:59:36Z</time>
      </trkpt>
      <trkpt lat="47.2541" lon="4.06406">
        <ele>521.18</ele>
        <time>2016-07-29T11:00:02Z</time>
      </trkpt>
      <trkpt lat="47.25396" lon="4.06411">
        <ele>521.78</ele>
        <time>2016-07-29T11:00:15Z</time>
      </trkpt>
      <trkpt lat="47.25381" lon="4.06417">
        <ele>522.35</ele>
        <time>2016-07-29T11:00:28Z</time>
      </trkpt>
      <trkpt lat="47.25364" lon="4.06432">
        <ele>523.1</ele>
        <time>2016-07-29T11:00:41Z</time>
      </trkpt>
      <trkpt lat="47.25348" lon="4.06449">
        <ele>523.61</ele>
        <time>2016-07-29T11:00:57Z</time>
      </trkpt>
      <trkpt lat="47.25343" lon="4.06452">
        <ele>523.71</ele>
        <time>2016-07-29T11:01:01Z</time>
      </trkpt>
      <trkpt lat="47.25332" lon="4.06469">
        <ele>524</ele>
        <time>2016-07-29T11:01:13Z</time>
      </trkpt>
      <trkpt lat="47.25322" lon="4.06483">
        <ele>524.45</ele>
        <time>2016-07-29T11:01:24Z</time>
      </trkpt>
      <trkpt lat="47.25316" lon="4.06493">
        <ele>524.59</ele>
        <time>2016-07-29T11:01:31Z</time>
      </trkpt>
      <trkpt lat="47.25306" lon="4.06507">
        <ele>525.15</ele>
        <time>2016-07-29T11:01:42Z</time>
      </trkpt>
      <trkpt lat="47.25298" lon="4.06524">
        <ele>525.83</ele>
        <time>2016-07-29T11:01:53Z</time>
      </trkpt>
      <trkpt lat="47.25288" lon="4.0654">
        <ele>526.36</ele>
        <time>2016-07-29T11:02:04Z</time>
      </trkpt>
      <trkpt lat="47.25281" lon="4.06559">
        <ele>527.52</ele>
        <time>2016-07-29T11:02:17Z</time>
      </trkpt>
      <trkpt lat="47.25273" lon="4.06578">
        <ele>528.63</ele>
        <time>2016-07-29T11:02:31Z</time>
      </trkpt>
      <trkpt lat="47.25265" lon="4.066">
        <ele>530.09</ele>
        <time>2016-07-29T11:02:46Z</time>
      </trkpt>
      <trkpt lat="47.25257" lon="4.06625">
        <ele>531.58</ele>
        <time>2016-07-29T11:03:03Z</time>
      </trkpt>
      <trkpt lat="47.25257" lon="4.06626">
        <ele>531.67</ele>
        <time>2016-07-29T11:03:04Z</time>
      </trkpt>
      <trkpt lat="47.2525" lon="4.0664">
        <ele>532.2</ele>
        <time>2016-07-29T11:03:13Z</time>
      </trkpt>
      <trkpt lat="47.25242" lon="4.06655">
        <ele>531.73</ele>
        <time>2016-07-29T11:03:26Z</time>
      </trkpt>
      <trkpt lat="47.25227" lon="4.06672">
        <ele>530.54</ele>
        <time>2016-07-29T11:03:40Z</time>
      </trkpt>
      <trkpt lat="47.25224" lon="4.06676">
        <ele>530.25</ele>
        <time>2016-07-29T11:03:43Z</time>
      </trkpt>
      <trkpt lat="47.25217" lon="4.06684">
        <ele>529.44</ele>
        <time>2016-07-29T11:03:53Z</time>
      </trkpt>
      <trkpt lat="47.25198" lon="4.06703">
        <ele>528.47</ele>
        <time>2016-07-29T11:04:12Z</time>
      </trkpt>
      <trkpt lat="47.25197" lon="4.06705">
        <ele>528.31</ele>
        <time>2016-07-29T11:04:14Z</time>
      </trkpt>
      <trkpt lat="47.25187" lon="4.06722">
        <ele>527.47</ele>
        <time>2016-07-29T11:04:28Z</time>
      </trkpt>
      <trkpt lat="47.25176" lon="4.06737">
        <ele>527.14</ele>
        <time>2016-07-29T11:04:42Z</time>
      </trkpt>
      <trkpt lat="47.25164" lon="4.06754">
        <ele>526.65</ele>
        <time>2016-07-29T11:04:56Z</time>
      </trkpt>
      <trkpt lat="47.25156" lon="4.06764">
        <ele>526.53</ele>
        <time>2016-07-29T11:05:05Z</time>
      </trkpt>
      <trkpt lat="47.25146" lon="4.06779">
        <ele>526.4</ele>
        <time>2016-07-29T11:05:17Z</time>
      </trkpt>
      <trkpt lat="47.25145" lon="4.06784">
        <ele>526.39</ele>
        <time>2016-07-29T11:05:20Z</time>
      </trkpt>
      <trkpt lat="47.25141" lon="4.0679">
        <ele>526.4</ele>
        <time>2016-07-29T11:05:25Z</time>
      </trkpt>
      <trkpt lat="47.25138" lon="4.06803">
        <ele>526.37</ele>
        <time>2016-07-29T11:05:35Z</time>
      </trkpt>
      <trkpt lat="47.25127" lon="4.06814">
        <ele>526.49</ele>
        <time>2016-07-29T11:05:47Z</time>
      </trkpt>
      <trkpt lat="47.25115" lon="4.06821">
        <ele>526.8</ele>
        <time>2016-07-29T11:06:02Z</time>
      </trkpt>
      <trkpt lat="47.25107" lon="4.06827">
        <ele>527.12</ele>
        <time>2016-07-29T11:06:13Z</time>
      </trkpt>
      <trkpt lat="47.25104" lon="4.06826">
        <ele>527.34</ele>
        <time>2016-07-29T11:06:30Z</time>
      </trkpt>
      <trkpt lat="47.25107" lon="4.06829">
        <ele>527.54</ele>
        <time>2016-07-29T11:06:46Z</time>
      </trkpt>
      <trkpt lat="47.25108" lon="4.0683">
        <ele>527.66</ele>
        <time>2016-07-29T11:07:26Z</time>
      </trkpt>
      <trkpt lat="47.25111" lon="4.06826">
        <ele>527.6</ele>
        <time>2016-07-29T11:08:05Z</time>
      </trkpt>
      <trkpt lat="47.25108" lon="4.06829">
        <ele>527.57</ele>
        <time>2016-07-29T11:08:15Z</time>
      </trkpt>
      <trkpt lat="47.25106" lon="4.0683">
        <ele>527.65</ele>
        <time>2016-07-29T11:08:29Z</time>
      </trkpt>
      <trkpt lat="47.25101" lon="4.06836">
        <ele>527.44</ele>
        <time>2016-07-29T11:08:50Z</time>
      </trkpt>
      <trkpt lat="47.2509" lon="4.06846">
        <ele>527.44</ele>
        <time>2016-07-29T11:09:00Z</time>
      </trkpt>
      <trkpt lat="47.25076" lon="4.06861">
        <ele>527.92</ele>
        <time>2016-07-29T11:09:13Z</time>
      </trkpt>
      <trkpt lat="47.25066" lon="4.06878">
        <ele>528.32</ele>
        <time>2016-07-29T11:09:24Z</time>
      </trkpt>
      <trkpt lat="47.25055" lon="4.06891">
        <ele>528.67</ele>
        <time>2016-07-29T11:09:37Z</time>
      </trkpt>
      <trkpt lat="47.2505" lon="4.06906">
        <ele>528.78</ele>
        <time>2016-07-29T11:09:46Z</time>
      </trkpt>
      <trkpt lat="47.25038" lon="4.06918">
        <ele>529.05</ele>
        <time>2016-07-29T11:09:58Z</time>
      </trkpt>
      <trkpt lat="47.25029" lon="4.06936">
        <ele>529.36</ele>
        <time>2016-07-29T11:10:10Z</time>
      </trkpt>
      <trkpt lat="47.25018" lon="4.06946">
        <ele>529.51</ele>
        <time>2016-07-29T11:10:21Z</time>
      </trkpt>
      <trkpt lat="47.2501" lon="4.06958">
        <ele>529.94</ele>
        <time>2016-07-29T11:10:33Z</time>
      </trkpt>
      <trkpt lat="47.25" lon="4.06967">
        <ele>530.28</ele>
        <time>2016-07-29T11:10:44Z</time>
      </trkpt>
      <trkpt lat="47.24984" lon="4.06981">
        <ele>530.93</ele>
        <time>2016-07-29T11:10:57Z</time>
      </trkpt>
      <trkpt lat="47.24973" lon="4.0699">
        <ele>531.45</ele>
        <time>2016-07-29T11:11:09Z</time>
      </trkpt>
      <trkpt lat="47.24967" lon="4.06995">
        <ele>531.8</ele>
        <time>2016-07-29T11:11:16Z</time>
      </trkpt>
      <trkpt lat="47.24958" lon="4.06992">
        <ele>532.53</ele>
        <time>2016-07-29T11:11:32Z</time>
      </trkpt>
      <trkpt lat="47.24956" lon="4.06962">
        <ele>529.94</ele>
        <time>2016-07-29T11:11:53Z</time>
      </trkpt>
      <trkpt lat="47.24952" lon="4.06938">
        <ele>527.02</ele>
        <time>2016-07-29T11:12:13Z</time>
      </trkpt>
      <trkpt lat="47.24944" lon="4.06905">
        <ele>524.73</ele>
        <time>2016-07-29T11:12:36Z</time>
      </trkpt>
      <trkpt lat="47.2494" lon="4.06874">
        <ele>523.32</ele>
        <time>2016-07-29T11:12:56Z</time>
      </trkpt>
      <trkpt lat="47.24934" lon="4.06838">
        <ele>522.64</ele>
        <time>2016-07-29T11:13:20Z</time>
      </trkpt>
      <trkpt lat="47.24927" lon="4.06819">
        <ele>520.66</ele>
        <time>2016-07-29T11:13:39Z</time>
      </trkpt>
      <trkpt lat="47.2492" lon="4.06799">
        <ele>520.32</ele>
        <time>2016-07-29T11:14:08Z</time>
      </trkpt>
      <trkpt lat="47.24907" lon="4.06778">
        <ele>518.87</ele>
        <time>2016-07-29T11:14:30Z</time>
      </trkpt>
      <trkpt lat="47.24901" lon="4.06771">
        <ele>518.23</ele>
        <time>2016-07-29T11:14:39Z</time>
      </trkpt>
      <trkpt lat="47.24882" lon="4.06755">
        <ele>516.16</ele>
        <time>2016-07-29T11:15:03Z</time>
      </trkpt>
      <trkpt lat="47.24865" lon="4.06746">
        <ele>515.42</ele>
        <time>2016-07-29T11:15:22Z</time>
      </trkpt>
      <trkpt lat="47.24848" lon="4.06734">
        <ele>515.02</ele>
        <time>2016-07-29T11:15:44Z</time>
      </trkpt>
      <trkpt lat="47.24831" lon="4.0672">
        <ele>514.93</ele>
        <time>2016-07-29T11:16:04Z</time>
      </trkpt>
      <trkpt lat="47.24829" lon="4.0672">
        <ele>514.93</ele>
        <time>2016-07-29T11:16:06Z</time>
      </trkpt>
      <trkpt lat="47.24822" lon="4.06723">
        <ele>515.07</ele>
        <time>2016-07-29T11:16:39Z</time>
      </trkpt>
      <trkpt lat="47.24821" lon="4.06714">
        <ele>515.12</ele>
        <time>2016-07-29T11:17:22Z</time>
      </trkpt>
      <trkpt lat="47.24821" lon="4.06699">
        <ele>514.62</ele>
        <time>2016-07-29T11:17:37Z</time>
      </trkpt>
      <trkpt lat="47.2482" lon="4.06696">
        <ele>514.39</ele>
        <time>2016-07-29T11:17:39Z</time>
      </trkpt>
      <trkpt lat="47.24822" lon="4.06663">
        <ele>513.32</ele>
        <time>2016-07-29T11:18:02Z</time>
      </trkpt>
      <trkpt lat="47.24818" lon="4.06628">
        <ele>513.57</ele>
        <time>2016-07-29T11:18:26Z</time>
      </trkpt>
      <trkpt lat="47.24808" lon="4.06597">
        <ele>513.44</ele>
        <time>2016-07-29T11:18:46Z</time>
      </trkpt>
      <trkpt lat="47.24794" lon="4.06587">
        <ele>514.61</ele>
        <time>2016-07-29T11:19:04Z</time>
      </trkpt>
      <trkpt lat="47.24782" lon="4.06567">
        <ele>514.8</ele>
        <time>2016-07-29T11:19:24Z</time>
      </trkpt>
      <trkpt lat="47.2478" lon="4.06563">
        <ele>514.66</ele>
        <time>2016-07-29T11:19:26Z</time>
      </trkpt>
      <trkpt lat="47.24769" lon="4.06536">
        <ele>513.63</ele>
        <time>2016-07-29T11:19:46Z</time>
      </trkpt>
      <trkpt lat="47.24766" lon="4.06528">
        <ele>513.11</ele>
        <time>2016-07-29T11:19:51Z</time>
      </trkpt>
      <trkpt lat="47.24759" lon="4.06511">
        <ele>512.31</ele>
        <time>2016-07-29T11:20:02Z</time>
      </trkpt>
      <trkpt lat="47.24752" lon="4.0649">
        <ele>510.8</ele>
        <time>2016-07-29T11:20:15Z</time>
      </trkpt>
      <trkpt lat="47.24746" lon="4.06472">
        <ele>509.8</ele>
        <time>2016-07-29T11:20:26Z</time>
      </trkpt>
      <trkpt lat="47.24744" lon="4.06467">
        <ele>509.53</ele>
        <time>2016-07-29T11:20:30Z</time>
      </trkpt>
      <trkpt lat="47.24737" lon="4.06442">
        <ele>508.06</ele>
        <time>2016-07-29T11:20:46Z</time>
      </trkpt>
      <trkpt lat="47.24731" lon="4.06421">
        <ele>504.93</ele>
        <time>2016-07-29T11:21:05Z</time>
      </trkpt>
      <trkpt lat="47.24725" lon="4.064">
        <ele>503.46</ele>
        <time>2016-07-29T11:21:19Z</time>
      </trkpt>
      <trkpt lat="47.24713" lon="4.06376">
        <ele>501.56</ele>
        <time>2016-07-29T11:21:38Z</time>
      </trkpt>
      <trkpt lat="47.24704" lon="4.06344">
        <ele>499.22</ele>
        <time>2016-07-29T11:21:59Z</time>
      </trkpt>
      <trkpt lat="47.24693" lon="4.06327">
        <ele>497.35</ele>
        <time>2016-07-29T11:22:14Z</time>
      </trkpt>
      <trkpt lat="47.24669" lon="4.06319">
        <ele>496.56</ele>
        <time>2016-07-29T11:22:35Z</time>
      </trkpt>
      <trkpt lat="47.24643" lon="4.06312">
        <ele>495.67</ele>
        <time>2016-07-29T11:23:01Z</time>
      </trkpt>
      <trkpt lat="47.24615" lon="4.06303">
        <ele>494.8</ele>
        <time>2016-07-29T11:23:23Z</time>
      </trkpt>
      <trkpt lat="47.2459" lon="4.06296">
        <ele>493.37</ele>
        <time>2016-07-29T11:23:45Z</time>
      </trkpt>
      <trkpt lat="47.24577" lon="4.06292">
        <ele>491.48</ele>
        <time>2016-07-29T11:24:07Z</time>
      </trkpt>
      <trkpt lat="47.24588" lon="4.06288">
        <ele>491.55</ele>
        <time>2016-07-29T11:24:26Z</time>
      </trkpt>
      <trkpt lat="47.2459" lon="4.06293">
        <ele>492.09</ele>
        <time>2016-07-29T11:24:46Z</time>
      </trkpt>
      <trkpt lat="47.2459" lon="4.06292">
        <ele>492.04</ele>
        <time>2016-07-29T11:25:16Z</time>
      </trkpt>
      <trkpt lat="47.24589" lon="4.06296">
        <ele>492.12</ele>
        <time>2016-07-29T11:25:41Z</time>
      </trkpt>
      <trkpt lat="47.24591" lon="4.06293">
        <ele>492.26</ele>
        <time>2016-07-29T11:26:10Z</time>
      </trkpt>
      <trkpt lat="47.24592" lon="4.06288">
        <ele>492.16</ele>
        <time>2016-07-29T11:26:35Z</time>
      </trkpt>
      <trkpt lat="47.24593" lon="4.06287">
        <ele>491.9</ele>
        <time>2016-07-29T11:26:52Z</time>
      </trkpt>
      <trkpt lat="47.24582" lon="4.06291">
        <ele>491.91</ele>
        <time>2016-07-29T11:27:09Z</time>
      </trkpt>
      <trkpt lat="47.24565" lon="4.06291">
        <ele>491.37</ele>
        <time>2016-07-29T11:27:30Z</time>
      </trkpt>
      <trkpt lat="47.24549" lon="4.06286">
        <ele>490.2</ele>
        <time>2016-07-29T11:27:49Z</time>
      </trkpt>
      <trkpt lat="47.24543" lon="4.06278">
        <ele>490.23</ele>
        <time>2016-07-29T11:28:03Z</time>
      </trkpt>
      <trkpt lat="47.24535" lon="4.06281">
        <ele>490.39</ele>
        <time>2016-07-29T11:28:17Z</time>
      </trkpt>
      <trkpt lat="47.24527" lon="4.06282">
        <ele>490.15</ele>
        <time>2016-07-29T11:28:28Z</time>
      </trkpt>
      <trkpt lat="47.24517" lon="4.06282">
        <ele>489.19</ele>
        <time>2016-07-29T11:28:38Z</time>
      </trkpt>
      <trkpt lat="47.24503" lon="4.06286">
        <ele>488.54</ele>
        <time>2016-07-29T11:28:56Z</time>
      </trkpt>
      <trkpt lat="47.24476" lon="4.06299">
        <ele>489.32</ele>
        <time>2016-07-29T11:29:20Z</time>
      </trkpt>
      <trkpt lat="47.24451" lon="4.06307">
        <ele>489.36</ele>
        <time>2016-07-29T11:29:43Z</time>
      </trkpt>
      <trkpt lat="47.24432" lon="4.06294">
        <ele>486.95</ele>
        <time>2016-07-29T11:30:04Z</time>
      </trkpt>
      <trkpt lat="47.24416" lon="4.06282">
        <ele>483.95</ele>
        <time>2016-07-29T11:30:24Z</time>
      </trkpt>
      <trkpt lat="47.24395" lon="4.06275">
        <ele>480.86</ele>
        <time>2016-07-29T11:30:43Z</time>
      </trkpt>
      <trkpt lat="47.24373" lon="4.06264">
        <ele>478.3</ele>
        <time>2016-07-29T11:31:05Z</time>
      </trkpt>
      <trkpt lat="47.24369" lon="4.0626">
        <ele>477.63</ele>
        <time>2016-07-29T11:31:29Z</time>
      </trkpt>
      <trkpt lat="47.24373" lon="4.06255">
        <ele>475.94</ele>
        <time>2016-07-29T11:31:48Z</time>
      </trkpt>
      <trkpt lat="47.24371" lon="4.06251">
        <ele>475.05</ele>
        <time>2016-07-29T11:32:22Z</time>
      </trkpt>
      <trkpt lat="47.2437" lon="4.06249">
        <ele>475.01</ele>
        <time>2016-07-29T11:33:16Z</time>
      </trkpt>
      <trkpt lat="47.24364" lon="4.06252">
        <ele>475.16</ele>
        <time>2016-07-29T11:33:57Z</time>
      </trkpt>
      <trkpt lat="47.24367" lon="4.06254">
        <ele>475.52</ele>
        <time>2016-07-29T11:34:53Z</time>
      </trkpt>
      <trkpt lat="47.24367" lon="4.06255">
        <ele>475.22</ele>
        <time>2016-07-29T11:35:51Z</time>
      </trkpt>
      <trkpt lat="47.24367" lon="4.06255">
        <ele>475.38</ele>
        <time>2016-07-29T11:36:26Z</time>
      </trkpt>
      <trkpt lat="47.24362" lon="4.0625">
        <ele>475.92</ele>
        <time>2016-07-29T11:37:13Z</time>
      </trkpt>
      <trkpt lat="47.24358" lon="4.06245">
        <ele>475.83</ele>
        <time>2016-07-29T11:37:33Z</time>
      </trkpt>
      <trkpt lat="47.24367" lon="4.0625">
        <ele>476.06</ele>
        <time>2016-07-29T11:38:46Z</time>
      </trkpt>
      <trkpt lat="47.24371" lon="4.06251">
        <ele>475.91</ele>
        <time>2016-07-29T11:39:31Z</time>
      </trkpt>
      <trkpt lat="47.24369" lon="4.0625">
        <ele>475.89</ele>
        <time>2016-07-29T11:40:35Z</time>
      </trkpt>
      <trkpt lat="47.24369" lon="4.06251">
        <ele>475.88</ele>
        <time>2016-07-29T11:41:24Z</time>
      </trkpt>
      <trkpt lat="47.24365" lon="4.06251">
        <ele>475.95</ele>
        <time>2016-07-29T11:42:17Z</time>
      </trkpt>
      <trkpt lat="47.24369" lon="4.06251">
        <ele>476.07</ele>
        <time>2016-07-29T11:42:50Z</time>
      </trkpt>
      <trkpt lat="47.24369" lon="4.06251">
        <ele>476.02</ele>
        <time>2016-07-29T11:43:19Z</time>
      </trkpt>
      <trkpt lat="47.24369" lon="4.06252">
        <ele>476.13</ele>
        <time>2016-07-29T11:44:49Z</time>
      </trkpt>
      <trkpt lat="47.24368" lon="4.0625">
        <ele>476.26</ele>
        <time>2016-07-29T11:46:15Z</time>
      </trkpt>
      <trkpt lat="47.24369" lon="4.06249">
        <ele>476.67</ele>
        <time>2016-07-29T11:47:50Z</time>
      </trkpt>
      <trkpt lat="47.2437" lon="4.06257">
        <ele>477.09</ele>
        <time>2016-07-29T11:48:59Z</time>
      </trkpt>
      <trkpt lat="47.24369" lon="4.06257">
        <ele>477.03</ele>
        <time>2016-07-29T11:50:21Z</time>
      </trkpt>
      <trkpt lat="47.24369" lon="4.06259">
        <ele>477.11</ele>
        <time>2016-07-29T11:52:09Z</time>
      </trkpt>
      <trkpt lat="47.24371" lon="4.06253">
        <ele>477.28</ele>
        <time>2016-07-29T11:53:24Z</time>
      </trkpt>
      <trkpt lat="47.24369" lon="4.06253">
        <ele>477.26</ele>
        <time>2016-07-29T11:54:44Z</time>
      </trkpt>
      <trkpt lat="47.24368" lon="4.06252">
        <ele>476.98</ele>
        <time>2016-07-29T11:56:00Z</time>
      </trkpt>
      <trkpt lat="47.24375" lon="4.06254">
        <ele>477.09</ele>
        <time>2016-07-29T11:57:08Z</time>
      </trkpt>
      <trkpt lat="47.24373" lon="4.06253">
        <ele>477.25</ele>
        <time>2016-07-29T11:58:22Z</time>
      </trkpt>
      <trkpt lat="47.24374" lon="4.0625">
        <ele>477.3</ele>
        <time>2016-07-29T11:59:12Z</time>
      </trkpt>
      <trkpt lat="47.24375" lon="4.06252">
        <ele>477.44</ele>
        <time>2016-07-29T12:00:07Z</time>
      </trkpt>
      <trkpt lat="47.24376" lon="4.06252">
        <ele>477.73</ele>
        <time>2016-07-29T12:01:05Z</time>
      </trkpt>
      <trkpt lat="47.24373" lon="4.06253">
        <ele>477.88</ele>
        <time>2016-07-29T12:02:18Z</time>
      </trkpt>
      <trkpt lat="47.24372" lon="4.06251">
        <ele>478.38</ele>
        <time>2016-07-29T12:03:05Z</time>
      </trkpt>
      <trkpt lat="47.24376" lon="4.06252">
        <ele>478.17</ele>
        <time>2016-07-29T12:04:09Z</time>
      </trkpt>
      <trkpt lat="47.24377" lon="4.06253">
        <ele>477.89</ele>
        <time>2016-07-29T12:04:49Z</time>
      </trkpt>
      <trkpt lat="47.24383" lon="4.06256">
        <ele>478.2</ele>
        <time>2016-07-29T12:05:36Z</time>
      </trkpt>
      <trkpt lat="47.24384" lon="4.06256">
        <ele>478.16</ele>
        <time>2016-07-29T12:06:34Z</time>
      </trkpt>
      <trkpt lat="47.24379" lon="4.06254">
        <ele>478.18</ele>
        <time>2016-07-29T12:07:23Z</time>
      </trkpt>
      <trkpt lat="47.24381" lon="4.06253">
        <ele>477.83</ele>
        <time>2016-07-29T12:08:17Z</time>
      </trkpt>
      <trkpt lat="47.24383" lon="4.06253">
        <ele>477.81</ele>
        <time>2016-07-29T12:09:07Z</time>
      </trkpt>
      <trkpt lat="47.24385" lon="4.06252">
        <ele>478.18</ele>
        <time>2016-07-29T12:09:51Z</time>
      </trkpt>
      <trkpt lat="47.24376" lon="4.06258">
        <ele>478.14</ele>
        <time>2016-07-29T12:10:41Z</time>
      </trkpt>
      <trkpt lat="47.24376" lon="4.06258">
        <ele>478.55</ele>
        <time>2016-07-29T12:11:34Z</time>
      </trkpt>
      <trkpt lat="47.2437" lon="4.06255">
        <ele>478.45</ele>
        <time>2016-07-29T12:12:24Z</time>
      </trkpt>
      <trkpt lat="47.2437" lon="4.0626">
        <ele>478.3</ele>
        <time>2016-07-29T12:12:55Z</time>
      </trkpt>
      <trkpt lat="47.2437" lon="4.06258">
        <ele>478.07</ele>
        <time>2016-07-29T12:13:30Z</time>
      </trkpt>
      <trkpt lat="47.24371" lon="4.06258">
        <ele>478.09</ele>
        <time>2016-07-29T12:13:31Z</time>
      </trkpt>
      <trkpt lat="47.24374" lon="4.06256">
        <ele>478.21</ele>
        <time>2016-07-29T12:13:34Z</time>
      </trkpt>
      <trkpt lat="47.2438" lon="4.06251">
        <ele>479.02</ele>
        <time>2016-07-29T12:14:20Z</time>
      </trkpt>
      <trkpt lat="47.24381" lon="4.06248">
        <ele>478.91</ele>
        <time>2016-07-29T12:14:48Z</time>
      </trkpt>
      <trkpt lat="47.24375" lon="4.06239">
        <ele>478.86</ele>
        <time>2016-07-29T12:15:07Z</time>
      </trkpt>
      <trkpt lat="47.24377" lon="4.06229">
        <ele>479.34</ele>
        <time>2016-07-29T12:15:24Z</time>
      </trkpt>
      <trkpt lat="47.2438" lon="4.06221">
        <ele>481.34</ele>
        <time>2016-07-29T12:15:44Z</time>
      </trkpt>
      <trkpt lat="47.24375" lon="4.06211">
        <ele>482.4</ele>
        <time>2016-07-29T12:16:06Z</time>
      </trkpt>
      <trkpt lat="47.24372" lon="4.06217">
        <ele>483.61</ele>
        <time>2016-07-29T12:16:22Z</time>
      </trkpt>
      <trkpt lat="47.24368" lon="4.06209">
        <ele>483.75</ele>
        <time>2016-07-29T12:16:46Z</time>
      </trkpt>
      <trkpt lat="47.24365" lon="4.06198">
        <ele>485.53</ele>
        <time>2016-07-29T12:17:15Z</time>
      </trkpt>
      <trkpt lat="47.24363" lon="4.06193">
        <ele>487.54</ele>
        <time>2016-07-29T12:17:36Z</time>
      </trkpt>
      <trkpt lat="47.2436" lon="4.06184">
        <ele>489.92</ele>
        <time>2016-07-29T12:18:00Z</time>
      </trkpt>
      <trkpt lat="47.24361" lon="4.06186">
        <ele>490.12</ele>
        <time>2016-07-29T12:18:25Z</time>
      </trkpt>
      <trkpt lat="47.24358" lon="4.06192">
        <ele>489.39</ele>
        <time>2016-07-29T12:18:58Z</time>
      </trkpt>
      <trkpt lat="47.24358" lon="4.06201">
        <ele>488.82</ele>
        <time>2016-07-29T12:19:17Z</time>
      </trkpt>
      <trkpt lat="47.24354" lon="4.06206">
        <ele>487.88</ele>
        <time>2016-07-29T12:19:42Z</time>
      </trkpt>
      <trkpt lat="47.24355" lon="4.06206">
        <ele>487.8</ele>
        <time>2016-07-29T12:20:23Z</time>
      </trkpt>
      <trkpt lat="47.24354" lon="4.06209">
        <ele>487.14</ele>
        <time>2016-07-29T12:20:49Z</time>
      </trkpt>
      <trkpt lat="47.24361" lon="4.06214">
        <ele>487.02</ele>
        <time>2016-07-29T12:21:26Z</time>
      </trkpt>
      <trkpt lat="47.24361" lon="4.06212">
        <ele>487.1</ele>
        <time>2016-07-29T12:21:55Z</time>
      </trkpt>
      <trkpt lat="47.24361" lon="4.06213">
        <ele>487.1</ele>
        <time>2016-07-29T12:21:57Z</time>
      </trkpt>
      <trkpt lat="47.24355" lon="4.06213">
        <ele>486.78</ele>
        <time>2016-07-29T12:22:20Z</time>
      </trkpt>
      <trkpt lat="47.24354" lon="4.06204">
        <ele>486.73</ele>
        <time>2016-07-29T12:22:58Z</time>
      </trkpt>
      <trkpt lat="47.24358" lon="4.062">
        <ele>486.73</ele>
        <time>2016-07-29T12:23:14Z</time>
      </trkpt>
      <trkpt lat="47.24363" lon="4.06196">
        <ele>487.47</ele>
        <time>2016-07-29T12:23:42Z</time>
      </trkpt>
      <trkpt lat="47.24369" lon="4.06196">
        <ele>486.08</ele>
        <time>2016-07-29T12:24:12Z</time>
      </trkpt>
      <trkpt lat="47.24374" lon="4.06212">
        <ele>483.58</ele>
        <time>2016-07-29T12:24:28Z</time>
      </trkpt>
      <trkpt lat="47.24376" lon="4.06214">
        <ele>483.16</ele>
        <time>2016-07-29T12:24:50Z</time>
      </trkpt>
      <trkpt lat="47.24378" lon="4.06228">
        <ele>481.09</ele>
        <time>2016-07-29T12:25:10Z</time>
      </trkpt>
      <trkpt lat="47.24376" lon="4.06246">
        <ele>480.19</ele>
        <time>2016-07-29T12:25:31Z</time>
      </trkpt>
      <trkpt lat="47.24379" lon="4.06262">
        <ele>481.14</ele>
        <time>2016-07-29T12:25:51Z</time>
      </trkpt>
      <trkpt lat="47.24379" lon="4.06275">
        <ele>482.07</ele>
        <time>2016-07-29T12:26:10Z</time>
      </trkpt>
      <trkpt lat="47.24375" lon="4.06284">
        <ele>482.54</ele>
        <time>2016-07-29T12:26:34Z</time>
      </trkpt>
      <trkpt lat="47.24368" lon="4.06286">
        <ele>482.95</ele>
        <time>2016-07-29T12:26:54Z</time>
      </trkpt>
      <trkpt lat="47.24365" lon="4.06296">
        <ele>483.82</ele>
        <time>2016-07-29T12:27:19Z</time>
      </trkpt>
      <trkpt lat="47.24359" lon="4.06304">
        <ele>485.72</ele>
        <time>2016-07-29T12:27:31Z</time>
      </trkpt>
      <trkpt lat="47.2435" lon="4.06309">
        <ele>487.8</ele>
        <time>2016-07-29T12:27:45Z</time>
      </trkpt>
      <trkpt lat="47.24334" lon="4.06316">
        <ele>489.58</ele>
        <time>2016-07-29T12:28:06Z</time>
      </trkpt>
      <trkpt lat="47.24313" lon="4.06334">
        <ele>492.07</ele>
        <time>2016-07-29T12:28:31Z</time>
      </trkpt>
      <trkpt lat="47.24293" lon="4.06349">
        <ele>493.34</ele>
        <time>2016-07-29T12:28:52Z</time>
      </trkpt>
      <trkpt lat="47.24273" lon="4.06366">
        <ele>496.18</ele>
        <time>2016-07-29T12:29:15Z</time>
      </trkpt>
      <trkpt lat="47.24262" lon="4.06381">
        <ele>498.27</ele>
        <time>2016-07-29T12:29:37Z</time>
      </trkpt>
      <trkpt lat="47.24252" lon="4.06394">
        <ele>500.4</ele>
        <time>2016-07-29T12:29:57Z</time>
      </trkpt>
      <trkpt lat="47.24246" lon="4.0641">
        <ele>501.63</ele>
        <time>2016-07-29T12:30:11Z</time>
      </trkpt>
      <trkpt lat="47.24235" lon="4.06436">
        <ele>504.51</ele>
        <time>2016-07-29T12:30:33Z</time>
      </trkpt>
      <trkpt lat="47.24225" lon="4.06458">
        <ele>507.68</ele>
        <time>2016-07-29T12:30:55Z</time>
      </trkpt>
      <trkpt lat="47.2421" lon="4.06486">
        <ele>510.21</ele>
        <time>2016-07-29T12:31:21Z</time>
      </trkpt>
      <trkpt lat="47.24198" lon="4.06512">
        <ele>511.81</ele>
        <time>2016-07-29T12:31:42Z</time>
      </trkpt>
      <trkpt lat="47.24184" lon="4.06537">
        <ele>513.12</ele>
        <time>2016-07-29T12:32:01Z</time>
      </trkpt>
      <trkpt lat="47.24172" lon="4.06554">
        <ele>513.3</ele>
        <time>2016-07-29T12:32:20Z</time>
      </trkpt>
      <trkpt lat="47.24158" lon="4.06572">
        <ele>513.46</ele>
        <time>2016-07-29T12:32:40Z</time>
      </trkpt>
      <trkpt lat="47.24152" lon="4.06597">
        <ele>514.64</ele>
        <time>2016-07-29T12:33:02Z</time>
      </trkpt>
      <trkpt lat="47.24134" lon="4.06639">
        <ele>516.51</ele>
        <time>2016-07-29T12:33:26Z</time>
      </trkpt>
      <trkpt lat="47.24117" lon="4.06668">
        <ele>517.06</ele>
        <time>2016-07-29T12:33:50Z</time>
      </trkpt>
      <trkpt lat="47.24109" lon="4.06692">
        <ele>517.07</ele>
        <time>2016-07-29T12:34:10Z</time>
      </trkpt>
      <trkpt lat="47.24095" lon="4.06719">
        <ele>518.23</ele>
        <time>2016-07-29T12:34:31Z</time>
      </trkpt>
      <trkpt lat="47.24092" lon="4.06742">
        <ele>517.77</ele>
        <time>2016-07-29T12:34:50Z</time>
      </trkpt>
      <trkpt lat="47.24084" lon="4.06761">
        <ele>517.13</ele>
        <time>2016-07-29T12:35:09Z</time>
      </trkpt>
      <trkpt lat="47.2408" lon="4.06771">
        <ele>517.12</ele>
        <time>2016-07-29T12:35:22Z</time>
      </trkpt>
      <trkpt lat="47.24073" lon="4.0678">
        <ele>517.24</ele>
        <time>2016-07-29T12:35:43Z</time>
      </trkpt>
      <trkpt lat="47.24075" lon="4.06796">
        <ele>517.13</ele>
        <time>2016-07-29T12:36:02Z</time>
      </trkpt>
      <trkpt lat="47.2407" lon="4.06831">
        <ele>517.55</ele>
        <time>2016-07-29T12:36:23Z</time>
      </trkpt>
      <trkpt lat="47.24065" lon="4.06864">
        <ele>517.62</ele>
        <time>2016-07-29T12:36:42Z</time>
      </trkpt>
      <trkpt lat="47.2406" lon="4.06892">
        <ele>517.77</ele>
        <time>2016-07-29T12:37:03Z</time>
      </trkpt>
      <trkpt lat="47.24057" lon="4.0691">
        <ele>517.65</ele>
        <time>2016-07-29T12:37:17Z</time>
      </trkpt>
      <trkpt lat="47.2405" lon="4.06928">
        <ele>517.73</ele>
        <time>2016-07-29T12:37:33Z</time>
      </trkpt>
      <trkpt lat="47.24045" lon="4.06947">
        <ele>517.82</ele>
        <time>2016-07-29T12:37:48Z</time>
      </trkpt>
      <trkpt lat="47.24038" lon="4.06975">
        <ele>517.92</ele>
        <time>2016-07-29T12:38:08Z</time>
      </trkpt>
      <trkpt lat="47.2403" lon="4.06993">
        <ele>518.41</ele>
        <time>2016-07-29T12:38:26Z</time>
      </trkpt>
      <trkpt lat="47.24039" lon="4.07016">
        <ele>518.4</ele>
        <time>2016-07-29T12:38:49Z</time>
      </trkpt>
      <trkpt lat="47.24045" lon="4.07047">
        <ele>518.17</ele>
        <time>2016-07-29T12:39:12Z</time>
      </trkpt>
      <trkpt lat="47.24048" lon="4.07071">
        <ele>518.6</ele>
        <time>2016-07-29T12:39:30Z</time>
      </trkpt>
      <trkpt lat="47.24049" lon="4.07082">
        <ele>519.29</ele>
        <time>2016-07-29T12:39:50Z</time>
      </trkpt>
      <trkpt lat="47.24047" lon="4.07079">
        <ele>520.15</ele>
        <time>2016-07-29T12:40:21Z</time>
      </trkpt>
      <trkpt lat="47.24036" lon="4.07092">
        <ele>520.41</ele>
        <time>2016-07-29T12:40:37Z</time>
      </trkpt>
      <trkpt lat="47.24034" lon="4.07094">
        <ele>520.39</ele>
        <time>2016-07-29T12:40:39Z</time>
      </trkpt>
      <trkpt lat="47.2402" lon="4.07108">
        <ele>520.73</ele>
        <time>2016-07-29T12:40:53Z</time>
      </trkpt>
      <trkpt lat="47.24007" lon="4.07121">
        <ele>521.85</ele>
        <time>2016-07-29T12:41:06Z</time>
      </trkpt>
      <trkpt lat="47.23997" lon="4.07131">
        <ele>522.83</ele>
        <time>2016-07-29T12:41:19Z</time>
      </trkpt>
      <trkpt lat="47.23982" lon="4.07133">
        <ele>523.86</ele>
        <time>2016-07-29T12:41:32Z</time>
      </trkpt>
      <trkpt lat="47.23964" lon="4.07131">
        <ele>524.98</ele>
        <time>2016-07-29T12:41:47Z</time>
      </trkpt>
      <trkpt lat="47.23955" lon="4.07131">
        <ele>525.86</ele>
        <time>2016-07-29T12:41:59Z</time>
      </trkpt>
      <trkpt lat="47.23947" lon="4.0713">
        <ele>526.68</ele>
        <time>2016-07-29T12:42:17Z</time>
      </trkpt>
      <trkpt lat="47.23939" lon="4.07128">
        <ele>527.3</ele>
        <time>2016-07-29T12:42:37Z</time>
      </trkpt>
      <trkpt lat="47.23922" lon="4.07132">
        <ele>528.57</ele>
        <time>2016-07-29T12:42:53Z</time>
      </trkpt>
      <trkpt lat="47.23908" lon="4.07132">
        <ele>529.43</ele>
        <time>2016-07-29T12:43:07Z</time>
      </trkpt>
      <trkpt lat="47.23892" lon="4.07132">
        <ele>530.16</ele>
        <time>2016-07-29T12:43:20Z</time>
      </trkpt>
      <trkpt lat="47.23875" lon="4.07131">
        <ele>531.56</ele>
        <time>2016-07-29T12:43:36Z</time>
      </trkpt>
      <trkpt lat="47.23856" lon="4.07129">
        <ele>532.75</ele>
        <time>2016-07-29T12:43:51Z</time>
      </trkpt>
      <trkpt lat="47.23838" lon="4.0713">
        <ele>533.53</ele>
        <time>2016-07-29T12:44:08Z</time>
      </trkpt>
      <trkpt lat="47.23825" lon="4.07135">
        <ele>534.37</ele>
        <time>2016-07-29T12:44:20Z</time>
      </trkpt>
      <trkpt lat="47.23811" lon="4.07143">
        <ele>534.07</ele>
        <time>2016-07-29T12:44:35Z</time>
      </trkpt>
      <trkpt lat="47.23794" lon="4.07152">
        <ele>533.55</ele>
        <time>2016-07-29T12:44:50Z</time>
      </trkpt>
      <trkpt lat="47.23782" lon="4.07164">
        <ele>533.34</ele>
        <time>2016-07-29T12:45:01Z</time>
      </trkpt>
      <trkpt lat="47.2377" lon="4.07171">
        <ele>533.14</ele>
        <time>2016-07-29T12:45:13Z</time>
      </trkpt>
      <trkpt lat="47.23756" lon="4.07183">
        <ele>532.49</ele>
        <time>2016-07-29T12:45:27Z</time>
      </trkpt>
      <trkpt lat="47.23742" lon="4.07192">
        <ele>532.1</ele>
        <time>2016-07-29T12:45:40Z</time>
      </trkpt>
      <trkpt lat="47.23731" lon="4.07204">
        <ele>532.11</ele>
        <time>2016-07-29T12:45:53Z</time>
      </trkpt>
      <trkpt lat="47.2373" lon="4.07218">
        <ele>531.92</ele>
        <time>2016-07-29T12:46:03Z</time>
      </trkpt>
      <trkpt lat="47.23728" lon="4.07243">
        <ele>532.15</ele>
        <time>2016-07-29T12:46:18Z</time>
      </trkpt>
      <trkpt lat="47.23732" lon="4.07266">
        <ele>533.03</ele>
        <time>2016-07-29T12:46:34Z</time>
      </trkpt>
      <trkpt lat="47.23734" lon="4.07281">
        <ele>533.4</ele>
        <time>2016-07-29T12:46:54Z</time>
      </trkpt>
      <trkpt lat="47.2374" lon="4.07302">
        <ele>534.19</ele>
        <time>2016-07-29T12:47:09Z</time>
      </trkpt>
      <trkpt lat="47.23749" lon="4.07327">
        <ele>535.08</ele>
        <time>2016-07-29T12:47:27Z</time>
      </trkpt>
      <trkpt lat="47.23755" lon="4.07348">
        <ele>536.13</ele>
        <time>2016-07-29T12:47:42Z</time>
      </trkpt>
      <trkpt lat="47.23764" lon="4.0737">
        <ele>537.53</ele>
        <time>2016-07-29T12:47:58Z</time>
      </trkpt>
      <trkpt lat="47.23771" lon="4.07385">
        <ele>538.08</ele>
        <time>2016-07-29T12:48:10Z</time>
      </trkpt>
      <trkpt lat="47.23777" lon="4.07407">
        <ele>539.57</ele>
        <time>2016-07-29T12:48:24Z</time>
      </trkpt>
      <trkpt lat="47.23778" lon="4.07429">
        <ele>540.41</ele>
        <time>2016-07-29T12:48:39Z</time>
      </trkpt>
      <trkpt lat="47.23775" lon="4.07447">
        <ele>540.71</ele>
        <time>2016-07-29T12:48:52Z</time>
      </trkpt>
      <trkpt lat="47.23774" lon="4.07466">
        <ele>540.47</ele>
        <time>2016-07-29T12:49:06Z</time>
      </trkpt>
      <trkpt lat="47.23787" lon="4.07479">
        <ele>540.23</ele>
        <time>2016-07-29T12:49:24Z</time>
      </trkpt>
      <trkpt lat="47.23788" lon="4.07479">
        <ele>540.26</ele>
        <time>2016-07-29T12:49:25Z</time>
      </trkpt>
      <trkpt lat="47.23813" lon="4.075">
        <ele>540.37</ele>
        <time>2016-07-29T12:49:52Z</time>
      </trkpt>
      <trkpt lat="47.23825" lon="4.0751">
        <ele>540.32</ele>
        <time>2016-07-29T12:50:07Z</time>
      </trkpt>
      <trkpt lat="47.23842" lon="4.07528">
        <ele>539.89</ele>
        <time>2016-07-29T12:50:25Z</time>
      </trkpt>
      <trkpt lat="47.23855" lon="4.07542">
        <ele>539.49</ele>
        <time>2016-07-29T12:50:39Z</time>
      </trkpt>
      <trkpt lat="47.2387" lon="4.07557">
        <ele>538.7</ele>
        <time>2016-07-29T12:50:54Z</time>
      </trkpt>
      <trkpt lat="47.23882" lon="4.0757">
        <ele>538.37</ele>
        <time>2016-07-29T12:51:07Z</time>
      </trkpt>
      <trkpt lat="47.23891" lon="4.0758">
        <ele>538.17</ele>
        <time>2016-07-29T12:51:18Z</time>
      </trkpt>
      <trkpt lat="47.23895" lon="4.07582">
        <ele>538.09</ele>
        <time>2016-07-29T12:51:23Z</time>
      </trkpt>
      <trkpt lat="47.239" lon="4.07586">
        <ele>538.05</ele>
        <time>2016-07-29T12:51:35Z</time>
      </trkpt>
      <trkpt lat="47.23906" lon="4.07593">
        <ele>538.06</ele>
        <time>2016-07-29T12:51:54Z</time>
      </trkpt>
      <trkpt lat="47.23916" lon="4.07612">
        <ele>538.12</ele>
        <time>2016-07-29T12:52:08Z</time>
      </trkpt>
      <trkpt lat="47.23923" lon="4.07626">
        <ele>538.36</ele>
        <time>2016-07-29T12:52:17Z</time>
      </trkpt>
      <trkpt lat="47.23925" lon="4.07633">
        <ele>538.51</ele>
        <time>2016-07-29T12:52:22Z</time>
      </trkpt>
      <trkpt lat="47.23932" lon="4.07648">
        <ele>538.93</ele>
        <time>2016-07-29T12:52:36Z</time>
      </trkpt>
      <trkpt lat="47.23934" lon="4.07657">
        <ele>539.09</ele>
        <time>2016-07-29T12:53:11Z</time>
      </trkpt>
      <trkpt lat="47.2394" lon="4.07672">
        <ele>539.56</ele>
        <time>2016-07-29T12:53:24Z</time>
      </trkpt>
      <trkpt lat="47.23945" lon="4.07692">
        <ele>540.4</ele>
        <time>2016-07-29T12:53:38Z</time>
      </trkpt>
      <trkpt lat="47.23943" lon="4.07715">
        <ele>541.59</ele>
        <time>2016-07-29T12:53:54Z</time>
      </trkpt>
      <trkpt lat="47.23932" lon="4.0775">
        <ele>543.48</ele>
        <time>2016-07-29T12:54:16Z</time>
      </trkpt>
      <trkpt lat="47.23932" lon="4.07769">
        <ele>544.74</ele>
        <time>2016-07-29T12:54:32Z</time>
      </trkpt>
      <trkpt lat="47.23947" lon="4.078">
        <ele>546.97</ele>
        <time>2016-07-29T12:54:57Z</time>
      </trkpt>
      <trkpt lat="47.23949" lon="4.07804">
        <ele>547.11</ele>
        <time>2016-07-29T12:55:00Z</time>
      </trkpt>
      <trkpt lat="47.23972" lon="4.07836">
        <ele>548.95</ele>
        <time>2016-07-29T12:55:26Z</time>
      </trkpt>
      <trkpt lat="47.23988" lon="4.07854">
        <ele>550.25</ele>
        <time>2016-07-29T12:55:44Z</time>
      </trkpt>
      <trkpt lat="47.24002" lon="4.07871">
        <ele>551.36</ele>
        <time>2016-07-29T12:56:01Z</time>
      </trkpt>
      <trkpt lat="47.24011" lon="4.07883">
        <ele>552.36</ele>
        <time>2016-07-29T12:56:12Z</time>
      </trkpt>
      <trkpt lat="47.24017" lon="4.07899">
        <ele>553.08</ele>
        <time>2016-07-29T12:56:25Z</time>
      </trkpt>
      <trkpt lat="47.24017" lon="4.07903">
        <ele>553.58</ele>
        <time>2016-07-29T12:56:30Z</time>
      </trkpt>
      <trkpt lat="47.24017" lon="4.07936">
        <ele>554.79</ele>
        <time>2016-07-29T12:56:52Z</time>
      </trkpt>
      <trkpt lat="47.24017" lon="4.0797">
        <ele>556.56</ele>
        <time>2016-07-29T12:57:14Z</time>
      </trkpt>
      <trkpt lat="47.24016" lon="4.08011">
        <ele>558.61</ele>
        <time>2016-07-29T12:57:38Z</time>
      </trkpt>
      <trkpt lat="47.24012" lon="4.08038">
        <ele>559.66</ele>
        <time>2016-07-29T12:57:54Z</time>
      </trkpt>
      <trkpt lat="47.24004" lon="4.08057">
        <ele>560.9</ele>
        <time>2016-07-29T12:58:08Z</time>
      </trkpt>
      <trkpt lat="47.23998" lon="4.08075">
        <ele>561.43</ele>
        <time>2016-07-29T12:58:20Z</time>
      </trkpt>
      <trkpt lat="47.23996" lon="4.08081">
        <ele>561.81</ele>
        <time>2016-07-29T12:58:24Z</time>
      </trkpt>
      <trkpt lat="47.23987" lon="4.08104">
        <ele>563.25</ele>
        <time>2016-07-29T12:58:41Z</time>
      </trkpt>
      <trkpt lat="47.2398" lon="4.08123">
        <ele>564</ele>
        <time>2016-07-29T12:58:56Z</time>
      </trkpt>
      <trkpt lat="47.23972" lon="4.08141">
        <ele>565.26</ele>
        <time>2016-07-29T12:59:09Z</time>
      </trkpt>
      <trkpt lat="47.23966" lon="4.08157">
        <ele>566.28</ele>
        <time>2016-07-29T12:59:21Z</time>
      </trkpt>
      <trkpt lat="47.23958" lon="4.08178">
        <ele>567.45</ele>
        <time>2016-07-29T12:59:36Z</time>
      </trkpt>
      <trkpt lat="47.2395" lon="4.082">
        <ele>568.13</ele>
        <time>2016-07-29T12:59:51Z</time>
      </trkpt>
      <trkpt lat="47.23942" lon="4.08227">
        <ele>569.02</ele>
        <time>2016-07-29T13:00:08Z</time>
      </trkpt>
      <trkpt lat="47.23935" lon="4.08242">
        <ele>569.53</ele>
        <time>2016-07-29T13:00:20Z</time>
      </trkpt>
      <trkpt lat="47.23931" lon="4.08256">
        <ele>570.07</ele>
        <time>2016-07-29T13:00:29Z</time>
      </trkpt>
      <trkpt lat="47.23923" lon="4.08278">
        <ele>570.98</ele>
        <time>2016-07-29T13:00:44Z</time>
      </trkpt>
      <trkpt lat="47.23918" lon="4.08296">
        <ele>571.6</ele>
        <time>2016-07-29T13:00:56Z</time>
      </trkpt>
      <trkpt lat="47.23915" lon="4.08314">
        <ele>572.19</ele>
        <time>2016-07-29T13:01:08Z</time>
      </trkpt>
      <trkpt lat="47.23912" lon="4.08337">
        <ele>573.35</ele>
        <time>2016-07-29T13:01:22Z</time>
      </trkpt>
      <trkpt lat="47.23912" lon="4.0836">
        <ele>574.54</ele>
        <time>2016-07-29T13:01:36Z</time>
      </trkpt>
      <trkpt lat="47.23913" lon="4.08381">
        <ele>575.66</ele>
        <time>2016-07-29T13:01:49Z</time>
      </trkpt>
      <trkpt lat="47.23914" lon="4.08403">
        <ele>576.89</ele>
        <time>2016-07-29T13:02:03Z</time>
      </trkpt>
      <trkpt lat="47.23922" lon="4.08419">
        <ele>578.38</ele>
        <time>2016-07-29T13:02:18Z</time>
      </trkpt>
      <trkpt lat="47.23934" lon="4.08434">
        <ele>580.6</ele>
        <time>2016-07-29T13:02:36Z</time>
      </trkpt>
      <trkpt lat="47.2395" lon="4.08452">
        <ele>582.74</ele>
        <time>2016-07-29T13:02:57Z</time>
      </trkpt>
      <trkpt lat="47.23966" lon="4.0847">
        <ele>585.52</ele>
        <time>2016-07-29T13:03:19Z</time>
      </trkpt>
      <trkpt lat="47.23974" lon="4.08481">
        <ele>587.39</ele>
        <time>2016-07-29T13:03:33Z</time>
      </trkpt>
      <trkpt lat="47.23985" lon="4.08497">
        <ele>589.58</ele>
        <time>2016-07-29T13:03:52Z</time>
      </trkpt>
      <trkpt lat="47.23996" lon="4.08504">
        <ele>592.08</ele>
        <time>2016-07-29T13:04:09Z</time>
      </trkpt>
      <trkpt lat="47.2401" lon="4.08521">
        <ele>595.18</ele>
        <time>2016-07-29T13:04:30Z</time>
      </trkpt>
      <trkpt lat="47.24013" lon="4.08531">
        <ele>597.19</ele>
        <time>2016-07-29T13:04:43Z</time>
      </trkpt>
      <trkpt lat="47.24024" lon="4.08557">
        <ele>600.23</ele>
        <time>2016-07-29T13:05:08Z</time>
      </trkpt>
      <trkpt lat="47.24032" lon="4.0858">
        <ele>602.69</ele>
        <time>2016-07-29T13:05:28Z</time>
      </trkpt>
      <trkpt lat="47.24033" lon="4.08586">
        <ele>603.77</ele>
        <time>2016-07-29T13:05:34Z</time>
      </trkpt>
      <trkpt lat="47.24034" lon="4.08626">
        <ele>606.31</ele>
        <time>2016-07-29T13:05:58Z</time>
      </trkpt>
      <trkpt lat="47.24045" lon="4.0865">
        <ele>609.04</ele>
        <time>2016-07-29T13:06:20Z</time>
      </trkpt>
      <trkpt lat="47.24053" lon="4.08666">
        <ele>612.13</ele>
        <time>2016-07-29T13:06:37Z</time>
      </trkpt>
      <trkpt lat="47.24056" lon="4.08679">
        <ele>613.95</ele>
        <time>2016-07-29T13:06:49Z</time>
      </trkpt>
      <trkpt lat="47.24063" lon="4.0869">
        <ele>616.29</ele>
        <time>2016-07-29T13:07:04Z</time>
      </trkpt>
      <trkpt lat="47.24066" lon="4.08694">
        <ele>617.09</ele>
        <time>2016-07-29T13:07:08Z</time>
      </trkpt>
      <trkpt lat="47.24068" lon="4.08697">
        <ele>617.68</ele>
        <time>2016-07-29T13:07:12Z</time>
      </trkpt>
      <trkpt lat="47.24079" lon="4.0871">
        <ele>620.76</ele>
        <time>2016-07-29T13:07:33Z</time>
      </trkpt>
      <trkpt lat="47.24089" lon="4.08714">
        <ele>623.85</ele>
        <time>2016-07-29T13:07:50Z</time>
      </trkpt>
      <trkpt lat="47.24105" lon="4.08722">
        <ele>626.88</ele>
        <time>2016-07-29T13:08:10Z</time>
      </trkpt>
      <trkpt lat="47.24114" lon="4.08739">
        <ele>629.73</ele>
        <time>2016-07-29T13:08:32Z</time>
      </trkpt>
      <trkpt lat="47.24121" lon="4.08758">
        <ele>630.98</ele>
        <time>2016-07-29T13:08:47Z</time>
      </trkpt>
      <trkpt lat="47.24126" lon="4.08768">
        <ele>631.96</ele>
        <time>2016-07-29T13:08:58Z</time>
      </trkpt>
      <trkpt lat="47.24143" lon="4.08789">
        <ele>633.98</ele>
        <time>2016-07-29T13:09:25Z</time>
      </trkpt>
      <trkpt lat="47.24154" lon="4.08808">
        <ele>634.97</ele>
        <time>2016-07-29T13:09:43Z</time>
      </trkpt>
      <trkpt lat="47.24159" lon="4.08809">
        <ele>634.48</ele>
        <time>2016-07-29T13:10:40Z</time>
      </trkpt>
      <trkpt lat="47.24156" lon="4.08814">
        <ele>634.53</ele>
        <time>2016-07-29T13:11:32Z</time>
      </trkpt>
      <trkpt lat="47.24156" lon="4.08814">
        <ele>634.95</ele>
        <time>2016-07-29T13:12:08Z</time>
      </trkpt>
      <trkpt lat="47.24156" lon="4.08813">
        <ele>635.13</ele>
        <time>2016-07-29T13:12:39Z</time>
      </trkpt>
      <trkpt lat="47.24166" lon="4.08816">
        <ele>635.15</ele>
        <time>2016-07-29T13:13:01Z</time>
      </trkpt>
      <trkpt lat="47.24169" lon="4.08817">
        <ele>636.06</ele>
        <time>2016-07-29T13:13:22Z</time>
      </trkpt>
      <trkpt lat="47.24172" lon="4.08818">
        <ele>635.92</ele>
        <time>2016-07-29T13:13:38Z</time>
      </trkpt>
      <trkpt lat="47.24181" lon="4.08826">
        <ele>636.92</ele>
        <time>2016-07-29T13:13:56Z</time>
      </trkpt>
      <trkpt lat="47.24191" lon="4.08835">
        <ele>637.33</ele>
        <time>2016-07-29T13:14:18Z</time>
      </trkpt>
      <trkpt lat="47.24212" lon="4.08844">
        <ele>638.98</ele>
        <time>2016-07-29T13:14:42Z</time>
      </trkpt>
      <trkpt lat="47.24229" lon="4.0885">
        <ele>640.31</ele>
        <time>2016-07-29T13:15:02Z</time>
      </trkpt>
      <trkpt lat="47.24239" lon="4.08853">
        <ele>641.23</ele>
        <time>2016-07-29T13:15:17Z</time>
      </trkpt>
      <trkpt lat="47.24256" lon="4.08866">
        <ele>642.92</ele>
        <time>2016-07-29T13:15:40Z</time>
      </trkpt>
      <trkpt lat="47.24275" lon="4.0888">
        <ele>644.29</ele>
        <time>2016-07-29T13:16:02Z</time>
      </trkpt>
      <trkpt lat="47.2429" lon="4.08889">
        <ele>644.6</ele>
        <time>2016-07-29T13:16:24Z</time>
      </trkpt>
      <trkpt lat="47.24308" lon="4.089">
        <ele>645.12</ele>
        <time>2016-07-29T13:16:43Z</time>
      </trkpt>
      <trkpt lat="47.24334" lon="4.08917">
        <ele>645.71</ele>
        <time>2016-07-29T13:17:08Z</time>
      </trkpt>
      <trkpt lat="47.24358" lon="4.08931">
        <ele>647.03</ele>
        <time>2016-07-29T13:17:33Z</time>
      </trkpt>
      <trkpt lat="47.24381" lon="4.08935">
        <ele>649.18</ele>
        <time>2016-07-29T13:17:57Z</time>
      </trkpt>
      <trkpt lat="47.24402" lon="4.08938">
        <ele>652.24</ele>
        <time>2016-07-29T13:18:20Z</time>
      </trkpt>
      <trkpt lat="47.24419" lon="4.08941">
        <ele>654.13</ele>
        <time>2016-07-29T13:18:40Z</time>
      </trkpt>
      <trkpt lat="47.24434" lon="4.08943">
        <ele>654.93</ele>
        <time>2016-07-29T13:18:53Z</time>
      </trkpt>
      <trkpt lat="47.24445" lon="4.08946">
        <ele>655.4</ele>
        <time>2016-07-29T13:19:02Z</time>
      </trkpt>
      <trkpt lat="47.24466" lon="4.08967">
        <ele>656.66</ele>
        <time>2016-07-29T13:19:27Z</time>
      </trkpt>
      <trkpt lat="47.24496" lon="4.08985">
        <ele>657.73</ele>
        <time>2016-07-29T13:19:52Z</time>
      </trkpt>
      <trkpt lat="47.24517" lon="4.08994">
        <ele>658.73</ele>
        <time>2016-07-29T13:20:12Z</time>
      </trkpt>
      <trkpt lat="47.24533" lon="4.09005">
        <ele>658.58</ele>
        <time>2016-07-29T13:20:27Z</time>
      </trkpt>
      <trkpt lat="47.24545" lon="4.09017">
        <ele>659.12</ele>
        <time>2016-07-29T13:20:46Z</time>
      </trkpt>
      <trkpt lat="47.24554" lon="4.09032">
        <ele>660.14</ele>
        <time>2016-07-29T13:21:00Z</time>
      </trkpt>
      <trkpt lat="47.24566" lon="4.0905">
        <ele>661.2</ele>
        <time>2016-07-29T13:21:19Z</time>
      </trkpt>
      <trkpt lat="47.24579" lon="4.0906">
        <ele>661.3</ele>
        <time>2016-07-29T13:21:33Z</time>
      </trkpt>
      <trkpt lat="47.24593" lon="4.09072">
        <ele>661.17</ele>
        <time>2016-07-29T13:21:49Z</time>
      </trkpt>
      <trkpt lat="47.24603" lon="4.09084">
        <ele>661.06</ele>
        <time>2016-07-29T13:22:03Z</time>
      </trkpt>
      <trkpt lat="47.24614" lon="4.09096">
        <ele>661.7</ele>
        <time>2016-07-29T13:22:19Z</time>
      </trkpt>
      <trkpt lat="47.24637" lon="4.09117">
        <ele>662.77</ele>
        <time>2016-07-29T13:22:42Z</time>
      </trkpt>
      <trkpt lat="47.24646" lon="4.09128">
        <ele>663.36</ele>
        <time>2016-07-29T13:22:54Z</time>
      </trkpt>
      <trkpt lat="47.24655" lon="4.09142">
        <ele>664.05</ele>
        <time>2016-07-29T13:23:06Z</time>
      </trkpt>
      <trkpt lat="47.2467" lon="4.09163">
        <ele>664.75</ele>
        <time>2016-07-29T13:23:28Z</time>
      </trkpt>
      <trkpt lat="47.24681" lon="4.0917">
        <ele>665.46</ele>
        <time>2016-07-29T13:23:40Z</time>
      </trkpt>
      <trkpt lat="47.24697" lon="4.09177">
        <ele>666.11</ele>
        <time>2016-07-29T13:23:56Z</time>
      </trkpt>
      <trkpt lat="47.24719" lon="4.09187">
        <ele>667.35</ele>
        <time>2016-07-29T13:24:16Z</time>
      </trkpt>
      <trkpt lat="47.2474" lon="4.09198">
        <ele>668.14</ele>
        <time>2016-07-29T13:24:39Z</time>
      </trkpt>
      <trkpt lat="47.24744" lon="4.09199">
        <ele>668.22</ele>
        <time>2016-07-29T13:24:42Z</time>
      </trkpt>
      <trkpt lat="47.24764" lon="4.0921">
        <ele>668.27</ele>
        <time>2016-07-29T13:24:57Z</time>
      </trkpt>
      <trkpt lat="47.24767" lon="4.09211">
        <ele>668.31</ele>
        <time>2016-07-29T13:24:59Z</time>
      </trkpt>
      <trkpt lat="47.24778" lon="4.09215">
        <ele>668.36</ele>
        <time>2016-07-29T13:25:25Z</time>
      </trkpt>
      <trkpt lat="47.2478" lon="4.09224">
        <ele>668.32</ele>
        <time>2016-07-29T13:25:47Z</time>
      </trkpt>
      <trkpt lat="47.24783" lon="4.09224">
        <ele>668.4</ele>
        <time>2016-07-29T13:26:03Z</time>
      </trkpt>
      <trkpt lat="47.2478" lon="4.09232">
        <ele>668.32</ele>
        <time>2016-07-29T13:26:33Z</time>
      </trkpt>
      <trkpt lat="47.24784" lon="4.09232">
        <ele>668.01</ele>
        <time>2016-07-29T13:27:18Z</time>
      </trkpt>
      <trkpt lat="47.24787" lon="4.09232">
        <ele>667.91</ele>
        <time>2016-07-29T13:27:56Z</time>
      </trkpt>
      <trkpt lat="47.2479" lon="4.0923">
        <ele>668.34</ele>
        <time>2016-07-29T13:28:37Z</time>
      </trkpt>
      <trkpt lat="47.24797" lon="4.09226">
        <ele>668.04</ele>
        <time>2016-07-29T13:28:57Z</time>
      </trkpt>
      <trkpt lat="47.24805" lon="4.0922">
        <ele>668.18</ele>
        <time>2016-07-29T13:29:09Z</time>
      </trkpt>
      <trkpt lat="47.24807" lon="4.09219">
        <ele>668.21</ele>
        <time>2016-07-29T13:29:11Z</time>
      </trkpt>
      <trkpt lat="47.24817" lon="4.0921">
        <ele>668.52</ele>
        <time>2016-07-29T13:29:21Z</time>
      </trkpt>
      <trkpt lat="47.24826" lon="4.09204">
        <ele>668.7</ele>
        <time>2016-07-29T13:29:31Z</time>
      </trkpt>
      <trkpt lat="47.24838" lon="4.09204">
        <ele>668.67</ele>
        <time>2016-07-29T13:29:44Z</time>
      </trkpt>
      <trkpt lat="47.24859" lon="4.09207">
        <ele>669.22</ele>
        <time>2016-07-29T13:30:03Z</time>
      </trkpt>
      <trkpt lat="47.24869" lon="4.09208">
        <ele>669.7</ele>
        <time>2016-07-29T13:30:13Z</time>
      </trkpt>
      <trkpt lat="47.2489" lon="4.09212">
        <ele>670.34</ele>
        <time>2016-07-29T13:30:34Z</time>
      </trkpt>
      <trkpt lat="47.24896" lon="4.09218">
        <ele>670.74</ele>
        <time>2016-07-29T13:30:44Z</time>
      </trkpt>
      <trkpt lat="47.24907" lon="4.09223">
        <ele>671.38</ele>
        <time>2016-07-29T13:30:58Z</time>
      </trkpt>
      <trkpt lat="47.24928" lon="4.0923">
        <ele>671.8</ele>
        <time>2016-07-29T13:31:18Z</time>
      </trkpt>
      <trkpt lat="47.24939" lon="4.0923">
        <ele>671.81</ele>
        <time>2016-07-29T13:31:33Z</time>
      </trkpt>
      <trkpt lat="47.24951" lon="4.09226">
        <ele>671.58</ele>
        <time>2016-07-29T13:31:47Z</time>
      </trkpt>
      <trkpt lat="47.24961" lon="4.09221">
        <ele>671.09</ele>
        <time>2016-07-29T13:31:55Z</time>
      </trkpt>
      <trkpt lat="47.24982" lon="4.09218">
        <ele>669.64</ele>
        <time>2016-07-29T13:32:19Z</time>
      </trkpt>
      <trkpt lat="47.24999" lon="4.09209">
        <ele>668.55</ele>
        <time>2016-07-29T13:32:37Z</time>
      </trkpt>
      <trkpt lat="47.25005" lon="4.09206">
        <ele>668.31</ele>
        <time>2016-07-29T13:32:44Z</time>
      </trkpt>
      <trkpt lat="47.25017" lon="4.09199">
        <ele>667.34</ele>
        <time>2016-07-29T13:32:58Z</time>
      </trkpt>
      <trkpt lat="47.25029" lon="4.09193">
        <ele>666.16</ele>
        <time>2016-07-29T13:33:12Z</time>
      </trkpt>
      <trkpt lat="47.25044" lon="4.0919">
        <ele>664.87</ele>
        <time>2016-07-29T13:33:31Z</time>
      </trkpt>
      <trkpt lat="47.25057" lon="4.09188">
        <ele>664</ele>
        <time>2016-07-29T13:33:44Z</time>
      </trkpt>
      <trkpt lat="47.25072" lon="4.09191">
        <ele>663.12</ele>
        <time>2016-07-29T13:33:55Z</time>
      </trkpt>
      <trkpt lat="47.25084" lon="4.09198">
        <ele>662.29</ele>
        <time>2016-07-29T13:34:05Z</time>
      </trkpt>
      <trkpt lat="47.25091" lon="4.09202">
        <ele>661.77</ele>
        <time>2016-07-29T13:34:15Z</time>
      </trkpt>
      <trkpt lat="47.25107" lon="4.09205">
        <ele>660.15</ele>
        <time>2016-07-29T13:34:31Z</time>
      </trkpt>
      <trkpt lat="47.25114" lon="4.09205">
        <ele>659.55</ele>
        <time>2016-07-29T13:34:40Z</time>
      </trkpt>
      <trkpt lat="47.25126" lon="4.09209">
        <ele>659.09</ele>
        <time>2016-07-29T13:34:51Z</time>
      </trkpt>
      <trkpt lat="47.25144" lon="4.09212">
        <ele>658.04</ele>
        <time>2016-07-29T13:35:08Z</time>
      </trkpt>
      <trkpt lat="47.25157" lon="4.09212">
        <ele>657.64</ele>
        <time>2016-07-29T13:35:23Z</time>
      </trkpt>
      <trkpt lat="47.25169" lon="4.09216">
        <ele>657.08</ele>
        <time>2016-07-29T13:35:36Z</time>
      </trkpt>
      <trkpt lat="47.25183" lon="4.09223">
        <ele>656.57</ele>
        <time>2016-07-29T13:35:49Z</time>
      </trkpt>
      <trkpt lat="47.25195" lon="4.09229">
        <ele>656.15</ele>
        <time>2016-07-29T13:36:00Z</time>
      </trkpt>
      <trkpt lat="47.25212" lon="4.09231">
        <ele>655.52</ele>
        <time>2016-07-29T13:36:13Z</time>
      </trkpt>
      <trkpt lat="47.25222" lon="4.09238">
        <ele>655.16</ele>
        <time>2016-07-29T13:36:25Z</time>
      </trkpt>
      <trkpt lat="47.25232" lon="4.09241">
        <ele>654.53</ele>
        <time>2016-07-29T13:36:34Z</time>
      </trkpt>
      <trkpt lat="47.25241" lon="4.09243">
        <ele>653.22</ele>
        <time>2016-07-29T13:36:46Z</time>
      </trkpt>
      <trkpt lat="47.25252" lon="4.09244">
        <ele>652.5</ele>
        <time>2016-07-29T13:36:59Z</time>
      </trkpt>
      <trkpt lat="47.25264" lon="4.09246">
        <ele>652.09</ele>
        <time>2016-07-29T13:37:12Z</time>
      </trkpt>
      <trkpt lat="47.25287" lon="4.09255">
        <ele>650.21</ele>
        <time>2016-07-29T13:37:32Z</time>
      </trkpt>
      <trkpt lat="47.25298" lon="4.09263">
        <ele>649.37</ele>
        <time>2016-07-29T13:37:42Z</time>
      </trkpt>
      <trkpt lat="47.25316" lon="4.09271">
        <ele>648.03</ele>
        <time>2016-07-29T13:37:58Z</time>
      </trkpt>
      <trkpt lat="47.25327" lon="4.09279">
        <ele>646.79</ele>
        <time>2016-07-29T13:38:14Z</time>
      </trkpt>
      <trkpt lat="47.25333" lon="4.09288">
        <ele>645.87</ele>
        <time>2016-07-29T13:38:31Z</time>
      </trkpt>
      <trkpt lat="47.25339" lon="4.09298">
        <ele>644.52</ele>
        <time>2016-07-29T13:38:50Z</time>
      </trkpt>
      <trkpt lat="47.25354" lon="4.09298">
        <ele>643.08</ele>
        <time>2016-07-29T13:39:19Z</time>
      </trkpt>
      <trkpt lat="47.25367" lon="4.09303">
        <ele>641.17</ele>
        <time>2016-07-29T13:39:34Z</time>
      </trkpt>
      <trkpt lat="47.25385" lon="4.09309">
        <ele>638.58</ele>
        <time>2016-07-29T13:39:55Z</time>
      </trkpt>
      <trkpt lat="47.25392" lon="4.09306">
        <ele>637.46</ele>
        <time>2016-07-29T13:40:03Z</time>
      </trkpt>
      <trkpt lat="47.25408" lon="4.09295">
        <ele>634.91</ele>
        <time>2016-07-29T13:40:25Z</time>
      </trkpt>
      <trkpt lat="47.25417" lon="4.09297">
        <ele>632.86</ele>
        <time>2016-07-29T13:40:39Z</time>
      </trkpt>
      <trkpt lat="47.2543" lon="4.09309">
        <ele>630.24</ele>
        <time>2016-07-29T13:40:56Z</time>
      </trkpt>
      <trkpt lat="47.25434" lon="4.09321">
        <ele>628.81</ele>
        <time>2016-07-29T13:41:09Z</time>
      </trkpt>
      <trkpt lat="47.25442" lon="4.09336">
        <ele>626.57</ele>
        <time>2016-07-29T13:41:26Z</time>
      </trkpt>
      <trkpt lat="47.25456" lon="4.09354">
        <ele>623.55</ele>
        <time>2016-07-29T13:41:49Z</time>
      </trkpt>
      <trkpt lat="47.25474" lon="4.09364">
        <ele>620.53</ele>
        <time>2016-07-29T13:42:11Z</time>
      </trkpt>
      <trkpt lat="47.25497" lon="4.09372">
        <ele>618.5</ele>
        <time>2016-07-29T13:42:34Z</time>
      </trkpt>
      <trkpt lat="47.2552" lon="4.0938">
        <ele>617.99</ele>
        <time>2016-07-29T13:42:55Z</time>
      </trkpt>
      <trkpt lat="47.25533" lon="4.09379">
        <ele>617.8</ele>
        <time>2016-07-29T13:43:10Z</time>
      </trkpt>
      <trkpt lat="47.25543" lon="4.09377">
        <ele>618</ele>
        <time>2016-07-29T13:43:19Z</time>
      </trkpt>
      <trkpt lat="47.25575" lon="4.09369">
        <ele>618.58</ele>
        <time>2016-07-29T13:43:42Z</time>
      </trkpt>
      <trkpt lat="47.25591" lon="4.09351">
        <ele>618.77</ele>
        <time>2016-07-29T13:44:06Z</time>
      </trkpt>
      <trkpt lat="47.256" lon="4.09341">
        <ele>619.09</ele>
        <time>2016-07-29T13:44:21Z</time>
      </trkpt>
      <trkpt lat="47.2561" lon="4.09326">
        <ele>619.56</ele>
        <time>2016-07-29T13:44:34Z</time>
      </trkpt>
      <trkpt lat="47.25614" lon="4.09324">
        <ele>619.7</ele>
        <time>2016-07-29T13:44:53Z</time>
      </trkpt>
      <trkpt lat="47.25615" lon="4.09323">
        <ele>619.78</ele>
        <time>2016-07-29T13:45:14Z</time>
      </trkpt>
      <trkpt lat="47.25612" lon="4.09315">
        <ele>619.78</ele>
        <time>2016-07-29T13:45:57Z</time>
      </trkpt>
      <trkpt lat="47.25622" lon="4.09303">
        <ele>619.88</ele>
        <time>2016-07-29T13:46:10Z</time>
      </trkpt>
      <trkpt lat="47.25644" lon="4.09282">
        <ele>621.31</ele>
        <time>2016-07-29T13:46:33Z</time>
      </trkpt>
      <trkpt lat="47.25663" lon="4.09269">
        <ele>621.85</ele>
        <time>2016-07-29T13:46:51Z</time>
      </trkpt>
      <trkpt lat="47.25674" lon="4.09262">
        <ele>621.86</ele>
        <time>2016-07-29T13:47:03Z</time>
      </trkpt>
      <trkpt lat="47.25685" lon="4.09254">
        <ele>622.34</ele>
        <time>2016-07-29T13:47:15Z</time>
      </trkpt>
      <trkpt lat="47.25699" lon="4.09247">
        <ele>622.54</ele>
        <time>2016-07-29T13:47:27Z</time>
      </trkpt>
      <trkpt lat="47.25714" lon="4.0924">
        <ele>623.4</ele>
        <time>2016-07-29T13:47:42Z</time>
      </trkpt>
      <trkpt lat="47.25726" lon="4.09232">
        <ele>624.21</ele>
        <time>2016-07-29T13:47:55Z</time>
      </trkpt>
      <trkpt lat="47.25739" lon="4.09228">
        <ele>625.09</ele>
        <time>2016-07-29T13:48:07Z</time>
      </trkpt>
      <trkpt lat="47.25751" lon="4.09225">
        <ele>626.02</ele>
        <time>2016-07-29T13:48:18Z</time>
      </trkpt>
      <trkpt lat="47.25766" lon="4.09216">
        <ele>627.05</ele>
        <time>2016-07-29T13:48:36Z</time>
      </trkpt>
      <trkpt lat="47.25769" lon="4.09209">
        <ele>627.56</ele>
        <time>2016-07-29T13:48:42Z</time>
      </trkpt>
      <trkpt lat="47.25784" lon="4.09161">
        <ele>628.69</ele>
        <time>2016-07-29T13:49:10Z</time>
      </trkpt>
      <trkpt lat="47.25797" lon="4.09129">
        <ele>629.69</ele>
        <time>2016-07-29T13:49:32Z</time>
      </trkpt>
      <trkpt lat="47.25811" lon="4.09094">
        <ele>630.4</ele>
        <time>2016-07-29T13:49:57Z</time>
      </trkpt>
      <trkpt lat="47.25822" lon="4.09068">
        <ele>631.67</ele>
        <time>2016-07-29T13:50:14Z</time>
      </trkpt>
      <trkpt lat="47.25832" lon="4.09048">
        <ele>632.73</ele>
        <time>2016-07-29T13:50:28Z</time>
      </trkpt>
      <trkpt lat="47.25843" lon="4.09029">
        <ele>633.82</ele>
        <time>2016-07-29T13:50:43Z</time>
      </trkpt>
      <trkpt lat="47.25854" lon="4.09011">
        <ele>634.86</ele>
        <time>2016-07-29T13:50:57Z</time>
      </trkpt>
      <trkpt lat="47.25868" lon="4.08996">
        <ele>635.82</ele>
        <time>2016-07-29T13:51:11Z</time>
      </trkpt>
      <trkpt lat="47.25881" lon="4.08984">
        <ele>636.63</ele>
        <time>2016-07-29T13:51:25Z</time>
      </trkpt>
      <trkpt lat="47.25896" lon="4.08973">
        <ele>637.29</ele>
        <time>2016-07-29T13:51:38Z</time>
      </trkpt>
      <trkpt lat="47.2591" lon="4.08961">
        <ele>638.04</ele>
        <time>2016-07-29T13:51:52Z</time>
      </trkpt>
      <trkpt lat="47.25925" lon="4.08952">
        <ele>639.04</ele>
        <time>2016-07-29T13:52:05Z</time>
      </trkpt>
      <trkpt lat="47.25938" lon="4.08944">
        <ele>639.77</ele>
        <time>2016-07-29T13:52:18Z</time>
      </trkpt>
      <trkpt lat="47.25952" lon="4.08938">
        <ele>640.68</ele>
        <time>2016-07-29T13:52:31Z</time>
      </trkpt>
      <trkpt lat="47.25967" lon="4.08931">
        <ele>641.8</ele>
        <time>2016-07-29T13:52:45Z</time>
      </trkpt>
      <trkpt lat="47.25978" lon="4.08929">
        <ele>642.93</ele>
        <time>2016-07-29T13:52:55Z</time>
      </trkpt>
      <trkpt lat="47.25993" lon="4.08927">
        <ele>643.75</ele>
        <time>2016-07-29T13:53:08Z</time>
      </trkpt>
      <trkpt lat="47.26006" lon="4.08922">
        <ele>644.76</ele>
        <time>2016-07-29T13:53:20Z</time>
      </trkpt>
      <trkpt lat="47.2602" lon="4.08914">
        <ele>645.96</ele>
        <time>2016-07-29T13:53:35Z</time>
      </trkpt>
      <trkpt lat="47.26035" lon="4.08906">
        <ele>646.99</ele>
        <time>2016-07-29T13:53:49Z</time>
      </trkpt>
      <trkpt lat="47.26051" lon="4.08898">
        <ele>647.97</ele>
        <time>2016-07-29T13:54:05Z</time>
      </trkpt>
      <trkpt lat="47.26064" lon="4.08886">
        <ele>649.04</ele>
        <time>2016-07-29T13:54:18Z</time>
      </trkpt>
      <trkpt lat="47.26077" lon="4.08875">
        <ele>649.91</ele>
        <time>2016-07-29T13:54:30Z</time>
      </trkpt>
      <trkpt lat="47.26091" lon="4.08863">
        <ele>650.96</ele>
        <time>2016-07-29T13:54:44Z</time>
      </trkpt>
      <trkpt lat="47.26105" lon="4.08855">
        <ele>651.56</ele>
        <time>2016-07-29T13:54:57Z</time>
      </trkpt>
      <trkpt lat="47.26117" lon="4.08853">
        <ele>652.34</ele>
        <time>2016-07-29T13:55:09Z</time>
      </trkpt>
      <trkpt lat="47.26131" lon="4.08855">
        <ele>653.4</ele>
        <time>2016-07-29T13:55:22Z</time>
      </trkpt>
      <trkpt lat="47.26148" lon="4.08858">
        <ele>654.1</ele>
        <time>2016-07-29T13:55:34Z</time>
      </trkpt>
      <trkpt lat="47.26166" lon="4.08864">
        <ele>654.88</ele>
        <time>2016-07-29T13:55:47Z</time>
      </trkpt>
      <trkpt lat="47.26174" lon="4.08866">
        <ele>655.36</ele>
        <time>2016-07-29T13:55:54Z</time>
      </trkpt>
      <trkpt lat="47.26188" lon="4.08875">
        <ele>655.79</ele>
        <time>2016-07-29T13:56:05Z</time>
      </trkpt>
      <trkpt lat="47.26201" lon="4.0888">
        <ele>656.54</ele>
        <time>2016-07-29T13:56:18Z</time>
      </trkpt>
      <trkpt lat="47.26216" lon="4.08888">
        <ele>657.02</ele>
        <time>2016-07-29T13:56:29Z</time>
      </trkpt>
      <trkpt lat="47.26228" lon="4.08895">
        <ele>657.03</ele>
        <time>2016-07-29T13:56:42Z</time>
      </trkpt>
      <trkpt lat="47.26242" lon="4.08904">
        <ele>656.29</ele>
        <time>2016-07-29T13:56:55Z</time>
      </trkpt>
      <trkpt lat="47.26255" lon="4.08913">
        <ele>655.44</ele>
        <time>2016-07-29T13:57:06Z</time>
      </trkpt>
      <trkpt lat="47.26267" lon="4.08927">
        <ele>654.3</ele>
        <time>2016-07-29T13:57:20Z</time>
      </trkpt>
      <trkpt lat="47.26283" lon="4.08942">
        <ele>652.66</ele>
        <time>2016-07-29T13:57:38Z</time>
      </trkpt>
      <trkpt lat="47.26307" lon="4.08952">
        <ele>651</ele>
        <time>2016-07-29T13:57:58Z</time>
      </trkpt>
      <trkpt lat="47.26321" lon="4.08962">
        <ele>649.64</ele>
        <time>2016-07-29T13:58:10Z</time>
      </trkpt>
      <trkpt lat="47.26333" lon="4.08969">
        <ele>648.54</ele>
        <time>2016-07-29T13:58:21Z</time>
      </trkpt>
      <trkpt lat="47.26345" lon="4.0898">
        <ele>647.43</ele>
        <time>2016-07-29T13:58:33Z</time>
      </trkpt>
      <trkpt lat="47.2635" lon="4.08982">
        <ele>646.2</ele>
        <time>2016-07-29T13:58:43Z</time>
      </trkpt>
      <trkpt lat="47.26361" lon="4.08993">
        <ele>645.31</ele>
        <time>2016-07-29T13:58:56Z</time>
      </trkpt>
      <trkpt lat="47.26369" lon="4.09004">
        <ele>644.72</ele>
        <time>2016-07-29T13:59:07Z</time>
      </trkpt>
      <trkpt lat="47.26377" lon="4.09017">
        <ele>643.83</ele>
        <time>2016-07-29T13:59:19Z</time>
      </trkpt>
      <trkpt lat="47.26383" lon="4.09023">
        <ele>643.06</ele>
        <time>2016-07-29T13:59:32Z</time>
      </trkpt>
      <trkpt lat="47.26393" lon="4.09034">
        <ele>642.4</ele>
        <time>2016-07-29T13:59:46Z</time>
      </trkpt>
      <trkpt lat="47.26399" lon="4.09044">
        <ele>641.9</ele>
        <time>2016-07-29T13:59:58Z</time>
      </trkpt>
      <trkpt lat="47.26402" lon="4.09048">
        <ele>641.64</ele>
        <time>2016-07-29T14:00:01Z</time>
      </trkpt>
      <trkpt lat="47.26413" lon="4.09063">
        <ele>640.12</ele>
        <time>2016-07-29T14:00:14Z</time>
      </trkpt>
      <trkpt lat="47.26424" lon="4.09076">
        <ele>639.65</ele>
        <time>2016-07-29T14:00:26Z</time>
      </trkpt>
      <trkpt lat="47.26435" lon="4.09088">
        <ele>638.81</ele>
        <time>2016-07-29T14:00:38Z</time>
      </trkpt>
      <trkpt lat="47.26446" lon="4.09093">
        <ele>638.79</ele>
        <time>2016-07-29T14:00:53Z</time>
      </trkpt>
      <trkpt lat="47.26458" lon="4.09103">
        <ele>638.49</ele>
        <time>2016-07-29T14:01:07Z</time>
      </trkpt>
      <trkpt lat="47.26477" lon="4.09109">
        <ele>638.56</ele>
        <time>2016-07-29T14:01:23Z</time>
      </trkpt>
      <trkpt lat="47.26489" lon="4.09113">
        <ele>638.87</ele>
        <time>2016-07-29T14:01:34Z</time>
      </trkpt>
      <trkpt lat="47.26505" lon="4.09114">
        <ele>639.13</ele>
        <time>2016-07-29T14:01:48Z</time>
      </trkpt>
      <trkpt lat="47.26523" lon="4.09116">
        <ele>639.31</ele>
        <time>2016-07-29T14:02:03Z</time>
      </trkpt>
      <trkpt lat="47.26541" lon="4.09118">
        <ele>640.13</ele>
        <time>2016-07-29T14:02:17Z</time>
      </trkpt>
      <trkpt lat="47.26551" lon="4.09121">
        <ele>640.68</ele>
        <time>2016-07-29T14:02:26Z</time>
      </trkpt>
      <trkpt lat="47.26566" lon="4.09131">
        <ele>641.8</ele>
        <time>2016-07-29T14:02:40Z</time>
      </trkpt>
      <trkpt lat="47.26567" lon="4.09145">
        <ele>642.82</ele>
        <time>2016-07-29T14:02:53Z</time>
      </trkpt>
      <trkpt lat="47.26567" lon="4.09146">
        <ele>642.87</ele>
        <time>2016-07-29T14:02:54Z</time>
      </trkpt>
      <trkpt lat="47.26562" lon="4.09167">
        <ele>644.26</ele>
        <time>2016-07-29T14:03:11Z</time>
      </trkpt>
      <trkpt lat="47.26549" lon="4.0919">
        <ele>644.85</ele>
        <time>2016-07-29T14:03:28Z</time>
      </trkpt>
      <trkpt lat="47.26527" lon="4.09223">
        <ele>646.01</ele>
        <time>2016-07-29T14:03:55Z</time>
      </trkpt>
      <trkpt lat="47.2651" lon="4.09247">
        <ele>647.06</ele>
        <time>2016-07-29T14:04:17Z</time>
      </trkpt>
      <trkpt lat="47.265" lon="4.09268">
        <ele>647.49</ele>
        <time>2016-07-29T14:04:34Z</time>
      </trkpt>
      <trkpt lat="47.26497" lon="4.09273">
        <ele>647.6</ele>
        <time>2016-07-29T14:04:38Z</time>
      </trkpt>
      <trkpt lat="47.26491" lon="4.09282">
        <ele>647.78</ele>
        <time>2016-07-29T14:04:46Z</time>
      </trkpt>
      <trkpt lat="47.26482" lon="4.09298">
        <ele>647.82</ele>
        <time>2016-07-29T14:05:00Z</time>
      </trkpt>
      <trkpt lat="47.26478" lon="4.09306">
        <ele>647.82</ele>
        <time>2016-07-29T14:05:06Z</time>
      </trkpt>
      <trkpt lat="47.26465" lon="4.09324">
        <ele>647.89</ele>
        <time>2016-07-29T14:05:19Z</time>
      </trkpt>
      <trkpt lat="47.26457" lon="4.09338">
        <ele>647.97</ele>
        <time>2016-07-29T14:05:30Z</time>
      </trkpt>
      <trkpt lat="47.26443" lon="4.09356">
        <ele>648.12</ele>
        <time>2016-07-29T14:05:44Z</time>
      </trkpt>
      <trkpt lat="47.26434" lon="4.0937">
        <ele>648.23</ele>
        <time>2016-07-29T14:05:55Z</time>
      </trkpt>
      <trkpt lat="47.26424" lon="4.09381">
        <ele>648.19</ele>
        <time>2016-07-29T14:06:09Z</time>
      </trkpt>
      <trkpt lat="47.26414" lon="4.09394">
        <ele>648.36</ele>
        <time>2016-07-29T14:06:22Z</time>
      </trkpt>
      <trkpt lat="47.26423" lon="4.09394">
        <ele>648.31</ele>
        <time>2016-07-29T14:06:33Z</time>
      </trkpt>
      <trkpt lat="47.26438" lon="4.09386">
        <ele>647.66</ele>
        <time>2016-07-29T14:06:47Z</time>
      </trkpt>
      <trkpt lat="47.26452" lon="4.0938">
        <ele>647.45</ele>
        <time>2016-07-29T14:07:00Z</time>
      </trkpt>
      <trkpt lat="47.26466" lon="4.09373">
        <ele>647.05</ele>
        <time>2016-07-29T14:07:15Z</time>
      </trkpt>
      <trkpt lat="47.26479" lon="4.09367">
        <ele>646.88</ele>
        <time>2016-07-29T14:07:29Z</time>
      </trkpt>
      <trkpt lat="47.26507" lon="4.09358">
        <ele>646.86</ele>
        <time>2016-07-29T14:07:53Z</time>
      </trkpt>
      <trkpt lat="47.26515" lon="4.09354">
        <ele>647.08</ele>
        <time>2016-07-29T14:08:01Z</time>
      </trkpt>
      <trkpt lat="47.26522" lon="4.09357">
        <ele>647.1</ele>
        <time>2016-07-29T14:08:06Z</time>
      </trkpt>
      <trkpt lat="47.26527" lon="4.0936">
        <ele>647</ele>
        <time>2016-07-29T14:08:11Z</time>
      </trkpt>
      <trkpt lat="47.26538" lon="4.09374">
        <ele>645.95</ele>
        <time>2016-07-29T14:08:24Z</time>
      </trkpt>
      <trkpt lat="47.26546" lon="4.09377">
        <ele>644.25</ele>
        <time>2016-07-29T14:08:36Z</time>
      </trkpt>
      <trkpt lat="47.26562" lon="4.09352">
        <ele>646.94</ele>
        <time>2016-07-29T14:09:01Z</time>
      </trkpt>
      <trkpt lat="47.26576" lon="4.09341">
        <ele>649.2</ele>
        <time>2016-07-29T14:09:22Z</time>
      </trkpt>
      <trkpt lat="47.26596" lon="4.09334">
        <ele>650.49</ele>
        <time>2016-07-29T14:09:44Z</time>
      </trkpt>
      <trkpt lat="47.26616" lon="4.09328">
        <ele>652.18</ele>
        <time>2016-07-29T14:10:05Z</time>
      </trkpt>
      <trkpt lat="47.26628" lon="4.09327">
        <ele>653.06</ele>
        <time>2016-07-29T14:10:20Z</time>
      </trkpt>
      <trkpt lat="47.26637" lon="4.09328">
        <ele>653.99</ele>
        <time>2016-07-29T14:10:31Z</time>
      </trkpt>
      <trkpt lat="47.26652" lon="4.0933">
        <ele>654.22</ele>
        <time>2016-07-29T14:10:44Z</time>
      </trkpt>
      <trkpt lat="47.26653" lon="4.0933">
        <ele>654.38</ele>
        <time>2016-07-29T14:10:46Z</time>
      </trkpt>
      <trkpt lat="47.26662" lon="4.09332">
        <ele>655.27</ele>
        <time>2016-07-29T14:10:55Z</time>
      </trkpt>
      <trkpt lat="47.2669" lon="4.09338">
        <ele>656.87</ele>
        <time>2016-07-29T14:11:18Z</time>
      </trkpt>
      <trkpt lat="47.26703" lon="4.0934">
        <ele>657.69</ele>
        <time>2016-07-29T14:11:29Z</time>
      </trkpt>
      <trkpt lat="47.26719" lon="4.09346">
        <ele>657.57</ele>
        <time>2016-07-29T14:11:47Z</time>
      </trkpt>
      <trkpt lat="47.26742" lon="4.09342">
        <ele>656.61</ele>
        <time>2016-07-29T14:12:10Z</time>
      </trkpt>
      <trkpt lat="47.26768" lon="4.09338">
        <ele>655.93</ele>
        <time>2016-07-29T14:12:33Z</time>
      </trkpt>
      <trkpt lat="47.26782" lon="4.09332">
        <ele>654.44</ele>
        <time>2016-07-29T14:12:50Z</time>
      </trkpt>
      <trkpt lat="47.26792" lon="4.09328">
        <ele>653.28</ele>
        <time>2016-07-29T14:13:04Z</time>
      </trkpt>
      <trkpt lat="47.2681" lon="4.0932">
        <ele>651.35</ele>
        <time>2016-07-29T14:13:24Z</time>
      </trkpt>
      <trkpt lat="47.26829" lon="4.09314">
        <ele>649.26</ele>
        <time>2016-07-29T14:13:45Z</time>
      </trkpt>
      <trkpt lat="47.2684" lon="4.09305">
        <ele>648</ele>
        <time>2016-07-29T14:13:59Z</time>
      </trkpt>
      <trkpt lat="47.26849" lon="4.09295">
        <ele>646.84</ele>
        <time>2016-07-29T14:14:09Z</time>
      </trkpt>
      <trkpt lat="47.26873" lon="4.09277">
        <ele>645.53</ele>
        <time>2016-07-29T14:14:34Z</time>
      </trkpt>
      <trkpt lat="47.2688" lon="4.09272">
        <ele>645.53</ele>
        <time>2016-07-29T14:14:50Z</time>
      </trkpt>
      <trkpt lat="47.26883" lon="4.09269">
        <ele>645.45</ele>
        <time>2016-07-29T14:15:21Z</time>
      </trkpt>
      <trkpt lat="47.26883" lon="4.09265">
        <ele>645.45</ele>
        <time>2016-07-29T14:15:54Z</time>
      </trkpt>
      <trkpt lat="47.26888" lon="4.09267">
        <ele>645.31</ele>
        <time>2016-07-29T14:16:30Z</time>
      </trkpt>
      <trkpt lat="47.26894" lon="4.09264">
        <ele>645.59</ele>
        <time>2016-07-29T14:17:13Z</time>
      </trkpt>
      <trkpt lat="47.26895" lon="4.09259">
        <ele>645.04</ele>
        <time>2016-07-29T14:17:42Z</time>
      </trkpt>
      <trkpt lat="47.26909" lon="4.09242">
        <ele>642.6</ele>
        <time>2016-07-29T14:18:06Z</time>
      </trkpt>
      <trkpt lat="47.2692" lon="4.09233">
        <ele>641.51</ele>
        <time>2016-07-29T14:18:20Z</time>
      </trkpt>
      <trkpt lat="47.26939" lon="4.09215">
        <ele>639.6</ele>
        <time>2016-07-29T14:18:40Z</time>
      </trkpt>
      <trkpt lat="47.26948" lon="4.09205">
        <ele>638.62</ele>
        <time>2016-07-29T14:18:55Z</time>
      </trkpt>
      <trkpt lat="47.26964" lon="4.09186">
        <ele>637.22</ele>
        <time>2016-07-29T14:19:17Z</time>
      </trkpt>
      <trkpt lat="47.2698" lon="4.09162">
        <ele>635.21</ele>
        <time>2016-07-29T14:19:38Z</time>
      </trkpt>
      <trkpt lat="47.27002" lon="4.09142">
        <ele>633.78</ele>
        <time>2016-07-29T14:20:02Z</time>
      </trkpt>
      <trkpt lat="47.27009" lon="4.09139">
        <ele>633.49</ele>
        <time>2016-07-29T14:20:08Z</time>
      </trkpt>
      <trkpt lat="47.27028" lon="4.09128">
        <ele>632.17</ele>
        <time>2016-07-29T14:20:29Z</time>
      </trkpt>
      <trkpt lat="47.27031" lon="4.09124">
        <ele>631.93</ele>
        <time>2016-07-29T14:20:45Z</time>
      </trkpt>
      <trkpt lat="47.27029" lon="4.09115">
        <ele>631.96</ele>
        <time>2016-07-29T14:20:53Z</time>
      </trkpt>
      <trkpt lat="47.27042" lon="4.09085">
        <ele>630.59</ele>
        <time>2016-07-29T14:21:15Z</time>
      </trkpt>
      <trkpt lat="47.2705" lon="4.09073">
        <ele>629.59</ele>
        <time>2016-07-29T14:21:34Z</time>
      </trkpt>
      <trkpt lat="47.27053" lon="4.09063">
        <ele>628.6</ele>
        <time>2016-07-29T14:21:44Z</time>
      </trkpt>
      <trkpt lat="47.27055" lon="4.09052">
        <ele>627.18</ele>
        <time>2016-07-29T14:21:53Z</time>
      </trkpt>
      <trkpt lat="47.27067" lon="4.0903">
        <ele>624.92</ele>
        <time>2016-07-29T14:22:10Z</time>
      </trkpt>
      <trkpt lat="47.27082" lon="4.09021">
        <ele>624.07</ele>
        <time>2016-07-29T14:22:27Z</time>
      </trkpt>
      <trkpt lat="47.27093" lon="4.09014">
        <ele>623.41</ele>
        <time>2016-07-29T14:22:39Z</time>
      </trkpt>
      <trkpt lat="47.27107" lon="4.09008">
        <ele>622.54</ele>
        <time>2016-07-29T14:22:54Z</time>
      </trkpt>
      <trkpt lat="47.27114" lon="4.09005">
        <ele>621.57</ele>
        <time>2016-07-29T14:23:06Z</time>
      </trkpt>
      <trkpt lat="47.27125" lon="4.09004">
        <ele>620.7</ele>
        <time>2016-07-29T14:23:24Z</time>
      </trkpt>
      <trkpt lat="47.27136" lon="4.08996">
        <ele>620.22</ele>
        <time>2016-07-29T14:23:39Z</time>
      </trkpt>
      <trkpt lat="47.27145" lon="4.08992">
        <ele>619.81</ele>
        <time>2016-07-29T14:23:49Z</time>
      </trkpt>
      <trkpt lat="47.27154" lon="4.08995">
        <ele>619.14</ele>
        <time>2016-07-29T14:24:00Z</time>
      </trkpt>
      <trkpt lat="47.27155" lon="4.09">
        <ele>618.94</ele>
        <time>2016-07-29T14:24:14Z</time>
      </trkpt>
      <trkpt lat="47.27154" lon="4.08997">
        <ele>619.21</ele>
        <time>2016-07-29T14:24:46Z</time>
      </trkpt>
      <trkpt lat="47.27152" lon="4.08995">
        <ele>618.58</ele>
        <time>2016-07-29T14:25:12Z</time>
      </trkpt>
      <trkpt lat="47.27153" lon="4.08997">
        <ele>619.01</ele>
        <time>2016-07-29T14:25:42Z</time>
      </trkpt>
    </trkseg>
  </trk>
</gpx>